<?xml version="1.0" encoding="UTF-8" standalone="no" ?>
<gpx xmlns="http://www.topografix.com/GPX/1/1" xmlns:xsi="http://www.w3.org/2001/XMLSchema-instance" xsi:schemaLocation="http://www.topografix.com/GPX/1/1 http://www.topografix.com/GPX/1/1/gpx.xsd" version="1.1" creator="VisuGPX - https://www.visugpx.com">
  <metadata>
    <name>Chemins de Causses</name>
    <desc><![CDATA[Millau - Larzac - Dourbie - Noir - Tarn]]></desc>
  </metadata>
  <trk>
    <name><![CDATA[20180329103027-ftjta]]></name>
    <trkseg>
      <trkpt lat="44.10305" lon="3.08774">
        <ele>357</ele>
        <time>2010-01-01T00:00:00Z</time>
      </trkpt>
      <trkpt lat="44.10299" lon="3.08766">
        <ele>357.2</ele>
        <time>2010-01-01T00:00:03Z</time>
      </trkpt>
      <trkpt lat="44.1027" lon="3.08762">
        <ele>358</ele>
        <time>2010-01-01T00:00:15Z</time>
      </trkpt>
      <trkpt lat="44.10239" lon="3.08737">
        <ele>358.4</ele>
        <time>2010-01-01T00:00:29Z</time>
      </trkpt>
      <trkpt lat="44.10206" lon="3.08714">
        <ele>356</ele>
        <time>2010-01-01T00:00:44Z</time>
      </trkpt>
      <trkpt lat="44.102" lon="3.08691">
        <ele>352.2</ele>
        <time>2010-01-01T00:00:51Z</time>
      </trkpt>
      <trkpt lat="44.10196" lon="3.08655">
        <ele>352.1</ele>
        <time>2010-01-01T00:01:01Z</time>
      </trkpt>
      <trkpt lat="44.10196" lon="3.08614">
        <ele>354.6</ele>
        <time>2010-01-01T00:01:13Z</time>
      </trkpt>
      <trkpt lat="44.10185" lon="3.08603">
        <ele>358.2</ele>
        <time>2010-01-01T00:01:18Z</time>
      </trkpt>
      <trkpt lat="44.10151" lon="3.08625">
        <ele>357</ele>
        <time>2010-01-01T00:01:33Z</time>
      </trkpt>
      <trkpt lat="44.10051" lon="3.08669">
        <ele>358.5</ele>
        <time>2010-01-01T00:02:15Z</time>
      </trkpt>
      <trkpt lat="44.09905" lon="3.08743">
        <ele>354.7</ele>
        <time>2010-01-01T00:03:17Z</time>
      </trkpt>
      <trkpt lat="44.0984" lon="3.08759">
        <ele>356.5</ele>
        <time>2010-01-01T00:03:44Z</time>
      </trkpt>
      <trkpt lat="44.09776" lon="3.08765">
        <ele>355.7</ele>
        <time>2010-01-01T00:04:09Z</time>
      </trkpt>
      <trkpt lat="44.09681" lon="3.08759">
        <ele>358.1</ele>
        <time>2010-01-01T00:04:48Z</time>
      </trkpt>
      <trkpt lat="44.0962" lon="3.08737">
        <ele>358.6</ele>
        <time>2010-01-01T00:05:13Z</time>
      </trkpt>
      <trkpt lat="44.09526" lon="3.08674">
        <ele>357.9</ele>
        <time>2010-01-01T00:05:55Z</time>
      </trkpt>
      <trkpt lat="44.09441" lon="3.08553">
        <ele>355.7</ele>
        <time>2010-01-01T00:06:43Z</time>
      </trkpt>
      <trkpt lat="44.0943" lon="3.08531">
        <ele>354.8</ele>
        <time>2010-01-01T00:06:51Z</time>
      </trkpt>
      <trkpt lat="44.09401" lon="3.08473">
        <ele>354.7</ele>
        <time>2010-01-01T00:07:11Z</time>
      </trkpt>
      <trkpt lat="44.09377" lon="3.08367">
        <ele>354.8</ele>
        <time>2010-01-01T00:07:43Z</time>
      </trkpt>
      <trkpt lat="44.09377" lon="3.08303">
        <ele>354.8</ele>
        <time>2010-01-01T00:08:02Z</time>
      </trkpt>
      <trkpt lat="44.09385" lon="3.08244">
        <ele>355.4</ele>
        <time>2010-01-01T00:08:19Z</time>
      </trkpt>
      <trkpt lat="44.0942" lon="3.08123">
        <ele>354.1</ele>
        <time>2010-01-01T00:08:57Z</time>
      </trkpt>
      <trkpt lat="44.09439" lon="3.08066">
        <ele>354.6</ele>
        <time>2010-01-01T00:09:15Z</time>
      </trkpt>
      <trkpt lat="44.09457" lon="3.08018">
        <ele>354.2</ele>
        <time>2010-01-01T00:09:30Z</time>
      </trkpt>
      <trkpt lat="44.09467" lon="3.07972">
        <ele>354.4</ele>
        <time>2010-01-01T00:09:44Z</time>
      </trkpt>
      <trkpt lat="44.09477" lon="3.07933">
        <ele>353.3</ele>
        <time>2010-01-01T00:09:56Z</time>
      </trkpt>
      <trkpt lat="44.09483" lon="3.07885">
        <ele>353.9</ele>
        <time>2010-01-01T00:10:10Z</time>
      </trkpt>
      <trkpt lat="44.09486" lon="3.07831">
        <ele>355</ele>
        <time>2010-01-01T00:10:25Z</time>
      </trkpt>
      <trkpt lat="44.09487" lon="3.07763">
        <ele>355.6</ele>
        <time>2010-01-01T00:10:45Z</time>
      </trkpt>
      <trkpt lat="44.09477" lon="3.07702">
        <ele>354.1</ele>
        <time>2010-01-01T00:11:03Z</time>
      </trkpt>
      <trkpt lat="44.09466" lon="3.07646">
        <ele>355.5</ele>
        <time>2010-01-01T00:11:20Z</time>
      </trkpt>
      <trkpt lat="44.09453" lon="3.07612">
        <ele>354.2</ele>
        <time>2010-01-01T00:11:31Z</time>
      </trkpt>
      <trkpt lat="44.09441" lon="3.07588">
        <ele>355</ele>
        <time>2010-01-01T00:11:39Z</time>
      </trkpt>
      <trkpt lat="44.09429" lon="3.07566">
        <ele>354.1</ele>
        <time>2010-01-01T00:11:47Z</time>
      </trkpt>
      <trkpt lat="44.09414" lon="3.07557">
        <ele>352.8</ele>
        <time>2010-01-01T00:11:54Z</time>
      </trkpt>
      <trkpt lat="44.09399" lon="3.0754">
        <ele>353.7</ele>
        <time>2010-01-01T00:12:01Z</time>
      </trkpt>
      <trkpt lat="44.09379" lon="3.07524">
        <ele>353.6</ele>
        <time>2010-01-01T00:12:11Z</time>
      </trkpt>
      <trkpt lat="44.09394" lon="3.07492">
        <ele>356.9</ele>
        <time>2010-01-01T00:12:22Z</time>
      </trkpt>
      <trkpt lat="44.0937" lon="3.07477">
        <ele>358.1</ele>
        <time>2010-01-01T00:12:33Z</time>
      </trkpt>
      <trkpt lat="44.09354" lon="3.07467">
        <ele>358.9</ele>
        <time>2010-01-01T00:12:39Z</time>
      </trkpt>
      <trkpt lat="44.09328" lon="3.0749">
        <ele>353.8</ele>
        <time>2010-01-01T00:12:52Z</time>
      </trkpt>
      <trkpt lat="44.0921" lon="3.07605">
        <ele>358.1</ele>
        <time>2010-01-01T00:13:49Z</time>
      </trkpt>
      <trkpt lat="44.09204" lon="3.07606">
        <ele>357.9</ele>
        <time>2010-01-01T00:13:52Z</time>
      </trkpt>
      <trkpt lat="44.09219" lon="3.07586">
        <ele>357.8</ele>
        <time>2010-01-01T00:14:00Z</time>
      </trkpt>
      <trkpt lat="44.09221" lon="3.07567">
        <ele>355</ele>
        <time>2010-01-01T00:14:06Z</time>
      </trkpt>
      <trkpt lat="44.09192" lon="3.07495">
        <ele>353.9</ele>
        <time>2010-01-01T00:14:29Z</time>
      </trkpt>
      <trkpt lat="44.09185" lon="3.07467">
        <ele>353.3</ele>
        <time>2010-01-01T00:14:38Z</time>
      </trkpt>
      <trkpt lat="44.09162" lon="3.07419">
        <ele>353.6</ele>
        <time>2010-01-01T00:14:54Z</time>
      </trkpt>
      <trkpt lat="44.09128" lon="3.07356">
        <ele>354.9</ele>
        <time>2010-01-01T00:15:17Z</time>
      </trkpt>
      <trkpt lat="44.09097" lon="3.07283">
        <ele>355</ele>
        <time>2010-01-01T00:15:42Z</time>
      </trkpt>
      <trkpt lat="44.09087" lon="3.07269">
        <ele>355.6</ele>
        <time>2010-01-01T00:15:47Z</time>
      </trkpt>
      <trkpt lat="44.09079" lon="3.07233">
        <ele>356</ele>
        <time>2010-01-01T00:15:58Z</time>
      </trkpt>
      <trkpt lat="44.09067" lon="3.07193">
        <ele>354</ele>
        <time>2010-01-01T00:16:10Z</time>
      </trkpt>
      <trkpt lat="44.0905" lon="3.0711">
        <ele>353.5</ele>
        <time>2010-01-01T00:16:35Z</time>
      </trkpt>
      <trkpt lat="44.09042" lon="3.07026">
        <ele>353.4</ele>
        <time>2010-01-01T00:17:00Z</time>
      </trkpt>
      <trkpt lat="44.09035" lon="3.06922">
        <ele>356.3</ele>
        <time>2010-01-01T00:17:30Z</time>
      </trkpt>
      <trkpt lat="44.09027" lon="3.06867">
        <ele>357.9</ele>
        <time>2010-01-01T00:17:46Z</time>
      </trkpt>
      <trkpt lat="44.09011" lon="3.06782">
        <ele>360.2</ele>
        <time>2010-01-01T00:18:11Z</time>
      </trkpt>
      <trkpt lat="44.09006" lon="3.06768">
        <ele>361.9</ele>
        <time>2010-01-01T00:18:15Z</time>
      </trkpt>
      <trkpt lat="44.08999" lon="3.06754">
        <ele>364.3</ele>
        <time>2010-01-01T00:18:20Z</time>
      </trkpt>
      <trkpt lat="44.08989" lon="3.06722">
        <ele>363.9</ele>
        <time>2010-01-01T00:18:31Z</time>
      </trkpt>
      <trkpt lat="44.0896" lon="3.06644">
        <ele>367.7</ele>
        <time>2010-01-01T00:18:56Z</time>
      </trkpt>
      <trkpt lat="44.08947" lon="3.06614">
        <ele>368.6</ele>
        <time>2010-01-01T00:19:06Z</time>
      </trkpt>
      <trkpt lat="44.08916" lon="3.06552">
        <ele>367.9</ele>
        <time>2010-01-01T00:19:27Z</time>
      </trkpt>
      <trkpt lat="44.08898" lon="3.06521">
        <ele>367.9</ele>
        <time>2010-01-01T00:19:39Z</time>
      </trkpt>
      <trkpt lat="44.08879" lon="3.06489">
        <ele>367.6</ele>
        <time>2010-01-01T00:19:51Z</time>
      </trkpt>
      <trkpt lat="44.08846" lon="3.06443">
        <ele>367.5</ele>
        <time>2010-01-01T00:20:10Z</time>
      </trkpt>
      <trkpt lat="44.08778" lon="3.06362">
        <ele>368</ele>
        <time>2010-01-01T00:20:45Z</time>
      </trkpt>
      <trkpt lat="44.08755" lon="3.0634">
        <ele>368.1</ele>
        <time>2010-01-01T00:20:56Z</time>
      </trkpt>
      <trkpt lat="44.08718" lon="3.06316">
        <ele>369.6</ele>
        <time>2010-01-01T00:21:13Z</time>
      </trkpt>
      <trkpt lat="44.08695" lon="3.06298">
        <ele>370.8</ele>
        <time>2010-01-01T00:21:24Z</time>
      </trkpt>
      <trkpt lat="44.08684" lon="3.06287">
        <ele>371</ele>
        <time>2010-01-01T00:21:29Z</time>
      </trkpt>
      <trkpt lat="44.08675" lon="3.06275">
        <ele>371.4</ele>
        <time>2010-01-01T00:21:34Z</time>
      </trkpt>
      <trkpt lat="44.08666" lon="3.06262">
        <ele>372.6</ele>
        <time>2010-01-01T00:21:39Z</time>
      </trkpt>
      <trkpt lat="44.08649" lon="3.06231">
        <ele>374.6</ele>
        <time>2010-01-01T00:21:50Z</time>
      </trkpt>
      <trkpt lat="44.08628" lon="3.06205">
        <ele>377</ele>
        <time>2010-01-01T00:22:02Z</time>
      </trkpt>
      <trkpt lat="44.08616" lon="3.06194">
        <ele>376.7</ele>
        <time>2010-01-01T00:22:07Z</time>
      </trkpt>
      <trkpt lat="44.08578" lon="3.06169">
        <ele>380.9</ele>
        <time>2010-01-01T00:22:24Z</time>
      </trkpt>
      <trkpt lat="44.08565" lon="3.06158">
        <ele>379.7</ele>
        <time>2010-01-01T00:22:30Z</time>
      </trkpt>
      <trkpt lat="44.08555" lon="3.06139">
        <ele>377</ele>
        <time>2010-01-01T00:22:37Z</time>
      </trkpt>
      <trkpt lat="44.08543" lon="3.06072">
        <ele>374.8</ele>
        <time>2010-01-01T00:22:57Z</time>
      </trkpt>
      <trkpt lat="44.08536" lon="3.0606">
        <ele>375</ele>
        <time>2010-01-01T00:23:01Z</time>
      </trkpt>
      <trkpt lat="44.08527" lon="3.06066">
        <ele>375.2</ele>
        <time>2010-01-01T00:23:05Z</time>
      </trkpt>
      <trkpt lat="44.08519" lon="3.0607">
        <ele>375.6</ele>
        <time>2010-01-01T00:23:09Z</time>
      </trkpt>
      <trkpt lat="44.08511" lon="3.06065">
        <ele>376.5</ele>
        <time>2010-01-01T00:23:12Z</time>
      </trkpt>
      <trkpt lat="44.08505" lon="3.06058">
        <ele>377.5</ele>
        <time>2010-01-01T00:23:15Z</time>
      </trkpt>
      <trkpt lat="44.08496" lon="3.06053">
        <ele>378.6</ele>
        <time>2010-01-01T00:23:19Z</time>
      </trkpt>
      <trkpt lat="44.08472" lon="3.06054">
        <ele>382.1</ele>
        <time>2010-01-01T00:23:29Z</time>
      </trkpt>
      <trkpt lat="44.08467" lon="3.06052">
        <ele>383.4</ele>
        <time>2010-01-01T00:23:31Z</time>
      </trkpt>
      <trkpt lat="44.08463" lon="3.06048">
        <ele>384.6</ele>
        <time>2010-01-01T00:23:33Z</time>
      </trkpt>
      <trkpt lat="44.08449" lon="3.06027">
        <ele>388.2</ele>
        <time>2010-01-01T00:23:41Z</time>
      </trkpt>
      <trkpt lat="44.08444" lon="3.06023">
        <ele>389.4</ele>
        <time>2010-01-01T00:23:43Z</time>
      </trkpt>
      <trkpt lat="44.0844" lon="3.06025">
        <ele>390.4</ele>
        <time>2010-01-01T00:23:45Z</time>
      </trkpt>
      <trkpt lat="44.0843" lon="3.06033">
        <ele>392.5</ele>
        <time>2010-01-01T00:23:50Z</time>
      </trkpt>
      <trkpt lat="44.08412" lon="3.06038">
        <ele>396.8</ele>
        <time>2010-01-01T00:23:57Z</time>
      </trkpt>
      <trkpt lat="44.08404" lon="3.06045">
        <ele>398.7</ele>
        <time>2010-01-01T00:24:01Z</time>
      </trkpt>
      <trkpt lat="44.08398" lon="3.06055">
        <ele>400.2</ele>
        <time>2010-01-01T00:24:05Z</time>
      </trkpt>
      <trkpt lat="44.08396" lon="3.06051">
        <ele>400.8</ele>
        <time>2010-01-01T00:24:06Z</time>
      </trkpt>
      <trkpt lat="44.08394" lon="3.05999">
        <ele>404</ele>
        <time>2010-01-01T00:24:21Z</time>
      </trkpt>
      <trkpt lat="44.08396" lon="3.05945">
        <ele>405.8</ele>
        <time>2010-01-01T00:24:37Z</time>
      </trkpt>
      <trkpt lat="44.08396" lon="3.05926">
        <ele>406.9</ele>
        <time>2010-01-01T00:24:42Z</time>
      </trkpt>
      <trkpt lat="44.08399" lon="3.05891">
        <ele>408</ele>
        <time>2010-01-01T00:24:52Z</time>
      </trkpt>
      <trkpt lat="44.084" lon="3.05868">
        <ele>409.4</ele>
        <time>2010-01-01T00:24:59Z</time>
      </trkpt>
      <trkpt lat="44.08397" lon="3.05837">
        <ele>410.4</ele>
        <time>2010-01-01T00:25:08Z</time>
      </trkpt>
      <trkpt lat="44.08389" lon="3.05803">
        <ele>411.3</ele>
        <time>2010-01-01T00:25:18Z</time>
      </trkpt>
      <trkpt lat="44.0837" lon="3.05755">
        <ele>412.2</ele>
        <time>2010-01-01T00:25:34Z</time>
      </trkpt>
      <trkpt lat="44.08354" lon="3.05731">
        <ele>412.1</ele>
        <time>2010-01-01T00:25:43Z</time>
      </trkpt>
      <trkpt lat="44.08336" lon="3.05694">
        <ele>410.9</ele>
        <time>2010-01-01T00:25:56Z</time>
      </trkpt>
      <trkpt lat="44.08341" lon="3.05648">
        <ele>416.6</ele>
        <time>2010-01-01T00:26:09Z</time>
      </trkpt>
      <trkpt lat="44.08353" lon="3.05612">
        <ele>414.7</ele>
        <time>2010-01-01T00:26:21Z</time>
      </trkpt>
      <trkpt lat="44.08354" lon="3.05603">
        <ele>414.7</ele>
        <time>2010-01-01T00:26:23Z</time>
      </trkpt>
      <trkpt lat="44.08354" lon="3.0558">
        <ele>417</ele>
        <time>2010-01-01T00:26:30Z</time>
      </trkpt>
      <trkpt lat="44.08356" lon="3.05565">
        <ele>417.3</ele>
        <time>2010-01-01T00:26:34Z</time>
      </trkpt>
      <trkpt lat="44.08349" lon="3.05527">
        <ele>419.1</ele>
        <time>2010-01-01T00:26:46Z</time>
      </trkpt>
      <trkpt lat="44.08335" lon="3.05488">
        <ele>420.7</ele>
        <time>2010-01-01T00:26:58Z</time>
      </trkpt>
      <trkpt lat="44.08329" lon="3.05474">
        <ele>421.5</ele>
        <time>2010-01-01T00:27:03Z</time>
      </trkpt>
      <trkpt lat="44.08332" lon="3.05468">
        <ele>421.6</ele>
        <time>2010-01-01T00:27:05Z</time>
      </trkpt>
      <trkpt lat="44.08341" lon="3.05456">
        <ele>418.6</ele>
        <time>2010-01-01T00:27:10Z</time>
      </trkpt>
      <trkpt lat="44.0835" lon="3.05442">
        <ele>418.3</ele>
        <time>2010-01-01T00:27:15Z</time>
      </trkpt>
      <trkpt lat="44.08362" lon="3.05406">
        <ele>424.5</ele>
        <time>2010-01-01T00:27:27Z</time>
      </trkpt>
      <trkpt lat="44.08366" lon="3.05384">
        <ele>427.5</ele>
        <time>2010-01-01T00:27:33Z</time>
      </trkpt>
      <trkpt lat="44.08365" lon="3.05366">
        <ele>429.5</ele>
        <time>2010-01-01T00:27:39Z</time>
      </trkpt>
      <trkpt lat="44.08361" lon="3.05351">
        <ele>432.1</ele>
        <time>2010-01-01T00:27:43Z</time>
      </trkpt>
      <trkpt lat="44.08355" lon="3.05338">
        <ele>432.8</ele>
        <time>2010-01-01T00:27:47Z</time>
      </trkpt>
      <trkpt lat="44.08347" lon="3.05332">
        <ele>433.5</ele>
        <time>2010-01-01T00:27:51Z</time>
      </trkpt>
      <trkpt lat="44.08339" lon="3.05332">
        <ele>434.4</ele>
        <time>2010-01-01T00:27:54Z</time>
      </trkpt>
      <trkpt lat="44.08335" lon="3.05335">
        <ele>434.9</ele>
        <time>2010-01-01T00:27:56Z</time>
      </trkpt>
      <trkpt lat="44.08334" lon="3.05341">
        <ele>435.5</ele>
        <time>2010-01-01T00:27:58Z</time>
      </trkpt>
      <trkpt lat="44.08333" lon="3.05369">
        <ele>437</ele>
        <time>2010-01-01T00:28:06Z</time>
      </trkpt>
      <trkpt lat="44.08327" lon="3.05385">
        <ele>437.6</ele>
        <time>2010-01-01T00:28:11Z</time>
      </trkpt>
      <trkpt lat="44.08323" lon="3.05391">
        <ele>437.8</ele>
        <time>2010-01-01T00:28:13Z</time>
      </trkpt>
      <trkpt lat="44.08318" lon="3.05395">
        <ele>437.7</ele>
        <time>2010-01-01T00:28:16Z</time>
      </trkpt>
      <trkpt lat="44.08295" lon="3.05405">
        <ele>440.1</ele>
        <time>2010-01-01T00:28:25Z</time>
      </trkpt>
      <trkpt lat="44.08268" lon="3.05424">
        <ele>442.7</ele>
        <time>2010-01-01T00:28:37Z</time>
      </trkpt>
      <trkpt lat="44.08234" lon="3.05454">
        <ele>443.6</ele>
        <time>2010-01-01T00:28:53Z</time>
      </trkpt>
      <trkpt lat="44.08219" lon="3.05474">
        <ele>446.8</ele>
        <time>2010-01-01T00:29:02Z</time>
      </trkpt>
      <trkpt lat="44.0821" lon="3.05488">
        <ele>446.4</ele>
        <time>2010-01-01T00:29:07Z</time>
      </trkpt>
      <trkpt lat="44.08193" lon="3.05524">
        <ele>451.5</ele>
        <time>2010-01-01T00:29:19Z</time>
      </trkpt>
      <trkpt lat="44.08186" lon="3.05535">
        <ele>453.5</ele>
        <time>2010-01-01T00:29:24Z</time>
      </trkpt>
      <trkpt lat="44.08147" lon="3.05553">
        <ele>458.8</ele>
        <time>2010-01-01T00:29:40Z</time>
      </trkpt>
      <trkpt lat="44.08104" lon="3.05576">
        <ele>464.3</ele>
        <time>2010-01-01T00:29:59Z</time>
      </trkpt>
      <trkpt lat="44.0809" lon="3.0559">
        <ele>466.4</ele>
        <time>2010-01-01T00:30:06Z</time>
      </trkpt>
      <trkpt lat="44.08073" lon="3.05614">
        <ele>468.9</ele>
        <time>2010-01-01T00:30:15Z</time>
      </trkpt>
      <trkpt lat="44.08049" lon="3.05641">
        <ele>471.2</ele>
        <time>2010-01-01T00:30:28Z</time>
      </trkpt>
      <trkpt lat="44.08038" lon="3.05657">
        <ele>471.9</ele>
        <time>2010-01-01T00:30:34Z</time>
      </trkpt>
      <trkpt lat="44.08032" lon="3.05675">
        <ele>472.2</ele>
        <time>2010-01-01T00:30:40Z</time>
      </trkpt>
      <trkpt lat="44.08024" lon="3.05717">
        <ele>472.7</ele>
        <time>2010-01-01T00:30:52Z</time>
      </trkpt>
      <trkpt lat="44.08019" lon="3.05739">
        <ele>472.7</ele>
        <time>2010-01-01T00:30:59Z</time>
      </trkpt>
      <trkpt lat="44.08014" lon="3.05751">
        <ele>472.5</ele>
        <time>2010-01-01T00:31:03Z</time>
      </trkpt>
      <trkpt lat="44.08008" lon="3.05759">
        <ele>472.5</ele>
        <time>2010-01-01T00:31:06Z</time>
      </trkpt>
      <trkpt lat="44.07991" lon="3.05769">
        <ele>472.7</ele>
        <time>2010-01-01T00:31:13Z</time>
      </trkpt>
      <trkpt lat="44.07965" lon="3.05781">
        <ele>473</ele>
        <time>2010-01-01T00:31:24Z</time>
      </trkpt>
      <trkpt lat="44.07947" lon="3.05788">
        <ele>473.3</ele>
        <time>2010-01-01T00:31:32Z</time>
      </trkpt>
      <trkpt lat="44.0792" lon="3.05795">
        <ele>474</ele>
        <time>2010-01-01T00:31:43Z</time>
      </trkpt>
      <trkpt lat="44.07911" lon="3.05798">
        <ele>474.2</ele>
        <time>2010-01-01T00:31:47Z</time>
      </trkpt>
      <trkpt lat="44.0787" lon="3.05821">
        <ele>475.8</ele>
        <time>2010-01-01T00:32:04Z</time>
      </trkpt>
      <trkpt lat="44.07846" lon="3.05828">
        <ele>477.8</ele>
        <time>2010-01-01T00:32:14Z</time>
      </trkpt>
      <trkpt lat="44.07837" lon="3.05829">
        <ele>478.4</ele>
        <time>2010-01-01T00:32:18Z</time>
      </trkpt>
      <trkpt lat="44.07781" lon="3.05828">
        <ele>484.3</ele>
        <time>2010-01-01T00:32:40Z</time>
      </trkpt>
      <trkpt lat="44.07766" lon="3.05829">
        <ele>486</ele>
        <time>2010-01-01T00:32:46Z</time>
      </trkpt>
      <trkpt lat="44.07753" lon="3.05834">
        <ele>487.7</ele>
        <time>2010-01-01T00:32:52Z</time>
      </trkpt>
      <trkpt lat="44.07741" lon="3.05843">
        <ele>489.6</ele>
        <time>2010-01-01T00:32:57Z</time>
      </trkpt>
      <trkpt lat="44.07735" lon="3.05849">
        <ele>490.4</ele>
        <time>2010-01-01T00:33:00Z</time>
      </trkpt>
      <trkpt lat="44.0771" lon="3.05884">
        <ele>493.7</ele>
        <time>2010-01-01T00:33:14Z</time>
      </trkpt>
      <trkpt lat="44.077" lon="3.05906">
        <ele>495.6</ele>
        <time>2010-01-01T00:33:22Z</time>
      </trkpt>
      <trkpt lat="44.07687" lon="3.05955">
        <ele>497.9</ele>
        <time>2010-01-01T00:33:37Z</time>
      </trkpt>
      <trkpt lat="44.07672" lon="3.06028">
        <ele>505.6</ele>
        <time>2010-01-01T00:33:58Z</time>
      </trkpt>
      <trkpt lat="44.07671" lon="3.06054">
        <ele>509.1</ele>
        <time>2010-01-01T00:34:06Z</time>
      </trkpt>
      <trkpt lat="44.07673" lon="3.0608">
        <ele>511.7</ele>
        <time>2010-01-01T00:34:13Z</time>
      </trkpt>
      <trkpt lat="44.07691" lon="3.06151">
        <ele>512.9</ele>
        <time>2010-01-01T00:34:35Z</time>
      </trkpt>
      <trkpt lat="44.07699" lon="3.06173">
        <ele>513.6</ele>
        <time>2010-01-01T00:34:42Z</time>
      </trkpt>
      <trkpt lat="44.07696" lon="3.0618">
        <ele>515</ele>
        <time>2010-01-01T00:34:45Z</time>
      </trkpt>
      <trkpt lat="44.07691" lon="3.06179">
        <ele>516.3</ele>
        <time>2010-01-01T00:34:47Z</time>
      </trkpt>
      <trkpt lat="44.07686" lon="3.06174">
        <ele>516.9</ele>
        <time>2010-01-01T00:34:49Z</time>
      </trkpt>
      <trkpt lat="44.07675" lon="3.06153">
        <ele>517.9</ele>
        <time>2010-01-01T00:34:57Z</time>
      </trkpt>
      <trkpt lat="44.07664" lon="3.06125">
        <ele>520.2</ele>
        <time>2010-01-01T00:35:06Z</time>
      </trkpt>
      <trkpt lat="44.07646" lon="3.06094">
        <ele>525</ele>
        <time>2010-01-01T00:35:17Z</time>
      </trkpt>
      <trkpt lat="44.0764" lon="3.0608">
        <ele>526.3</ele>
        <time>2010-01-01T00:35:22Z</time>
      </trkpt>
      <trkpt lat="44.07627" lon="3.06035">
        <ele>526.4</ele>
        <time>2010-01-01T00:35:36Z</time>
      </trkpt>
      <trkpt lat="44.0762" lon="3.06013">
        <ele>527.2</ele>
        <time>2010-01-01T00:35:43Z</time>
      </trkpt>
      <trkpt lat="44.07601" lon="3.05982">
        <ele>530</ele>
        <time>2010-01-01T00:35:55Z</time>
      </trkpt>
      <trkpt lat="44.07587" lon="3.05969">
        <ele>532.2</ele>
        <time>2010-01-01T00:36:01Z</time>
      </trkpt>
      <trkpt lat="44.07584" lon="3.05969">
        <ele>533.1</ele>
        <time>2010-01-01T00:36:02Z</time>
      </trkpt>
      <trkpt lat="44.07584" lon="3.05973">
        <ele>534</ele>
        <time>2010-01-01T00:36:04Z</time>
      </trkpt>
      <trkpt lat="44.07591" lon="3.05989">
        <ele>534.7</ele>
        <time>2010-01-01T00:36:09Z</time>
      </trkpt>
      <trkpt lat="44.07594" lon="3.06004">
        <ele>536.7</ele>
        <time>2010-01-01T00:36:14Z</time>
      </trkpt>
      <trkpt lat="44.07593" lon="3.06017">
        <ele>539.1</ele>
        <time>2010-01-01T00:36:17Z</time>
      </trkpt>
      <trkpt lat="44.07595" lon="3.06035">
        <ele>541.1</ele>
        <time>2010-01-01T00:36:23Z</time>
      </trkpt>
      <trkpt lat="44.07594" lon="3.06051">
        <ele>544.4</ele>
        <time>2010-01-01T00:36:27Z</time>
      </trkpt>
      <trkpt lat="44.07596" lon="3.0608">
        <ele>547.3</ele>
        <time>2010-01-01T00:36:36Z</time>
      </trkpt>
      <trkpt lat="44.07593" lon="3.06104">
        <ele>551.3</ele>
        <time>2010-01-01T00:36:43Z</time>
      </trkpt>
      <trkpt lat="44.07592" lon="3.06109">
        <ele>552.6</ele>
        <time>2010-01-01T00:36:44Z</time>
      </trkpt>
      <trkpt lat="44.07593" lon="3.06122">
        <ele>552.6</ele>
        <time>2010-01-01T00:36:48Z</time>
      </trkpt>
      <trkpt lat="44.07589" lon="3.06164">
        <ele>556.4</ele>
        <time>2010-01-01T00:37:00Z</time>
      </trkpt>
      <trkpt lat="44.07584" lon="3.06191">
        <ele>558.6</ele>
        <time>2010-01-01T00:37:08Z</time>
      </trkpt>
      <trkpt lat="44.07574" lon="3.0623">
        <ele>564.7</ele>
        <time>2010-01-01T00:37:20Z</time>
      </trkpt>
      <trkpt lat="44.07571" lon="3.06272">
        <ele>571</ele>
        <time>2010-01-01T00:37:32Z</time>
      </trkpt>
      <trkpt lat="44.07578" lon="3.06286">
        <ele>569.5</ele>
        <time>2010-01-01T00:37:37Z</time>
      </trkpt>
      <trkpt lat="44.07587" lon="3.06297">
        <ele>566.6</ele>
        <time>2010-01-01T00:37:42Z</time>
      </trkpt>
      <trkpt lat="44.07591" lon="3.06311">
        <ele>565.9</ele>
        <time>2010-01-01T00:37:46Z</time>
      </trkpt>
      <trkpt lat="44.07591" lon="3.06321">
        <ele>566.8</ele>
        <time>2010-01-01T00:37:49Z</time>
      </trkpt>
      <trkpt lat="44.07588" lon="3.06335">
        <ele>570</ele>
        <time>2010-01-01T00:37:54Z</time>
      </trkpt>
      <trkpt lat="44.07583" lon="3.06342">
        <ele>573</ele>
        <time>2010-01-01T00:37:56Z</time>
      </trkpt>
      <trkpt lat="44.07574" lon="3.06375">
        <ele>578.2</ele>
        <time>2010-01-01T00:38:06Z</time>
      </trkpt>
      <trkpt lat="44.07554" lon="3.06424">
        <ele>589.4</ele>
        <time>2010-01-01T00:38:23Z</time>
      </trkpt>
      <trkpt lat="44.07549" lon="3.06451">
        <ele>594</ele>
        <time>2010-01-01T00:38:31Z</time>
      </trkpt>
      <trkpt lat="44.07546" lon="3.06485">
        <ele>598.2</ele>
        <time>2010-01-01T00:38:40Z</time>
      </trkpt>
      <trkpt lat="44.07544" lon="3.06504">
        <ele>601.8</ele>
        <time>2010-01-01T00:38:46Z</time>
      </trkpt>
      <trkpt lat="44.07552" lon="3.06544">
        <ele>603.9</ele>
        <time>2010-01-01T00:38:58Z</time>
      </trkpt>
      <trkpt lat="44.07556" lon="3.0655">
        <ele>603.7</ele>
        <time>2010-01-01T00:39:00Z</time>
      </trkpt>
      <trkpt lat="44.0756" lon="3.06553">
        <ele>604.3</ele>
        <time>2010-01-01T00:39:02Z</time>
      </trkpt>
      <trkpt lat="44.0758" lon="3.0656">
        <ele>606.7</ele>
        <time>2010-01-01T00:39:10Z</time>
      </trkpt>
      <trkpt lat="44.07593" lon="3.06568">
        <ele>610.8</ele>
        <time>2010-01-01T00:39:16Z</time>
      </trkpt>
      <trkpt lat="44.07597" lon="3.06569">
        <ele>611.7</ele>
        <time>2010-01-01T00:39:18Z</time>
      </trkpt>
      <trkpt lat="44.07618" lon="3.06568">
        <ele>614.9</ele>
        <time>2010-01-01T00:39:26Z</time>
      </trkpt>
      <trkpt lat="44.07632" lon="3.06563">
        <ele>617.3</ele>
        <time>2010-01-01T00:39:32Z</time>
      </trkpt>
      <trkpt lat="44.07642" lon="3.06555">
        <ele>617.7</ele>
        <time>2010-01-01T00:39:36Z</time>
      </trkpt>
      <trkpt lat="44.07656" lon="3.06551">
        <ele>620.7</ele>
        <time>2010-01-01T00:39:42Z</time>
      </trkpt>
      <trkpt lat="44.07678" lon="3.06542">
        <ele>624.2</ele>
        <time>2010-01-01T00:39:51Z</time>
      </trkpt>
      <trkpt lat="44.07711" lon="3.06525">
        <ele>627.4</ele>
        <time>2010-01-01T00:40:05Z</time>
      </trkpt>
      <trkpt lat="44.07756" lon="3.06516">
        <ele>634.1</ele>
        <time>2010-01-01T00:40:24Z</time>
      </trkpt>
      <trkpt lat="44.07759" lon="3.06517">
        <ele>635.1</ele>
        <time>2010-01-01T00:40:25Z</time>
      </trkpt>
      <trkpt lat="44.07758" lon="3.06521">
        <ele>636</ele>
        <time>2010-01-01T00:40:26Z</time>
      </trkpt>
      <trkpt lat="44.07744" lon="3.0654">
        <ele>638.8</ele>
        <time>2010-01-01T00:40:34Z</time>
      </trkpt>
      <trkpt lat="44.07713" lon="3.06593">
        <ele>646</ele>
        <time>2010-01-01T00:40:53Z</time>
      </trkpt>
      <trkpt lat="44.07689" lon="3.06624">
        <ele>649.3</ele>
        <time>2010-01-01T00:41:06Z</time>
      </trkpt>
      <trkpt lat="44.07662" lon="3.06664">
        <ele>656.5</ele>
        <time>2010-01-01T00:41:22Z</time>
      </trkpt>
      <trkpt lat="44.07635" lon="3.06688">
        <ele>659.9</ele>
        <time>2010-01-01T00:41:35Z</time>
      </trkpt>
      <trkpt lat="44.07627" lon="3.06698">
        <ele>663.8</ele>
        <time>2010-01-01T00:41:39Z</time>
      </trkpt>
      <trkpt lat="44.07616" lon="3.06697">
        <ele>662.4</ele>
        <time>2010-01-01T00:41:44Z</time>
      </trkpt>
      <trkpt lat="44.07608" lon="3.06697">
        <ele>662.6</ele>
        <time>2010-01-01T00:41:47Z</time>
      </trkpt>
      <trkpt lat="44.07596" lon="3.06695">
        <ele>662.7</ele>
        <time>2010-01-01T00:41:52Z</time>
      </trkpt>
      <trkpt lat="44.07589" lon="3.06696">
        <ele>664.3</ele>
        <time>2010-01-01T00:41:55Z</time>
      </trkpt>
      <trkpt lat="44.07556" lon="3.06697">
        <ele>666.4</ele>
        <time>2010-01-01T00:42:08Z</time>
      </trkpt>
      <trkpt lat="44.07529" lon="3.06703">
        <ele>667.7</ele>
        <time>2010-01-01T00:42:19Z</time>
      </trkpt>
      <trkpt lat="44.07519" lon="3.06706">
        <ele>668.4</ele>
        <time>2010-01-01T00:42:23Z</time>
      </trkpt>
      <trkpt lat="44.07503" lon="3.06713">
        <ele>670.9</ele>
        <time>2010-01-01T00:42:30Z</time>
      </trkpt>
      <trkpt lat="44.07486" lon="3.06716">
        <ele>670.7</ele>
        <time>2010-01-01T00:42:37Z</time>
      </trkpt>
      <trkpt lat="44.07479" lon="3.06719">
        <ele>671.4</ele>
        <time>2010-01-01T00:42:40Z</time>
      </trkpt>
      <trkpt lat="44.07472" lon="3.06725">
        <ele>673.4</ele>
        <time>2010-01-01T00:42:43Z</time>
      </trkpt>
      <trkpt lat="44.07468" lon="3.06726">
        <ele>673.5</ele>
        <time>2010-01-01T00:42:44Z</time>
      </trkpt>
      <trkpt lat="44.07458" lon="3.06733">
        <ele>675.2</ele>
        <time>2010-01-01T00:42:49Z</time>
      </trkpt>
      <trkpt lat="44.07445" lon="3.06745">
        <ele>676.1</ele>
        <time>2010-01-01T00:42:55Z</time>
      </trkpt>
      <trkpt lat="44.0744" lon="3.06761">
        <ele>679</ele>
        <time>2010-01-01T00:43:00Z</time>
      </trkpt>
      <trkpt lat="44.07441" lon="3.06774">
        <ele>681.6</ele>
        <time>2010-01-01T00:43:04Z</time>
      </trkpt>
      <trkpt lat="44.07445" lon="3.0678">
        <ele>682.9</ele>
        <time>2010-01-01T00:43:06Z</time>
      </trkpt>
      <trkpt lat="44.0745" lon="3.0679">
        <ele>686.5</ele>
        <time>2010-01-01T00:43:10Z</time>
      </trkpt>
      <trkpt lat="44.07464" lon="3.06809">
        <ele>692.4</ele>
        <time>2010-01-01T00:43:18Z</time>
      </trkpt>
      <trkpt lat="44.0747" lon="3.06815">
        <ele>693.1</ele>
        <time>2010-01-01T00:43:21Z</time>
      </trkpt>
      <trkpt lat="44.0748" lon="3.06829">
        <ele>695.4</ele>
        <time>2010-01-01T00:43:26Z</time>
      </trkpt>
      <trkpt lat="44.07481" lon="3.06833">
        <ele>695.3</ele>
        <time>2010-01-01T00:43:27Z</time>
      </trkpt>
      <trkpt lat="44.07483" lon="3.06859">
        <ele>698.5</ele>
        <time>2010-01-01T00:43:35Z</time>
      </trkpt>
      <trkpt lat="44.07481" lon="3.06879">
        <ele>701.5</ele>
        <time>2010-01-01T00:43:41Z</time>
      </trkpt>
      <trkpt lat="44.07471" lon="3.06898">
        <ele>703.3</ele>
        <time>2010-01-01T00:43:48Z</time>
      </trkpt>
      <trkpt lat="44.07473" lon="3.069">
        <ele>703.5</ele>
        <time>2010-01-01T00:43:49Z</time>
      </trkpt>
      <trkpt lat="44.07477" lon="3.069">
        <ele>704.6</ele>
        <time>2010-01-01T00:43:50Z</time>
      </trkpt>
      <trkpt lat="44.0749" lon="3.06893">
        <ele>706.7</ele>
        <time>2010-01-01T00:43:56Z</time>
      </trkpt>
      <trkpt lat="44.07492" lon="3.0689">
        <ele>706.9</ele>
        <time>2010-01-01T00:43:57Z</time>
      </trkpt>
      <trkpt lat="44.07503" lon="3.06862">
        <ele>706.8</ele>
        <time>2010-01-01T00:44:06Z</time>
      </trkpt>
      <trkpt lat="44.07505" lon="3.06846">
        <ele>707.6</ele>
        <time>2010-01-01T00:44:11Z</time>
      </trkpt>
      <trkpt lat="44.0751" lon="3.06827">
        <ele>709.5</ele>
        <time>2010-01-01T00:44:17Z</time>
      </trkpt>
      <trkpt lat="44.07522" lon="3.06804">
        <ele>712.7</ele>
        <time>2010-01-01T00:44:25Z</time>
      </trkpt>
      <trkpt lat="44.07532" lon="3.06792">
        <ele>712.5</ele>
        <time>2010-01-01T00:44:30Z</time>
      </trkpt>
      <trkpt lat="44.07563" lon="3.06779">
        <ele>711.5</ele>
        <time>2010-01-01T00:44:43Z</time>
      </trkpt>
      <trkpt lat="44.0758" lon="3.06777">
        <ele>710</ele>
        <time>2010-01-01T00:44:50Z</time>
      </trkpt>
      <trkpt lat="44.07594" lon="3.06781">
        <ele>708</ele>
        <time>2010-01-01T00:44:56Z</time>
      </trkpt>
      <trkpt lat="44.07612" lon="3.06792">
        <ele>706.3</ele>
        <time>2010-01-01T00:45:04Z</time>
      </trkpt>
      <trkpt lat="44.07627" lon="3.06806">
        <ele>707.4</ele>
        <time>2010-01-01T00:45:11Z</time>
      </trkpt>
      <trkpt lat="44.07638" lon="3.06814">
        <ele>707.9</ele>
        <time>2010-01-01T00:45:16Z</time>
      </trkpt>
      <trkpt lat="44.07647" lon="3.06818">
        <ele>709.2</ele>
        <time>2010-01-01T00:45:19Z</time>
      </trkpt>
      <trkpt lat="44.07663" lon="3.06818">
        <ele>710.4</ele>
        <time>2010-01-01T00:45:26Z</time>
      </trkpt>
      <trkpt lat="44.07676" lon="3.06814">
        <ele>712.1</ele>
        <time>2010-01-01T00:45:31Z</time>
      </trkpt>
      <trkpt lat="44.07681" lon="3.06809">
        <ele>712.6</ele>
        <time>2010-01-01T00:45:34Z</time>
      </trkpt>
      <trkpt lat="44.07688" lon="3.06797">
        <ele>713.2</ele>
        <time>2010-01-01T00:45:38Z</time>
      </trkpt>
      <trkpt lat="44.07704" lon="3.06775">
        <ele>715.2</ele>
        <time>2010-01-01T00:45:47Z</time>
      </trkpt>
      <trkpt lat="44.07708" lon="3.06769">
        <ele>715.1</ele>
        <time>2010-01-01T00:45:50Z</time>
      </trkpt>
      <trkpt lat="44.07718" lon="3.06763">
        <ele>716.3</ele>
        <time>2010-01-01T00:45:54Z</time>
      </trkpt>
      <trkpt lat="44.07723" lon="3.0676">
        <ele>717.1</ele>
        <time>2010-01-01T00:45:56Z</time>
      </trkpt>
      <trkpt lat="44.07728" lon="3.0676">
        <ele>717.7</ele>
        <time>2010-01-01T00:45:58Z</time>
      </trkpt>
      <trkpt lat="44.07745" lon="3.06754">
        <ele>719.5</ele>
        <time>2010-01-01T00:46:05Z</time>
      </trkpt>
      <trkpt lat="44.07754" lon="3.06748">
        <ele>720</ele>
        <time>2010-01-01T00:46:09Z</time>
      </trkpt>
      <trkpt lat="44.07769" lon="3.06744">
        <ele>721.1</ele>
        <time>2010-01-01T00:46:15Z</time>
      </trkpt>
      <trkpt lat="44.07779" lon="3.06747">
        <ele>722.6</ele>
        <time>2010-01-01T00:46:19Z</time>
      </trkpt>
      <trkpt lat="44.07796" lon="3.06759">
        <ele>725.1</ele>
        <time>2010-01-01T00:46:27Z</time>
      </trkpt>
      <trkpt lat="44.07809" lon="3.06765">
        <ele>726.9</ele>
        <time>2010-01-01T00:46:33Z</time>
      </trkpt>
      <trkpt lat="44.07818" lon="3.06767">
        <ele>727.7</ele>
        <time>2010-01-01T00:46:36Z</time>
      </trkpt>
      <trkpt lat="44.07827" lon="3.06766">
        <ele>728.2</ele>
        <time>2010-01-01T00:46:40Z</time>
      </trkpt>
      <trkpt lat="44.07844" lon="3.06771">
        <ele>729.9</ele>
        <time>2010-01-01T00:46:47Z</time>
      </trkpt>
      <trkpt lat="44.07871" lon="3.06793">
        <ele>730.1</ele>
        <time>2010-01-01T00:46:59Z</time>
      </trkpt>
      <trkpt lat="44.07893" lon="3.06833">
        <ele>731.7</ele>
        <time>2010-01-01T00:47:14Z</time>
      </trkpt>
      <trkpt lat="44.07894" lon="3.0684">
        <ele>731.8</ele>
        <time>2010-01-01T00:47:16Z</time>
      </trkpt>
      <trkpt lat="44.07886" lon="3.06863">
        <ele>736.2</ele>
        <time>2010-01-01T00:47:23Z</time>
      </trkpt>
      <trkpt lat="44.07884" lon="3.06879">
        <ele>736.8</ele>
        <time>2010-01-01T00:47:27Z</time>
      </trkpt>
      <trkpt lat="44.07885" lon="3.06895">
        <ele>737.4</ele>
        <time>2010-01-01T00:47:32Z</time>
      </trkpt>
      <trkpt lat="44.07883" lon="3.06929">
        <ele>738.3</ele>
        <time>2010-01-01T00:47:42Z</time>
      </trkpt>
      <trkpt lat="44.07885" lon="3.06987">
        <ele>736</ele>
        <time>2010-01-01T00:47:59Z</time>
      </trkpt>
      <trkpt lat="44.07888" lon="3.07011">
        <ele>735.2</ele>
        <time>2010-01-01T00:48:06Z</time>
      </trkpt>
      <trkpt lat="44.07901" lon="3.07079">
        <ele>734.1</ele>
        <time>2010-01-01T00:48:26Z</time>
      </trkpt>
      <trkpt lat="44.07916" lon="3.07128">
        <ele>735.6</ele>
        <time>2010-01-01T00:48:41Z</time>
      </trkpt>
      <trkpt lat="44.07925" lon="3.07156">
        <ele>735.2</ele>
        <time>2010-01-01T00:48:50Z</time>
      </trkpt>
      <trkpt lat="44.07942" lon="3.0719">
        <ele>737.2</ele>
        <time>2010-01-01T00:49:02Z</time>
      </trkpt>
      <trkpt lat="44.07963" lon="3.07222">
        <ele>740.3</ele>
        <time>2010-01-01T00:49:14Z</time>
      </trkpt>
      <trkpt lat="44.07995" lon="3.07259">
        <ele>742.6</ele>
        <time>2010-01-01T00:49:31Z</time>
      </trkpt>
      <trkpt lat="44.07998" lon="3.07277">
        <ele>743.2</ele>
        <time>2010-01-01T00:49:36Z</time>
      </trkpt>
      <trkpt lat="44.07996" lon="3.07299">
        <ele>745.6</ele>
        <time>2010-01-01T00:49:43Z</time>
      </trkpt>
      <trkpt lat="44.07998" lon="3.07312">
        <ele>747.1</ele>
        <time>2010-01-01T00:49:47Z</time>
      </trkpt>
      <trkpt lat="44.08001" lon="3.07318">
        <ele>747.6</ele>
        <time>2010-01-01T00:49:49Z</time>
      </trkpt>
      <trkpt lat="44.08009" lon="3.07328">
        <ele>748</ele>
        <time>2010-01-01T00:49:53Z</time>
      </trkpt>
      <trkpt lat="44.08032" lon="3.07348">
        <ele>747.4</ele>
        <time>2010-01-01T00:50:04Z</time>
      </trkpt>
      <trkpt lat="44.08041" lon="3.07359">
        <ele>747.5</ele>
        <time>2010-01-01T00:50:09Z</time>
      </trkpt>
      <trkpt lat="44.08048" lon="3.07372">
        <ele>748.1</ele>
        <time>2010-01-01T00:50:13Z</time>
      </trkpt>
      <trkpt lat="44.08057" lon="3.07395">
        <ele>749.3</ele>
        <time>2010-01-01T00:50:21Z</time>
      </trkpt>
      <trkpt lat="44.08065" lon="3.07409">
        <ele>746.2</ele>
        <time>2010-01-01T00:50:26Z</time>
      </trkpt>
      <trkpt lat="44.08083" lon="3.07479">
        <ele>748.9</ele>
        <time>2010-01-01T00:50:47Z</time>
      </trkpt>
      <trkpt lat="44.08089" lon="3.07494">
        <ele>749</ele>
        <time>2010-01-01T00:50:52Z</time>
      </trkpt>
      <trkpt lat="44.08089" lon="3.07511">
        <ele>751.2</ele>
        <time>2010-01-01T00:50:57Z</time>
      </trkpt>
      <trkpt lat="44.08099" lon="3.0753">
        <ele>752.5</ele>
        <time>2010-01-01T00:51:04Z</time>
      </trkpt>
      <trkpt lat="44.08108" lon="3.07577">
        <ele>757.1</ele>
        <time>2010-01-01T00:51:18Z</time>
      </trkpt>
      <trkpt lat="44.08109" lon="3.07592">
        <ele>759.2</ele>
        <time>2010-01-01T00:51:22Z</time>
      </trkpt>
      <trkpt lat="44.08115" lon="3.0761">
        <ele>760.8</ele>
        <time>2010-01-01T00:51:28Z</time>
      </trkpt>
      <trkpt lat="44.08116" lon="3.07627">
        <ele>762.4</ele>
        <time>2010-01-01T00:51:33Z</time>
      </trkpt>
      <trkpt lat="44.08127" lon="3.07645">
        <ele>763.5</ele>
        <time>2010-01-01T00:51:39Z</time>
      </trkpt>
      <trkpt lat="44.0814" lon="3.07698">
        <ele>769.1</ele>
        <time>2010-01-01T00:51:56Z</time>
      </trkpt>
      <trkpt lat="44.0815" lon="3.07719">
        <ele>770.2</ele>
        <time>2010-01-01T00:52:03Z</time>
      </trkpt>
      <trkpt lat="44.08157" lon="3.07741">
        <ele>772.5</ele>
        <time>2010-01-01T00:52:10Z</time>
      </trkpt>
      <trkpt lat="44.08164" lon="3.07773">
        <ele>776.2</ele>
        <time>2010-01-01T00:52:19Z</time>
      </trkpt>
      <trkpt lat="44.08178" lon="3.07805">
        <ele>778.9</ele>
        <time>2010-01-01T00:52:30Z</time>
      </trkpt>
      <trkpt lat="44.08179" lon="3.07813">
        <ele>779.4</ele>
        <time>2010-01-01T00:52:32Z</time>
      </trkpt>
      <trkpt lat="44.08186" lon="3.07827">
        <ele>780.3</ele>
        <time>2010-01-01T00:52:37Z</time>
      </trkpt>
      <trkpt lat="44.082" lon="3.07868">
        <ele>780.8</ele>
        <time>2010-01-01T00:52:50Z</time>
      </trkpt>
      <trkpt lat="44.08213" lon="3.07899">
        <ele>778.9</ele>
        <time>2010-01-01T00:53:01Z</time>
      </trkpt>
      <trkpt lat="44.08219" lon="3.07931">
        <ele>779.4</ele>
        <time>2010-01-01T00:53:10Z</time>
      </trkpt>
      <trkpt lat="44.08216" lon="3.0794">
        <ele>780.3</ele>
        <time>2010-01-01T00:53:13Z</time>
      </trkpt>
      <trkpt lat="44.08208" lon="3.07952">
        <ele>782.8</ele>
        <time>2010-01-01T00:53:17Z</time>
      </trkpt>
      <trkpt lat="44.08208" lon="3.07959">
        <ele>783.2</ele>
        <time>2010-01-01T00:53:20Z</time>
      </trkpt>
      <trkpt lat="44.0821" lon="3.07974">
        <ele>783.2</ele>
        <time>2010-01-01T00:53:24Z</time>
      </trkpt>
      <trkpt lat="44.0821" lon="3.0799">
        <ele>783.7</ele>
        <time>2010-01-01T00:53:29Z</time>
      </trkpt>
      <trkpt lat="44.08207" lon="3.08012">
        <ele>784.9</ele>
        <time>2010-01-01T00:53:35Z</time>
      </trkpt>
      <trkpt lat="44.08209" lon="3.0804">
        <ele>784.7</ele>
        <time>2010-01-01T00:53:43Z</time>
      </trkpt>
      <trkpt lat="44.08207" lon="3.08047">
        <ele>785.6</ele>
        <time>2010-01-01T00:53:45Z</time>
      </trkpt>
      <trkpt lat="44.082" lon="3.08056">
        <ele>788.8</ele>
        <time>2010-01-01T00:53:49Z</time>
      </trkpt>
      <trkpt lat="44.08196" lon="3.08077">
        <ele>791.3</ele>
        <time>2010-01-01T00:53:55Z</time>
      </trkpt>
      <trkpt lat="44.08193" lon="3.08083">
        <ele>792.1</ele>
        <time>2010-01-01T00:53:58Z</time>
      </trkpt>
      <trkpt lat="44.0819" lon="3.08089">
        <ele>792.4</ele>
        <time>2010-01-01T00:54:00Z</time>
      </trkpt>
      <trkpt lat="44.08183" lon="3.08094">
        <ele>793</ele>
        <time>2010-01-01T00:54:03Z</time>
      </trkpt>
      <trkpt lat="44.0818" lon="3.081">
        <ele>793.4</ele>
        <time>2010-01-01T00:54:05Z</time>
      </trkpt>
      <trkpt lat="44.08178" lon="3.08106">
        <ele>793.9</ele>
        <time>2010-01-01T00:54:07Z</time>
      </trkpt>
      <trkpt lat="44.08178" lon="3.08119">
        <ele>794.5</ele>
        <time>2010-01-01T00:54:10Z</time>
      </trkpt>
      <trkpt lat="44.08171" lon="3.08135">
        <ele>795.6</ele>
        <time>2010-01-01T00:54:16Z</time>
      </trkpt>
      <trkpt lat="44.08173" lon="3.08149">
        <ele>795.8</ele>
        <time>2010-01-01T00:54:20Z</time>
      </trkpt>
      <trkpt lat="44.08173" lon="3.0816">
        <ele>796.1</ele>
        <time>2010-01-01T00:54:23Z</time>
      </trkpt>
      <trkpt lat="44.0817" lon="3.08172">
        <ele>796.7</ele>
        <time>2010-01-01T00:54:27Z</time>
      </trkpt>
      <trkpt lat="44.0817" lon="3.08192">
        <ele>797.1</ele>
        <time>2010-01-01T00:54:32Z</time>
      </trkpt>
      <trkpt lat="44.08172" lon="3.08199">
        <ele>796.5</ele>
        <time>2010-01-01T00:54:35Z</time>
      </trkpt>
      <trkpt lat="44.08173" lon="3.08217">
        <ele>795.6</ele>
        <time>2010-01-01T00:54:40Z</time>
      </trkpt>
      <trkpt lat="44.08169" lon="3.08227">
        <ele>795.9</ele>
        <time>2010-01-01T00:54:43Z</time>
      </trkpt>
      <trkpt lat="44.08159" lon="3.08245">
        <ele>795.3</ele>
        <time>2010-01-01T00:54:50Z</time>
      </trkpt>
      <trkpt lat="44.08148" lon="3.08286">
        <ele>793.7</ele>
        <time>2010-01-01T00:55:02Z</time>
      </trkpt>
      <trkpt lat="44.08137" lon="3.0832">
        <ele>792.3</ele>
        <time>2010-01-01T00:55:13Z</time>
      </trkpt>
      <trkpt lat="44.08112" lon="3.08364">
        <ele>792</ele>
        <time>2010-01-01T00:55:29Z</time>
      </trkpt>
      <trkpt lat="44.08101" lon="3.08396">
        <ele>788.8</ele>
        <time>2010-01-01T00:55:39Z</time>
      </trkpt>
      <trkpt lat="44.08086" lon="3.08422">
        <ele>789.4</ele>
        <time>2010-01-01T00:55:49Z</time>
      </trkpt>
      <trkpt lat="44.08082" lon="3.08437">
        <ele>788.2</ele>
        <time>2010-01-01T00:55:53Z</time>
      </trkpt>
      <trkpt lat="44.08075" lon="3.08453">
        <ele>787.3</ele>
        <time>2010-01-01T00:55:59Z</time>
      </trkpt>
      <trkpt lat="44.08066" lon="3.08483">
        <ele>786.5</ele>
        <time>2010-01-01T00:56:08Z</time>
      </trkpt>
      <trkpt lat="44.0806" lon="3.0857">
        <ele>782.3</ele>
        <time>2010-01-01T00:56:33Z</time>
      </trkpt>
      <trkpt lat="44.08066" lon="3.08607">
        <ele>778.3</ele>
        <time>2010-01-01T00:56:44Z</time>
      </trkpt>
      <trkpt lat="44.08068" lon="3.08628">
        <ele>776.2</ele>
        <time>2010-01-01T00:56:50Z</time>
      </trkpt>
      <trkpt lat="44.08064" lon="3.08648">
        <ele>775.4</ele>
        <time>2010-01-01T00:56:56Z</time>
      </trkpt>
      <trkpt lat="44.08051" lon="3.08687">
        <ele>773.6</ele>
        <time>2010-01-01T00:57:09Z</time>
      </trkpt>
      <trkpt lat="44.08046" lon="3.08707">
        <ele>770.9</ele>
        <time>2010-01-01T00:57:15Z</time>
      </trkpt>
      <trkpt lat="44.0804" lon="3.08723">
        <ele>769.2</ele>
        <time>2010-01-01T00:57:20Z</time>
      </trkpt>
      <trkpt lat="44.08022" lon="3.08755">
        <ele>767</ele>
        <time>2010-01-01T00:57:31Z</time>
      </trkpt>
      <trkpt lat="44.08012" lon="3.08778">
        <ele>765.3</ele>
        <time>2010-01-01T00:57:39Z</time>
      </trkpt>
      <trkpt lat="44.08012" lon="3.08792">
        <ele>763.1</ele>
        <time>2010-01-01T00:57:43Z</time>
      </trkpt>
      <trkpt lat="44.08011" lon="3.08808">
        <ele>760.8</ele>
        <time>2010-01-01T00:57:48Z</time>
      </trkpt>
      <trkpt lat="44.08016" lon="3.08847">
        <ele>752.7</ele>
        <time>2010-01-01T00:57:59Z</time>
      </trkpt>
      <trkpt lat="44.08009" lon="3.08868">
        <ele>750.3</ele>
        <time>2010-01-01T00:58:06Z</time>
      </trkpt>
      <trkpt lat="44.07977" lon="3.08932">
        <ele>746.8</ele>
        <time>2010-01-01T00:58:29Z</time>
      </trkpt>
      <trkpt lat="44.07964" lon="3.08961">
        <ele>745</ele>
        <time>2010-01-01T00:58:38Z</time>
      </trkpt>
      <trkpt lat="44.07929" lon="3.0907">
        <ele>738.4</ele>
        <time>2010-01-01T00:59:13Z</time>
      </trkpt>
      <trkpt lat="44.07918" lon="3.09093">
        <ele>737.2</ele>
        <time>2010-01-01T00:59:21Z</time>
      </trkpt>
      <trkpt lat="44.07906" lon="3.09114">
        <ele>736.2</ele>
        <time>2010-01-01T00:59:28Z</time>
      </trkpt>
      <trkpt lat="44.0788" lon="3.09148">
        <ele>731.7</ele>
        <time>2010-01-01T00:59:43Z</time>
      </trkpt>
      <trkpt lat="44.07847" lon="3.09176">
        <ele>732.5</ele>
        <time>2010-01-01T00:59:58Z</time>
      </trkpt>
      <trkpt lat="44.07844" lon="3.09193">
        <ele>732.2</ele>
        <time>2010-01-01T01:00:03Z</time>
      </trkpt>
      <trkpt lat="44.07845" lon="3.0922">
        <ele>733</ele>
        <time>2010-01-01T01:00:11Z</time>
      </trkpt>
      <trkpt lat="44.07853" lon="3.09228">
        <ele>731.5</ele>
        <time>2010-01-01T01:00:15Z</time>
      </trkpt>
      <trkpt lat="44.0786" lon="3.09244">
        <ele>730.7</ele>
        <time>2010-01-01T01:00:20Z</time>
      </trkpt>
      <trkpt lat="44.07872" lon="3.09254">
        <ele>728.6</ele>
        <time>2010-01-01T01:00:26Z</time>
      </trkpt>
      <trkpt lat="44.07907" lon="3.09277">
        <ele>727.1</ele>
        <time>2010-01-01T01:00:41Z</time>
      </trkpt>
      <trkpt lat="44.07933" lon="3.09305">
        <ele>731</ele>
        <time>2010-01-01T01:00:55Z</time>
      </trkpt>
      <trkpt lat="44.07957" lon="3.09308">
        <ele>731.3</ele>
        <time>2010-01-01T01:01:04Z</time>
      </trkpt>
      <trkpt lat="44.0799" lon="3.09317">
        <ele>731.9</ele>
        <time>2010-01-01T01:01:17Z</time>
      </trkpt>
      <trkpt lat="44.08002" lon="3.09323">
        <ele>732.5</ele>
        <time>2010-01-01T01:01:23Z</time>
      </trkpt>
      <trkpt lat="44.08034" lon="3.09313">
        <ele>731.6</ele>
        <time>2010-01-01T01:01:36Z</time>
      </trkpt>
      <trkpt lat="44.08048" lon="3.09306">
        <ele>730.9</ele>
        <time>2010-01-01T01:01:42Z</time>
      </trkpt>
      <trkpt lat="44.0806" lon="3.09298">
        <ele>730.4</ele>
        <time>2010-01-01T01:01:47Z</time>
      </trkpt>
      <trkpt lat="44.08068" lon="3.09287">
        <ele>729.7</ele>
        <time>2010-01-01T01:01:51Z</time>
      </trkpt>
      <trkpt lat="44.08075" lon="3.09284">
        <ele>730</ele>
        <time>2010-01-01T01:01:55Z</time>
      </trkpt>
      <trkpt lat="44.08098" lon="3.09281">
        <ele>731.5</ele>
        <time>2010-01-01T01:02:04Z</time>
      </trkpt>
      <trkpt lat="44.08133" lon="3.09262">
        <ele>730.2</ele>
        <time>2010-01-01T01:02:19Z</time>
      </trkpt>
      <trkpt lat="44.08137" lon="3.09263">
        <ele>730.7</ele>
        <time>2010-01-01T01:02:20Z</time>
      </trkpt>
      <trkpt lat="44.08141" lon="3.09303">
        <ele>736.3</ele>
        <time>2010-01-01T01:02:32Z</time>
      </trkpt>
      <trkpt lat="44.08138" lon="3.09319">
        <ele>738.9</ele>
        <time>2010-01-01T01:02:37Z</time>
      </trkpt>
      <trkpt lat="44.08136" lon="3.09349">
        <ele>741.4</ele>
        <time>2010-01-01T01:02:46Z</time>
      </trkpt>
      <trkpt lat="44.08137" lon="3.09367">
        <ele>743.3</ele>
        <time>2010-01-01T01:02:51Z</time>
      </trkpt>
      <trkpt lat="44.08135" lon="3.09395">
        <ele>747.7</ele>
        <time>2010-01-01T01:02:59Z</time>
      </trkpt>
      <trkpt lat="44.08138" lon="3.09403">
        <ele>748.6</ele>
        <time>2010-01-01T01:03:01Z</time>
      </trkpt>
      <trkpt lat="44.08141" lon="3.0943">
        <ele>749.2</ele>
        <time>2010-01-01T01:03:09Z</time>
      </trkpt>
      <trkpt lat="44.08141" lon="3.09454">
        <ele>750.1</ele>
        <time>2010-01-01T01:03:16Z</time>
      </trkpt>
      <trkpt lat="44.08135" lon="3.09492">
        <ele>750.5</ele>
        <time>2010-01-01T01:03:28Z</time>
      </trkpt>
      <trkpt lat="44.08123" lon="3.09524">
        <ele>749.7</ele>
        <time>2010-01-01T01:03:38Z</time>
      </trkpt>
      <trkpt lat="44.08119" lon="3.09548">
        <ele>749.7</ele>
        <time>2010-01-01T01:03:45Z</time>
      </trkpt>
      <trkpt lat="44.08116" lon="3.09583">
        <ele>749.4</ele>
        <time>2010-01-01T01:03:55Z</time>
      </trkpt>
      <trkpt lat="44.08111" lon="3.09607">
        <ele>751</ele>
        <time>2010-01-01T01:04:02Z</time>
      </trkpt>
      <trkpt lat="44.08109" lon="3.09629">
        <ele>751</ele>
        <time>2010-01-01T01:04:08Z</time>
      </trkpt>
      <trkpt lat="44.08106" lon="3.09652">
        <ele>750.5</ele>
        <time>2010-01-01T01:04:15Z</time>
      </trkpt>
      <trkpt lat="44.08107" lon="3.09678">
        <ele>749.6</ele>
        <time>2010-01-01T01:04:23Z</time>
      </trkpt>
      <trkpt lat="44.08106" lon="3.09705">
        <ele>749</ele>
        <time>2010-01-01T01:04:31Z</time>
      </trkpt>
      <trkpt lat="44.08109" lon="3.09729">
        <ele>749</ele>
        <time>2010-01-01T01:04:38Z</time>
      </trkpt>
      <trkpt lat="44.08106" lon="3.09755">
        <ele>749.5</ele>
        <time>2010-01-01T01:04:45Z</time>
      </trkpt>
      <trkpt lat="44.08118" lon="3.09803">
        <ele>751.7</ele>
        <time>2010-01-01T01:05:00Z</time>
      </trkpt>
      <trkpt lat="44.0812" lon="3.09817">
        <ele>753.1</ele>
        <time>2010-01-01T01:05:04Z</time>
      </trkpt>
      <trkpt lat="44.08124" lon="3.0983">
        <ele>754.1</ele>
        <time>2010-01-01T01:05:08Z</time>
      </trkpt>
      <trkpt lat="44.0813" lon="3.09862">
        <ele>757</ele>
        <time>2010-01-01T01:05:17Z</time>
      </trkpt>
      <trkpt lat="44.08142" lon="3.099">
        <ele>759</ele>
        <time>2010-01-01T01:05:29Z</time>
      </trkpt>
      <trkpt lat="44.08146" lon="3.09938">
        <ele>762.5</ele>
        <time>2010-01-01T01:05:40Z</time>
      </trkpt>
      <trkpt lat="44.08156" lon="3.09987">
        <ele>765.1</ele>
        <time>2010-01-01T01:05:55Z</time>
      </trkpt>
      <trkpt lat="44.08168" lon="3.1005">
        <ele>767.6</ele>
        <time>2010-01-01T01:06:14Z</time>
      </trkpt>
      <trkpt lat="44.08169" lon="3.10062">
        <ele>767.3</ele>
        <time>2010-01-01T01:06:17Z</time>
      </trkpt>
      <trkpt lat="44.08181" lon="3.10096">
        <ele>764.7</ele>
        <time>2010-01-01T01:06:28Z</time>
      </trkpt>
      <trkpt lat="44.08184" lon="3.10108">
        <ele>765</ele>
        <time>2010-01-01T01:06:32Z</time>
      </trkpt>
      <trkpt lat="44.08187" lon="3.10148">
        <ele>765.7</ele>
        <time>2010-01-01T01:06:43Z</time>
      </trkpt>
      <trkpt lat="44.08197" lon="3.10211">
        <ele>765.5</ele>
        <time>2010-01-01T01:07:02Z</time>
      </trkpt>
      <trkpt lat="44.08201" lon="3.10248">
        <ele>763.8</ele>
        <time>2010-01-01T01:07:13Z</time>
      </trkpt>
      <trkpt lat="44.08205" lon="3.10285">
        <ele>763.4</ele>
        <time>2010-01-01T01:07:23Z</time>
      </trkpt>
      <trkpt lat="44.08204" lon="3.10305">
        <ele>763.5</ele>
        <time>2010-01-01T01:07:29Z</time>
      </trkpt>
      <trkpt lat="44.08213" lon="3.1039">
        <ele>763.7</ele>
        <time>2010-01-01T01:07:54Z</time>
      </trkpt>
      <trkpt lat="44.08224" lon="3.10437">
        <ele>764.4</ele>
        <time>2010-01-01T01:08:08Z</time>
      </trkpt>
      <trkpt lat="44.08243" lon="3.10504">
        <ele>761.6</ele>
        <time>2010-01-01T01:08:29Z</time>
      </trkpt>
      <trkpt lat="44.08249" lon="3.1054">
        <ele>764.5</ele>
        <time>2010-01-01T01:08:39Z</time>
      </trkpt>
      <trkpt lat="44.08254" lon="3.10554">
        <ele>764.1</ele>
        <time>2010-01-01T01:08:44Z</time>
      </trkpt>
      <trkpt lat="44.08269" lon="3.10578">
        <ele>764.1</ele>
        <time>2010-01-01T01:08:53Z</time>
      </trkpt>
      <trkpt lat="44.08275" lon="3.1059">
        <ele>764.4</ele>
        <time>2010-01-01T01:08:57Z</time>
      </trkpt>
      <trkpt lat="44.08276" lon="3.10615">
        <ele>764.9</ele>
        <time>2010-01-01T01:09:04Z</time>
      </trkpt>
      <trkpt lat="44.08282" lon="3.10649">
        <ele>764.2</ele>
        <time>2010-01-01T01:09:14Z</time>
      </trkpt>
      <trkpt lat="44.08262" lon="3.10688">
        <ele>764.9</ele>
        <time>2010-01-01T01:09:28Z</time>
      </trkpt>
      <trkpt lat="44.08233" lon="3.10739">
        <ele>764.4</ele>
        <time>2010-01-01T01:09:47Z</time>
      </trkpt>
      <trkpt lat="44.08211" lon="3.10765">
        <ele>764</ele>
        <time>2010-01-01T01:09:58Z</time>
      </trkpt>
      <trkpt lat="44.08153" lon="3.10808">
        <ele>763.5</ele>
        <time>2010-01-01T01:10:25Z</time>
      </trkpt>
      <trkpt lat="44.08113" lon="3.10823">
        <ele>762.1</ele>
        <time>2010-01-01T01:10:42Z</time>
      </trkpt>
      <trkpt lat="44.08102" lon="3.10859">
        <ele>762</ele>
        <time>2010-01-01T01:10:53Z</time>
      </trkpt>
      <trkpt lat="44.0808" lon="3.10898">
        <ele>761.7</ele>
        <time>2010-01-01T01:11:07Z</time>
      </trkpt>
      <trkpt lat="44.08053" lon="3.10932">
        <ele>760.9</ele>
        <time>2010-01-01T01:11:22Z</time>
      </trkpt>
      <trkpt lat="44.08065" lon="3.10982">
        <ele>759</ele>
        <time>2010-01-01T01:11:37Z</time>
      </trkpt>
      <trkpt lat="44.0806" lon="3.11046">
        <ele>758.1</ele>
        <time>2010-01-01T01:11:55Z</time>
      </trkpt>
      <trkpt lat="44.08059" lon="3.11106">
        <ele>758</ele>
        <time>2010-01-01T01:12:13Z</time>
      </trkpt>
      <trkpt lat="44.08056" lon="3.11143">
        <ele>757</ele>
        <time>2010-01-01T01:12:23Z</time>
      </trkpt>
      <trkpt lat="44.08045" lon="3.11186">
        <ele>757</ele>
        <time>2010-01-01T01:12:36Z</time>
      </trkpt>
      <trkpt lat="44.08028" lon="3.11226">
        <ele>755.8</ele>
        <time>2010-01-01T01:12:50Z</time>
      </trkpt>
      <trkpt lat="44.07994" lon="3.11271">
        <ele>754.8</ele>
        <time>2010-01-01T01:13:09Z</time>
      </trkpt>
      <trkpt lat="44.07948" lon="3.11325">
        <ele>754</ele>
        <time>2010-01-01T01:13:33Z</time>
      </trkpt>
      <trkpt lat="44.07939" lon="3.11372">
        <ele>754</ele>
        <time>2010-01-01T01:13:47Z</time>
      </trkpt>
      <trkpt lat="44.07932" lon="3.11422">
        <ele>753.9</ele>
        <time>2010-01-01T01:14:01Z</time>
      </trkpt>
      <trkpt lat="44.07928" lon="3.1148">
        <ele>753.6</ele>
        <time>2010-01-01T01:14:18Z</time>
      </trkpt>
      <trkpt lat="44.07931" lon="3.11531">
        <ele>753.4</ele>
        <time>2010-01-01T01:14:33Z</time>
      </trkpt>
      <trkpt lat="44.0794" lon="3.116">
        <ele>752.5</ele>
        <time>2010-01-01T01:14:53Z</time>
      </trkpt>
      <trkpt lat="44.07962" lon="3.11733">
        <ele>751.1</ele>
        <time>2010-01-01T01:15:32Z</time>
      </trkpt>
      <trkpt lat="44.07976" lon="3.11834">
        <ele>750.9</ele>
        <time>2010-01-01T01:16:02Z</time>
      </trkpt>
      <trkpt lat="44.08011" lon="3.12085">
        <ele>749.6</ele>
        <time>2010-01-01T01:17:15Z</time>
      </trkpt>
      <trkpt lat="44.08039" lon="3.12276">
        <ele>745.4</ele>
        <time>2010-01-01T01:18:11Z</time>
      </trkpt>
      <trkpt lat="44.07927" lon="3.12317">
        <ele>746.7</ele>
        <time>2010-01-01T01:18:58Z</time>
      </trkpt>
      <trkpt lat="44.07906" lon="3.12332">
        <ele>746.5</ele>
        <time>2010-01-01T01:19:07Z</time>
      </trkpt>
      <trkpt lat="44.07859" lon="3.12373">
        <ele>746.3</ele>
        <time>2010-01-01T01:19:29Z</time>
      </trkpt>
      <trkpt lat="44.07834" lon="3.12392">
        <ele>746.6</ele>
        <time>2010-01-01T01:19:41Z</time>
      </trkpt>
      <trkpt lat="44.07819" lon="3.12397">
        <ele>746.3</ele>
        <time>2010-01-01T01:19:47Z</time>
      </trkpt>
      <trkpt lat="44.07789" lon="3.12393">
        <ele>746.7</ele>
        <time>2010-01-01T01:19:59Z</time>
      </trkpt>
      <trkpt lat="44.07773" lon="3.12396">
        <ele>746.7</ele>
        <time>2010-01-01T01:20:05Z</time>
      </trkpt>
      <trkpt lat="44.07758" lon="3.12406">
        <ele>746.9</ele>
        <time>2010-01-01T01:20:12Z</time>
      </trkpt>
      <trkpt lat="44.07745" lon="3.1242">
        <ele>747.2</ele>
        <time>2010-01-01T01:20:18Z</time>
      </trkpt>
      <trkpt lat="44.07696" lon="3.1248">
        <ele>746.9</ele>
        <time>2010-01-01T01:20:45Z</time>
      </trkpt>
      <trkpt lat="44.07686" lon="3.12495">
        <ele>747.4</ele>
        <time>2010-01-01T01:20:51Z</time>
      </trkpt>
      <trkpt lat="44.07668" lon="3.12526">
        <ele>748</ele>
        <time>2010-01-01T01:21:02Z</time>
      </trkpt>
      <trkpt lat="44.0766" lon="3.12543">
        <ele>748.8</ele>
        <time>2010-01-01T01:21:08Z</time>
      </trkpt>
      <trkpt lat="44.07653" lon="3.12564">
        <ele>749</ele>
        <time>2010-01-01T01:21:15Z</time>
      </trkpt>
      <trkpt lat="44.07653" lon="3.12587">
        <ele>748.1</ele>
        <time>2010-01-01T01:21:21Z</time>
      </trkpt>
      <trkpt lat="44.07658" lon="3.12609">
        <ele>747.9</ele>
        <time>2010-01-01T01:21:28Z</time>
      </trkpt>
      <trkpt lat="44.077" lon="3.127">
        <ele>747.3</ele>
        <time>2010-01-01T01:21:59Z</time>
      </trkpt>
      <trkpt lat="44.07707" lon="3.1272">
        <ele>747.9</ele>
        <time>2010-01-01T01:22:05Z</time>
      </trkpt>
      <trkpt lat="44.07711" lon="3.12742">
        <ele>748.7</ele>
        <time>2010-01-01T01:22:12Z</time>
      </trkpt>
      <trkpt lat="44.0771" lon="3.12764">
        <ele>749.6</ele>
        <time>2010-01-01T01:22:18Z</time>
      </trkpt>
      <trkpt lat="44.07705" lon="3.12786">
        <ele>749.8</ele>
        <time>2010-01-01T01:22:25Z</time>
      </trkpt>
      <trkpt lat="44.07695" lon="3.12803">
        <ele>749.2</ele>
        <time>2010-01-01T01:22:31Z</time>
      </trkpt>
      <trkpt lat="44.07682" lon="3.12816">
        <ele>749.4</ele>
        <time>2010-01-01T01:22:38Z</time>
      </trkpt>
      <trkpt lat="44.07653" lon="3.12835">
        <ele>750.8</ele>
        <time>2010-01-01T01:22:51Z</time>
      </trkpt>
      <trkpt lat="44.07639" lon="3.12847">
        <ele>751</ele>
        <time>2010-01-01T01:22:57Z</time>
      </trkpt>
      <trkpt lat="44.07628" lon="3.12862">
        <ele>752.2</ele>
        <time>2010-01-01T01:23:03Z</time>
      </trkpt>
      <trkpt lat="44.07619" lon="3.12878">
        <ele>752.5</ele>
        <time>2010-01-01T01:23:09Z</time>
      </trkpt>
      <trkpt lat="44.07616" lon="3.12898">
        <ele>751.8</ele>
        <time>2010-01-01T01:23:15Z</time>
      </trkpt>
      <trkpt lat="44.07616" lon="3.1292">
        <ele>751.1</ele>
        <time>2010-01-01T01:23:21Z</time>
      </trkpt>
      <trkpt lat="44.07627" lon="3.12977">
        <ele>753.6</ele>
        <time>2010-01-01T01:23:38Z</time>
      </trkpt>
      <trkpt lat="44.0763" lon="3.1301">
        <ele>753.9</ele>
        <time>2010-01-01T01:23:48Z</time>
      </trkpt>
      <trkpt lat="44.07627" lon="3.13044">
        <ele>753.7</ele>
        <time>2010-01-01T01:23:57Z</time>
      </trkpt>
      <trkpt lat="44.07622" lon="3.13077">
        <ele>753.7</ele>
        <time>2010-01-01T01:24:07Z</time>
      </trkpt>
      <trkpt lat="44.07622" lon="3.13092">
        <ele>753.1</ele>
        <time>2010-01-01T01:24:12Z</time>
      </trkpt>
      <trkpt lat="44.07616" lon="3.13129">
        <ele>752.7</ele>
        <time>2010-01-01T01:24:22Z</time>
      </trkpt>
      <trkpt lat="44.07605" lon="3.13169">
        <ele>753.1</ele>
        <time>2010-01-01T01:24:35Z</time>
      </trkpt>
      <trkpt lat="44.07597" lon="3.13193">
        <ele>753.7</ele>
        <time>2010-01-01T01:24:42Z</time>
      </trkpt>
      <trkpt lat="44.07585" lon="3.13243">
        <ele>754.1</ele>
        <time>2010-01-01T01:24:58Z</time>
      </trkpt>
      <trkpt lat="44.07577" lon="3.13259">
        <ele>754.5</ele>
        <time>2010-01-01T01:25:03Z</time>
      </trkpt>
      <trkpt lat="44.07575" lon="3.13276">
        <ele>754.3</ele>
        <time>2010-01-01T01:25:08Z</time>
      </trkpt>
      <trkpt lat="44.07558" lon="3.13334">
        <ele>754.7</ele>
        <time>2010-01-01T01:25:26Z</time>
      </trkpt>
      <trkpt lat="44.07539" lon="3.13386">
        <ele>753.3</ele>
        <time>2010-01-01T01:25:43Z</time>
      </trkpt>
      <trkpt lat="44.07516" lon="3.1344">
        <ele>752.6</ele>
        <time>2010-01-01T01:26:01Z</time>
      </trkpt>
      <trkpt lat="44.07509" lon="3.13456">
        <ele>752.2</ele>
        <time>2010-01-01T01:26:06Z</time>
      </trkpt>
      <trkpt lat="44.07501" lon="3.13468">
        <ele>752.1</ele>
        <time>2010-01-01T01:26:11Z</time>
      </trkpt>
      <trkpt lat="44.07483" lon="3.13505">
        <ele>751.2</ele>
        <time>2010-01-01T01:26:24Z</time>
      </trkpt>
      <trkpt lat="44.07469" lon="3.13538">
        <ele>748.6</ele>
        <time>2010-01-01T01:26:35Z</time>
      </trkpt>
      <trkpt lat="44.07456" lon="3.13546">
        <ele>747.7</ele>
        <time>2010-01-01T01:26:41Z</time>
      </trkpt>
      <trkpt lat="44.07443" lon="3.13548">
        <ele>747.4</ele>
        <time>2010-01-01T01:26:46Z</time>
      </trkpt>
      <trkpt lat="44.07429" lon="3.13554">
        <ele>746.8</ele>
        <time>2010-01-01T01:26:52Z</time>
      </trkpt>
      <trkpt lat="44.07418" lon="3.13564">
        <ele>745.3</ele>
        <time>2010-01-01T01:26:57Z</time>
      </trkpt>
      <trkpt lat="44.07404" lon="3.13589">
        <ele>742.9</ele>
        <time>2010-01-01T01:27:06Z</time>
      </trkpt>
      <trkpt lat="44.07381" lon="3.1362">
        <ele>742.1</ele>
        <time>2010-01-01T01:27:19Z</time>
      </trkpt>
      <trkpt lat="44.07374" lon="3.13632">
        <ele>741.6</ele>
        <time>2010-01-01T01:27:23Z</time>
      </trkpt>
      <trkpt lat="44.07352" lon="3.13661">
        <ele>741.6</ele>
        <time>2010-01-01T01:27:36Z</time>
      </trkpt>
      <trkpt lat="44.07352" lon="3.13676">
        <ele>741.1</ele>
        <time>2010-01-01T01:27:40Z</time>
      </trkpt>
      <trkpt lat="44.07349" lon="3.13688">
        <ele>742</ele>
        <time>2010-01-01T01:27:43Z</time>
      </trkpt>
      <trkpt lat="44.0735" lon="3.13692">
        <ele>742.1</ele>
        <time>2010-01-01T01:27:44Z</time>
      </trkpt>
      <trkpt lat="44.07353" lon="3.13694">
        <ele>741.8</ele>
        <time>2010-01-01T01:27:46Z</time>
      </trkpt>
      <trkpt lat="44.07353" lon="3.13696">
        <ele>742.1</ele>
        <time>2010-01-01T01:27:47Z</time>
      </trkpt>
      <trkpt lat="44.07358" lon="3.13702">
        <ele>742.7</ele>
        <time>2010-01-01T01:27:49Z</time>
      </trkpt>
      <trkpt lat="44.07363" lon="3.13704">
        <ele>742.5</ele>
        <time>2010-01-01T01:27:51Z</time>
      </trkpt>
      <trkpt lat="44.07372" lon="3.13716">
        <ele>743.9</ele>
        <time>2010-01-01T01:27:56Z</time>
      </trkpt>
      <trkpt lat="44.07386" lon="3.13731">
        <ele>744</ele>
        <time>2010-01-01T01:28:04Z</time>
      </trkpt>
      <trkpt lat="44.0739" lon="3.13739">
        <ele>743.9</ele>
        <time>2010-01-01T01:28:06Z</time>
      </trkpt>
      <trkpt lat="44.07392" lon="3.13756">
        <ele>744.5</ele>
        <time>2010-01-01T01:28:11Z</time>
      </trkpt>
      <trkpt lat="44.0739" lon="3.13767">
        <ele>744.7</ele>
        <time>2010-01-01T01:28:15Z</time>
      </trkpt>
      <trkpt lat="44.07363" lon="3.1383">
        <ele>746.8</ele>
        <time>2010-01-01T01:28:36Z</time>
      </trkpt>
      <trkpt lat="44.07335" lon="3.13876">
        <ele>750.5</ele>
        <time>2010-01-01T01:28:53Z</time>
      </trkpt>
      <trkpt lat="44.07327" lon="3.13924">
        <ele>750.2</ele>
        <time>2010-01-01T01:29:07Z</time>
      </trkpt>
      <trkpt lat="44.0732" lon="3.13941">
        <ele>751</ele>
        <time>2010-01-01T01:29:13Z</time>
      </trkpt>
      <trkpt lat="44.07312" lon="3.13954">
        <ele>751.8</ele>
        <time>2010-01-01T01:29:18Z</time>
      </trkpt>
      <trkpt lat="44.07297" lon="3.13972">
        <ele>752.7</ele>
        <time>2010-01-01T01:29:26Z</time>
      </trkpt>
      <trkpt lat="44.07281" lon="3.14001">
        <ele>753.3</ele>
        <time>2010-01-01T01:29:36Z</time>
      </trkpt>
      <trkpt lat="44.07233" lon="3.14059">
        <ele>757.8</ele>
        <time>2010-01-01T01:30:02Z</time>
      </trkpt>
      <trkpt lat="44.07216" lon="3.14083">
        <ele>759.5</ele>
        <time>2010-01-01T01:30:12Z</time>
      </trkpt>
      <trkpt lat="44.07211" lon="3.14094">
        <ele>760.9</ele>
        <time>2010-01-01T01:30:15Z</time>
      </trkpt>
      <trkpt lat="44.07197" lon="3.14117">
        <ele>763</ele>
        <time>2010-01-01T01:30:24Z</time>
      </trkpt>
      <trkpt lat="44.07186" lon="3.14139">
        <ele>765.7</ele>
        <time>2010-01-01T01:30:32Z</time>
      </trkpt>
      <trkpt lat="44.07175" lon="3.14151">
        <ele>766.6</ele>
        <time>2010-01-01T01:30:37Z</time>
      </trkpt>
      <trkpt lat="44.07148" lon="3.14186">
        <ele>768.1</ele>
        <time>2010-01-01T01:30:52Z</time>
      </trkpt>
      <trkpt lat="44.07148" lon="3.14192">
        <ele>768.5</ele>
        <time>2010-01-01T01:30:54Z</time>
      </trkpt>
      <trkpt lat="44.07132" lon="3.14206">
        <ele>768.9</ele>
        <time>2010-01-01T01:31:01Z</time>
      </trkpt>
      <trkpt lat="44.07116" lon="3.14236">
        <ele>770.1</ele>
        <time>2010-01-01T01:31:12Z</time>
      </trkpt>
      <trkpt lat="44.07091" lon="3.14288">
        <ele>771.3</ele>
        <time>2010-01-01T01:31:30Z</time>
      </trkpt>
      <trkpt lat="44.0707" lon="3.14317">
        <ele>772</ele>
        <time>2010-01-01T01:31:42Z</time>
      </trkpt>
      <trkpt lat="44.07066" lon="3.14321">
        <ele>772.1</ele>
        <time>2010-01-01T01:31:44Z</time>
      </trkpt>
      <trkpt lat="44.07046" lon="3.14355">
        <ele>774.1</ele>
        <time>2010-01-01T01:31:56Z</time>
      </trkpt>
      <trkpt lat="44.07026" lon="3.14386">
        <ele>776.9</ele>
        <time>2010-01-01T01:32:08Z</time>
      </trkpt>
      <trkpt lat="44.07021" lon="3.14396">
        <ele>777.5</ele>
        <time>2010-01-01T01:32:12Z</time>
      </trkpt>
      <trkpt lat="44.07021" lon="3.14402">
        <ele>777.8</ele>
        <time>2010-01-01T01:32:13Z</time>
      </trkpt>
      <trkpt lat="44.07022" lon="3.14426">
        <ele>778.1</ele>
        <time>2010-01-01T01:32:20Z</time>
      </trkpt>
      <trkpt lat="44.07021" lon="3.14439">
        <ele>777.9</ele>
        <time>2010-01-01T01:32:24Z</time>
      </trkpt>
      <trkpt lat="44.07012" lon="3.14467">
        <ele>777.5</ele>
        <time>2010-01-01T01:32:33Z</time>
      </trkpt>
      <trkpt lat="44.06987" lon="3.14521">
        <ele>777.1</ele>
        <time>2010-01-01T01:32:52Z</time>
      </trkpt>
      <trkpt lat="44.06979" lon="3.14535">
        <ele>777.1</ele>
        <time>2010-01-01T01:32:57Z</time>
      </trkpt>
      <trkpt lat="44.06945" lon="3.14589">
        <ele>776.5</ele>
        <time>2010-01-01T01:33:17Z</time>
      </trkpt>
      <trkpt lat="44.06931" lon="3.14619">
        <ele>776.3</ele>
        <time>2010-01-01T01:33:28Z</time>
      </trkpt>
      <trkpt lat="44.06925" lon="3.14637">
        <ele>775.9</ele>
        <time>2010-01-01T01:33:33Z</time>
      </trkpt>
      <trkpt lat="44.06918" lon="3.14677">
        <ele>775.4</ele>
        <time>2010-01-01T01:33:45Z</time>
      </trkpt>
      <trkpt lat="44.06912" lon="3.14792">
        <ele>774</ele>
        <time>2010-01-01T01:34:18Z</time>
      </trkpt>
      <trkpt lat="44.06907" lon="3.14828">
        <ele>772.4</ele>
        <time>2010-01-01T01:34:29Z</time>
      </trkpt>
      <trkpt lat="44.06895" lon="3.14996">
        <ele>772.8</ele>
        <time>2010-01-01T01:35:17Z</time>
      </trkpt>
      <trkpt lat="44.06891" lon="3.15076">
        <ele>774.9</ele>
        <time>2010-01-01T01:35:40Z</time>
      </trkpt>
      <trkpt lat="44.06883" lon="3.15155">
        <ele>778</ele>
        <time>2010-01-01T01:36:03Z</time>
      </trkpt>
      <trkpt lat="44.06872" lon="3.15198">
        <ele>780</ele>
        <time>2010-01-01T01:36:16Z</time>
      </trkpt>
      <trkpt lat="44.06836" lon="3.15304">
        <ele>783.1</ele>
        <time>2010-01-01T01:36:50Z</time>
      </trkpt>
      <trkpt lat="44.06834" lon="3.15316">
        <ele>783.7</ele>
        <time>2010-01-01T01:36:54Z</time>
      </trkpt>
      <trkpt lat="44.06837" lon="3.15327">
        <ele>784.7</ele>
        <time>2010-01-01T01:36:57Z</time>
      </trkpt>
      <trkpt lat="44.06847" lon="3.15329">
        <ele>785.3</ele>
        <time>2010-01-01T01:37:01Z</time>
      </trkpt>
      <trkpt lat="44.06878" lon="3.15306">
        <ele>785.6</ele>
        <time>2010-01-01T01:37:15Z</time>
      </trkpt>
      <trkpt lat="44.06987" lon="3.1524">
        <ele>787.8</ele>
        <time>2010-01-01T01:38:03Z</time>
      </trkpt>
      <trkpt lat="44.07035" lon="3.15208">
        <ele>787.5</ele>
        <time>2010-01-01T01:38:24Z</time>
      </trkpt>
      <trkpt lat="44.07049" lon="3.15202">
        <ele>787.3</ele>
        <time>2010-01-01T01:38:30Z</time>
      </trkpt>
      <trkpt lat="44.07093" lon="3.15172">
        <ele>786.2</ele>
        <time>2010-01-01T01:38:50Z</time>
      </trkpt>
      <trkpt lat="44.07238" lon="3.15083">
        <ele>787.1</ele>
        <time>2010-01-01T01:39:53Z</time>
      </trkpt>
      <trkpt lat="44.07288" lon="3.15051">
        <ele>788.9</ele>
        <time>2010-01-01T01:40:15Z</time>
      </trkpt>
      <trkpt lat="44.07325" lon="3.1503">
        <ele>789</ele>
        <time>2010-01-01T01:40:31Z</time>
      </trkpt>
      <trkpt lat="44.07339" lon="3.15024">
        <ele>789</ele>
        <time>2010-01-01T01:40:37Z</time>
      </trkpt>
      <trkpt lat="44.07353" lon="3.15024">
        <ele>789</ele>
        <time>2010-01-01T01:40:42Z</time>
      </trkpt>
      <trkpt lat="44.07391" lon="3.15048">
        <ele>789</ele>
        <time>2010-01-01T01:40:59Z</time>
      </trkpt>
      <trkpt lat="44.07412" lon="3.15056">
        <ele>789</ele>
        <time>2010-01-01T01:41:08Z</time>
      </trkpt>
      <trkpt lat="44.07402" lon="3.15087">
        <ele>787.3</ele>
        <time>2010-01-01T01:41:18Z</time>
      </trkpt>
      <trkpt lat="44.07413" lon="3.15121">
        <ele>787.3</ele>
        <time>2010-01-01T01:41:28Z</time>
      </trkpt>
      <trkpt lat="44.07442" lon="3.1514">
        <ele>786.9</ele>
        <time>2010-01-01T01:41:41Z</time>
      </trkpt>
      <trkpt lat="44.07471" lon="3.15151">
        <ele>786</ele>
        <time>2010-01-01T01:41:53Z</time>
      </trkpt>
      <trkpt lat="44.07484" lon="3.1519">
        <ele>786.1</ele>
        <time>2010-01-01T01:42:06Z</time>
      </trkpt>
      <trkpt lat="44.07487" lon="3.15243">
        <ele>785.2</ele>
        <time>2010-01-01T01:42:21Z</time>
      </trkpt>
      <trkpt lat="44.07479" lon="3.15299">
        <ele>783.7</ele>
        <time>2010-01-01T01:42:37Z</time>
      </trkpt>
      <trkpt lat="44.07473" lon="3.15357">
        <ele>784.9</ele>
        <time>2010-01-01T01:42:54Z</time>
      </trkpt>
      <trkpt lat="44.07462" lon="3.15398">
        <ele>785</ele>
        <time>2010-01-01T01:43:07Z</time>
      </trkpt>
      <trkpt lat="44.0745" lon="3.15464">
        <ele>787.1</ele>
        <time>2010-01-01T01:43:26Z</time>
      </trkpt>
      <trkpt lat="44.07436" lon="3.15535">
        <ele>788</ele>
        <time>2010-01-01T01:43:48Z</time>
      </trkpt>
      <trkpt lat="44.07405" lon="3.1558">
        <ele>787</ele>
        <time>2010-01-01T01:44:05Z</time>
      </trkpt>
      <trkpt lat="44.07385" lon="3.15625">
        <ele>786.2</ele>
        <time>2010-01-01T01:44:21Z</time>
      </trkpt>
      <trkpt lat="44.0735" lon="3.1567">
        <ele>787.1</ele>
        <time>2010-01-01T01:44:40Z</time>
      </trkpt>
      <trkpt lat="44.07348" lon="3.15754">
        <ele>788.9</ele>
        <time>2010-01-01T01:45:04Z</time>
      </trkpt>
      <trkpt lat="44.07354" lon="3.15814">
        <ele>786.9</ele>
        <time>2010-01-01T01:45:21Z</time>
      </trkpt>
      <trkpt lat="44.07359" lon="3.15887">
        <ele>784.2</ele>
        <time>2010-01-01T01:45:43Z</time>
      </trkpt>
      <trkpt lat="44.0736" lon="3.15913">
        <ele>784.1</ele>
        <time>2010-01-01T01:45:50Z</time>
      </trkpt>
      <trkpt lat="44.07371" lon="3.15939">
        <ele>784.4</ele>
        <time>2010-01-01T01:45:59Z</time>
      </trkpt>
      <trkpt lat="44.07377" lon="3.15971">
        <ele>784.8</ele>
        <time>2010-01-01T01:46:08Z</time>
      </trkpt>
      <trkpt lat="44.07377" lon="3.16007">
        <ele>785.2</ele>
        <time>2010-01-01T01:46:19Z</time>
      </trkpt>
      <trkpt lat="44.07382" lon="3.16076">
        <ele>788</ele>
        <time>2010-01-01T01:46:38Z</time>
      </trkpt>
      <trkpt lat="44.07393" lon="3.16162">
        <ele>787</ele>
        <time>2010-01-01T01:47:03Z</time>
      </trkpt>
      <trkpt lat="44.07393" lon="3.16217">
        <ele>785.2</ele>
        <time>2010-01-01T01:47:20Z</time>
      </trkpt>
      <trkpt lat="44.07384" lon="3.16258">
        <ele>783.3</ele>
        <time>2010-01-01T01:47:32Z</time>
      </trkpt>
      <trkpt lat="44.07393" lon="3.16299">
        <ele>783</ele>
        <time>2010-01-01T01:47:44Z</time>
      </trkpt>
      <trkpt lat="44.07393" lon="3.1637">
        <ele>784.6</ele>
        <time>2010-01-01T01:48:04Z</time>
      </trkpt>
      <trkpt lat="44.07391" lon="3.16436">
        <ele>787.1</ele>
        <time>2010-01-01T01:48:24Z</time>
      </trkpt>
      <trkpt lat="44.07396" lon="3.16518">
        <ele>787.5</ele>
        <time>2010-01-01T01:48:47Z</time>
      </trkpt>
      <trkpt lat="44.07397" lon="3.16612">
        <ele>789.3</ele>
        <time>2010-01-01T01:49:14Z</time>
      </trkpt>
      <trkpt lat="44.07394" lon="3.16672">
        <ele>789.2</ele>
        <time>2010-01-01T01:49:32Z</time>
      </trkpt>
      <trkpt lat="44.07371" lon="3.16786">
        <ele>789.4</ele>
        <time>2010-01-01T01:50:06Z</time>
      </trkpt>
      <trkpt lat="44.07347" lon="3.169">
        <ele>791</ele>
        <time>2010-01-01T01:50:40Z</time>
      </trkpt>
      <trkpt lat="44.07337" lon="3.16949">
        <ele>791</ele>
        <time>2010-01-01T01:50:54Z</time>
      </trkpt>
      <trkpt lat="44.07337" lon="3.17011">
        <ele>790.9</ele>
        <time>2010-01-01T01:51:12Z</time>
      </trkpt>
      <trkpt lat="44.07325" lon="3.17063">
        <ele>790.1</ele>
        <time>2010-01-01T01:51:28Z</time>
      </trkpt>
      <trkpt lat="44.07322" lon="3.17119">
        <ele>790</ele>
        <time>2010-01-01T01:51:44Z</time>
      </trkpt>
      <trkpt lat="44.07322" lon="3.17151">
        <ele>790.8</ele>
        <time>2010-01-01T01:51:53Z</time>
      </trkpt>
      <trkpt lat="44.0731" lon="3.17181">
        <ele>791.9</ele>
        <time>2010-01-01T01:52:03Z</time>
      </trkpt>
      <trkpt lat="44.07307" lon="3.17235">
        <ele>792.4</ele>
        <time>2010-01-01T01:52:19Z</time>
      </trkpt>
      <trkpt lat="44.07273" lon="3.17277">
        <ele>792.6</ele>
        <time>2010-01-01T01:52:37Z</time>
      </trkpt>
      <trkpt lat="44.07237" lon="3.17308">
        <ele>791.1</ele>
        <time>2010-01-01T01:52:54Z</time>
      </trkpt>
      <trkpt lat="44.07262" lon="3.17387">
        <ele>790.1</ele>
        <time>2010-01-01T01:53:19Z</time>
      </trkpt>
      <trkpt lat="44.07331" lon="3.17501">
        <ele>787.7</ele>
        <time>2010-01-01T01:54:01Z</time>
      </trkpt>
      <trkpt lat="44.07401" lon="3.17599">
        <ele>790.2</ele>
        <time>2010-01-01T01:54:41Z</time>
      </trkpt>
      <trkpt lat="44.07462" lon="3.17664">
        <ele>789.6</ele>
        <time>2010-01-01T01:55:12Z</time>
      </trkpt>
      <trkpt lat="44.07504" lon="3.17773">
        <ele>785</ele>
        <time>2010-01-01T01:55:48Z</time>
      </trkpt>
      <trkpt lat="44.07538" lon="3.17797">
        <ele>782.5</ele>
        <time>2010-01-01T01:56:03Z</time>
      </trkpt>
      <trkpt lat="44.07592" lon="3.17893">
        <ele>773.5</ele>
        <time>2010-01-01T01:56:38Z</time>
      </trkpt>
      <trkpt lat="44.07707" lon="3.1805">
        <ele>762.9</ele>
        <time>2010-01-01T01:57:43Z</time>
      </trkpt>
      <trkpt lat="44.07726" lon="3.18085">
        <ele>766.8</ele>
        <time>2010-01-01T01:57:55Z</time>
      </trkpt>
      <trkpt lat="44.07742" lon="3.18111">
        <ele>768</ele>
        <time>2010-01-01T01:58:05Z</time>
      </trkpt>
      <trkpt lat="44.07752" lon="3.1812">
        <ele>769.2</ele>
        <time>2010-01-01T01:58:10Z</time>
      </trkpt>
      <trkpt lat="44.0776" lon="3.18124">
        <ele>769.6</ele>
        <time>2010-01-01T01:58:13Z</time>
      </trkpt>
      <trkpt lat="44.07794" lon="3.18125">
        <ele>768.4</ele>
        <time>2010-01-01T01:58:27Z</time>
      </trkpt>
      <trkpt lat="44.07842" lon="3.1812">
        <ele>767.2</ele>
        <time>2010-01-01T01:58:46Z</time>
      </trkpt>
      <trkpt lat="44.07859" lon="3.18123">
        <ele>768.4</ele>
        <time>2010-01-01T01:58:53Z</time>
      </trkpt>
      <trkpt lat="44.0788" lon="3.1813">
        <ele>770.7</ele>
        <time>2010-01-01T01:59:02Z</time>
      </trkpt>
      <trkpt lat="44.07924" lon="3.18121">
        <ele>771.2</ele>
        <time>2010-01-01T01:59:19Z</time>
      </trkpt>
      <trkpt lat="44.07938" lon="3.18116">
        <ele>770.9</ele>
        <time>2010-01-01T01:59:25Z</time>
      </trkpt>
      <trkpt lat="44.07948" lon="3.18114">
        <ele>771.2</ele>
        <time>2010-01-01T01:59:29Z</time>
      </trkpt>
      <trkpt lat="44.07968" lon="3.18106">
        <ele>771</ele>
        <time>2010-01-01T01:59:37Z</time>
      </trkpt>
      <trkpt lat="44.08006" lon="3.181">
        <ele>772.4</ele>
        <time>2010-01-01T01:59:53Z</time>
      </trkpt>
      <trkpt lat="44.08012" lon="3.18101">
        <ele>773</ele>
        <time>2010-01-01T01:59:55Z</time>
      </trkpt>
      <trkpt lat="44.0802" lon="3.1811">
        <ele>775.5</ele>
        <time>2010-01-01T01:59:59Z</time>
      </trkpt>
      <trkpt lat="44.0802" lon="3.18114">
        <ele>776.5</ele>
        <time>2010-01-01T02:00:01Z</time>
      </trkpt>
      <trkpt lat="44.08017" lon="3.18132">
        <ele>780.4</ele>
        <time>2010-01-01T02:00:06Z</time>
      </trkpt>
      <trkpt lat="44.08028" lon="3.18154">
        <ele>784.8</ele>
        <time>2010-01-01T02:00:13Z</time>
      </trkpt>
      <trkpt lat="44.08046" lon="3.1818">
        <ele>785.9</ele>
        <time>2010-01-01T02:00:24Z</time>
      </trkpt>
      <trkpt lat="44.08064" lon="3.18194">
        <ele>785</ele>
        <time>2010-01-01T02:00:32Z</time>
      </trkpt>
      <trkpt lat="44.08085" lon="3.18194">
        <ele>782.9</ele>
        <time>2010-01-01T02:00:40Z</time>
      </trkpt>
      <trkpt lat="44.08096" lon="3.18197">
        <ele>783</ele>
        <time>2010-01-01T02:00:45Z</time>
      </trkpt>
      <trkpt lat="44.08107" lon="3.18194">
        <ele>782.1</ele>
        <time>2010-01-01T02:00:49Z</time>
      </trkpt>
      <trkpt lat="44.08117" lon="3.18191">
        <ele>781</ele>
        <time>2010-01-01T02:00:53Z</time>
      </trkpt>
      <trkpt lat="44.08139" lon="3.18173">
        <ele>775.8</ele>
        <time>2010-01-01T02:01:03Z</time>
      </trkpt>
      <trkpt lat="44.08149" lon="3.18169">
        <ele>774.7</ele>
        <time>2010-01-01T02:01:08Z</time>
      </trkpt>
      <trkpt lat="44.0817" lon="3.18168">
        <ele>774.5</ele>
        <time>2010-01-01T02:01:16Z</time>
      </trkpt>
      <trkpt lat="44.08186" lon="3.18182">
        <ele>779.3</ele>
        <time>2010-01-01T02:01:24Z</time>
      </trkpt>
      <trkpt lat="44.08192" lon="3.18184">
        <ele>780.1</ele>
        <time>2010-01-01T02:01:26Z</time>
      </trkpt>
      <trkpt lat="44.08219" lon="3.18185">
        <ele>780.7</ele>
        <time>2010-01-01T02:01:37Z</time>
      </trkpt>
      <trkpt lat="44.08281" lon="3.18201">
        <ele>781.9</ele>
        <time>2010-01-01T02:02:02Z</time>
      </trkpt>
      <trkpt lat="44.08285" lon="3.18204">
        <ele>782.5</ele>
        <time>2010-01-01T02:02:04Z</time>
      </trkpt>
      <trkpt lat="44.08295" lon="3.18217">
        <ele>785.5</ele>
        <time>2010-01-01T02:02:09Z</time>
      </trkpt>
      <trkpt lat="44.08301" lon="3.18227">
        <ele>787.8</ele>
        <time>2010-01-01T02:02:13Z</time>
      </trkpt>
      <trkpt lat="44.08314" lon="3.18238">
        <ele>789.7</ele>
        <time>2010-01-01T02:02:19Z</time>
      </trkpt>
      <trkpt lat="44.08333" lon="3.18242">
        <ele>789.1</ele>
        <time>2010-01-01T02:02:27Z</time>
      </trkpt>
      <trkpt lat="44.08362" lon="3.18243">
        <ele>786.8</ele>
        <time>2010-01-01T02:02:38Z</time>
      </trkpt>
      <trkpt lat="44.08393" lon="3.18238">
        <ele>784.2</ele>
        <time>2010-01-01T02:02:51Z</time>
      </trkpt>
      <trkpt lat="44.084" lon="3.18238">
        <ele>784</ele>
        <time>2010-01-01T02:02:54Z</time>
      </trkpt>
      <trkpt lat="44.08429" lon="3.18247">
        <ele>783.4</ele>
        <time>2010-01-01T02:03:06Z</time>
      </trkpt>
      <trkpt lat="44.0848" lon="3.18281">
        <ele>784.3</ele>
        <time>2010-01-01T02:03:28Z</time>
      </trkpt>
      <trkpt lat="44.08505" lon="3.18294">
        <ele>784.5</ele>
        <time>2010-01-01T02:03:39Z</time>
      </trkpt>
      <trkpt lat="44.08519" lon="3.183">
        <ele>784.2</ele>
        <time>2010-01-01T02:03:45Z</time>
      </trkpt>
      <trkpt lat="44.08543" lon="3.18317">
        <ele>784</ele>
        <time>2010-01-01T02:03:56Z</time>
      </trkpt>
      <trkpt lat="44.08555" lon="3.18323">
        <ele>783.4</ele>
        <time>2010-01-01T02:04:01Z</time>
      </trkpt>
      <trkpt lat="44.08568" lon="3.18327">
        <ele>782.3</ele>
        <time>2010-01-01T02:04:06Z</time>
      </trkpt>
      <trkpt lat="44.0859" lon="3.18341">
        <ele>780.7</ele>
        <time>2010-01-01T02:04:16Z</time>
      </trkpt>
      <trkpt lat="44.08599" lon="3.18351">
        <ele>780.1</ele>
        <time>2010-01-01T02:04:20Z</time>
      </trkpt>
      <trkpt lat="44.08621" lon="3.1837">
        <ele>778.6</ele>
        <time>2010-01-01T02:04:31Z</time>
      </trkpt>
      <trkpt lat="44.08631" lon="3.18383">
        <ele>778.3</ele>
        <time>2010-01-01T02:04:36Z</time>
      </trkpt>
      <trkpt lat="44.08645" lon="3.18411">
        <ele>778</ele>
        <time>2010-01-01T02:04:46Z</time>
      </trkpt>
      <trkpt lat="44.08654" lon="3.18422">
        <ele>777.8</ele>
        <time>2010-01-01T02:04:51Z</time>
      </trkpt>
      <trkpt lat="44.08665" lon="3.18428">
        <ele>777.6</ele>
        <time>2010-01-01T02:04:55Z</time>
      </trkpt>
      <trkpt lat="44.08687" lon="3.18434">
        <ele>777.8</ele>
        <time>2010-01-01T02:05:05Z</time>
      </trkpt>
      <trkpt lat="44.08697" lon="3.18439">
        <ele>778</ele>
        <time>2010-01-01T02:05:09Z</time>
      </trkpt>
      <trkpt lat="44.08708" lon="3.18448">
        <ele>777.9</ele>
        <time>2010-01-01T02:05:14Z</time>
      </trkpt>
      <trkpt lat="44.08742" lon="3.18465">
        <ele>778.5</ele>
        <time>2010-01-01T02:05:28Z</time>
      </trkpt>
      <trkpt lat="44.08758" lon="3.18476">
        <ele>779.2</ele>
        <time>2010-01-01T02:05:35Z</time>
      </trkpt>
      <trkpt lat="44.08766" lon="3.18482">
        <ele>779.2</ele>
        <time>2010-01-01T02:05:39Z</time>
      </trkpt>
      <trkpt lat="44.08778" lon="3.18501">
        <ele>779</ele>
        <time>2010-01-01T02:05:46Z</time>
      </trkpt>
      <trkpt lat="44.08806" lon="3.18531">
        <ele>778.8</ele>
        <time>2010-01-01T02:06:00Z</time>
      </trkpt>
      <trkpt lat="44.08817" lon="3.18535">
        <ele>778.6</ele>
        <time>2010-01-01T02:06:05Z</time>
      </trkpt>
      <trkpt lat="44.08844" lon="3.18532">
        <ele>779.2</ele>
        <time>2010-01-01T02:06:16Z</time>
      </trkpt>
      <trkpt lat="44.08862" lon="3.18533">
        <ele>779.8</ele>
        <time>2010-01-01T02:06:23Z</time>
      </trkpt>
      <trkpt lat="44.08894" lon="3.18527">
        <ele>780</ele>
        <time>2010-01-01T02:06:36Z</time>
      </trkpt>
      <trkpt lat="44.08916" lon="3.18521">
        <ele>780</ele>
        <time>2010-01-01T02:06:45Z</time>
      </trkpt>
      <trkpt lat="44.08929" lon="3.18517">
        <ele>779.6</ele>
        <time>2010-01-01T02:06:50Z</time>
      </trkpt>
      <trkpt lat="44.08941" lon="3.18509">
        <ele>779.1</ele>
        <time>2010-01-01T02:06:55Z</time>
      </trkpt>
      <trkpt lat="44.08954" lon="3.18505">
        <ele>778.7</ele>
        <time>2010-01-01T02:07:01Z</time>
      </trkpt>
      <trkpt lat="44.08969" lon="3.18515">
        <ele>778.1</ele>
        <time>2010-01-01T02:07:07Z</time>
      </trkpt>
      <trkpt lat="44.09003" lon="3.18568">
        <ele>774.5</ele>
        <time>2010-01-01T02:07:28Z</time>
      </trkpt>
      <trkpt lat="44.09018" lon="3.18584">
        <ele>773.3</ele>
        <time>2010-01-01T02:07:36Z</time>
      </trkpt>
      <trkpt lat="44.09031" lon="3.1861">
        <ele>771.9</ele>
        <time>2010-01-01T02:07:45Z</time>
      </trkpt>
      <trkpt lat="44.0903" lon="3.18645">
        <ele>770.7</ele>
        <time>2010-01-01T02:07:55Z</time>
      </trkpt>
      <trkpt lat="44.0902" lon="3.18676">
        <ele>769.3</ele>
        <time>2010-01-01T02:08:04Z</time>
      </trkpt>
      <trkpt lat="44.08988" lon="3.18753">
        <ele>763</ele>
        <time>2010-01-01T02:08:30Z</time>
      </trkpt>
      <trkpt lat="44.08982" lon="3.18776">
        <ele>761.5</ele>
        <time>2010-01-01T02:08:37Z</time>
      </trkpt>
      <trkpt lat="44.08975" lon="3.18795">
        <ele>761</ele>
        <time>2010-01-01T02:08:43Z</time>
      </trkpt>
      <trkpt lat="44.08949" lon="3.18833">
        <ele>759.2</ele>
        <time>2010-01-01T02:08:58Z</time>
      </trkpt>
      <trkpt lat="44.08941" lon="3.18864">
        <ele>758.8</ele>
        <time>2010-01-01T02:09:08Z</time>
      </trkpt>
      <trkpt lat="44.08935" lon="3.18883">
        <ele>758.1</ele>
        <time>2010-01-01T02:09:14Z</time>
      </trkpt>
      <trkpt lat="44.0891" lon="3.18907">
        <ele>758.2</ele>
        <time>2010-01-01T02:09:26Z</time>
      </trkpt>
      <trkpt lat="44.08893" lon="3.18945">
        <ele>758.7</ele>
        <time>2010-01-01T02:09:38Z</time>
      </trkpt>
      <trkpt lat="44.08881" lon="3.18988">
        <ele>759.3</ele>
        <time>2010-01-01T02:09:52Z</time>
      </trkpt>
      <trkpt lat="44.08871" lon="3.19032">
        <ele>759.6</ele>
        <time>2010-01-01T02:10:05Z</time>
      </trkpt>
      <trkpt lat="44.08853" lon="3.19046">
        <ele>760.6</ele>
        <time>2010-01-01T02:10:13Z</time>
      </trkpt>
      <trkpt lat="44.0883" lon="3.19052">
        <ele>762.2</ele>
        <time>2010-01-01T02:10:23Z</time>
      </trkpt>
      <trkpt lat="44.08806" lon="3.19061">
        <ele>763.9</ele>
        <time>2010-01-01T02:10:32Z</time>
      </trkpt>
      <trkpt lat="44.08783" lon="3.19063">
        <ele>765.4</ele>
        <time>2010-01-01T02:10:42Z</time>
      </trkpt>
      <trkpt lat="44.08759" lon="3.19058">
        <ele>766.6</ele>
        <time>2010-01-01T02:10:51Z</time>
      </trkpt>
      <trkpt lat="44.08739" lon="3.19061">
        <ele>767.4</ele>
        <time>2010-01-01T02:11:00Z</time>
      </trkpt>
      <trkpt lat="44.08717" lon="3.19069">
        <ele>768.3</ele>
        <time>2010-01-01T02:11:09Z</time>
      </trkpt>
      <trkpt lat="44.08697" lon="3.19078">
        <ele>769.1</ele>
        <time>2010-01-01T02:11:17Z</time>
      </trkpt>
      <trkpt lat="44.08682" lon="3.1909">
        <ele>769.4</ele>
        <time>2010-01-01T02:11:24Z</time>
      </trkpt>
      <trkpt lat="44.08674" lon="3.19104">
        <ele>769.7</ele>
        <time>2010-01-01T02:11:29Z</time>
      </trkpt>
      <trkpt lat="44.08668" lon="3.19116">
        <ele>769.9</ele>
        <time>2010-01-01T02:11:33Z</time>
      </trkpt>
      <trkpt lat="44.0864" lon="3.19131">
        <ele>770.3</ele>
        <time>2010-01-01T02:11:46Z</time>
      </trkpt>
      <trkpt lat="44.08654" lon="3.19149">
        <ele>769.8</ele>
        <time>2010-01-01T02:11:53Z</time>
      </trkpt>
      <trkpt lat="44.08663" lon="3.19173">
        <ele>768.9</ele>
        <time>2010-01-01T02:12:01Z</time>
      </trkpt>
      <trkpt lat="44.08666" lon="3.19195">
        <ele>768</ele>
        <time>2010-01-01T02:12:07Z</time>
      </trkpt>
      <trkpt lat="44.08663" lon="3.19229">
        <ele>765.8</ele>
        <time>2010-01-01T02:12:17Z</time>
      </trkpt>
      <trkpt lat="44.08661" lon="3.19262">
        <ele>764</ele>
        <time>2010-01-01T02:12:27Z</time>
      </trkpt>
      <trkpt lat="44.08659" lon="3.19308">
        <ele>762.5</ele>
        <time>2010-01-01T02:12:40Z</time>
      </trkpt>
      <trkpt lat="44.08657" lon="3.19374">
        <ele>760.9</ele>
        <time>2010-01-01T02:12:59Z</time>
      </trkpt>
      <trkpt lat="44.08655" lon="3.19419">
        <ele>760.1</ele>
        <time>2010-01-01T02:13:12Z</time>
      </trkpt>
      <trkpt lat="44.08654" lon="3.19453">
        <ele>758.6</ele>
        <time>2010-01-01T02:13:22Z</time>
      </trkpt>
      <trkpt lat="44.08659" lon="3.1948">
        <ele>757.3</ele>
        <time>2010-01-01T02:13:30Z</time>
      </trkpt>
      <trkpt lat="44.08671" lon="3.19502">
        <ele>755.6</ele>
        <time>2010-01-01T02:13:38Z</time>
      </trkpt>
      <trkpt lat="44.08701" lon="3.19532">
        <ele>752.7</ele>
        <time>2010-01-01T02:13:52Z</time>
      </trkpt>
      <trkpt lat="44.08762" lon="3.19585">
        <ele>748.6</ele>
        <time>2010-01-01T02:14:21Z</time>
      </trkpt>
      <trkpt lat="44.0881" lon="3.19632">
        <ele>746.8</ele>
        <time>2010-01-01T02:14:45Z</time>
      </trkpt>
      <trkpt lat="44.08842" lon="3.19661">
        <ele>746.3</ele>
        <time>2010-01-01T02:15:00Z</time>
      </trkpt>
      <trkpt lat="44.08961" lon="3.19865">
        <ele>742.5</ele>
      </trkpt>
      <trkpt lat="44.08998" lon="3.19909">
        <ele>744.4</ele>
      </trkpt>
      <trkpt lat="44.09034" lon="3.19921">
        <ele>746.4</ele>
      </trkpt>
      <trkpt lat="44.09096" lon="3.19913">
        <ele>750.6</ele>
      </trkpt>
      <trkpt lat="44.09117" lon="3.19977">
        <ele>754.8</ele>
      </trkpt>
      <trkpt lat="44.09121" lon="3.20025">
        <ele>757.9</ele>
      </trkpt>
      <trkpt lat="44.0913" lon="3.20101">
        <ele>761.9</ele>
      </trkpt>
      <trkpt lat="44.09148" lon="3.20158">
        <ele>764.1</ele>
      </trkpt>
      <trkpt lat="44.09154" lon="3.20208">
        <ele>764</ele>
      </trkpt>
      <trkpt lat="44.09188" lon="3.20257">
        <ele>761.1</ele>
      </trkpt>
      <trkpt lat="44.09264" lon="3.20245">
        <ele>770.8</ele>
      </trkpt>
      <trkpt lat="44.09335" lon="3.20294">
        <ele>778.5</ele>
      </trkpt>
      <trkpt lat="44.09377" lon="3.20318">
        <ele>778.1</ele>
      </trkpt>
      <trkpt lat="44.09419" lon="3.20303">
        <ele>777.9</ele>
      </trkpt>
      <trkpt lat="44.0944" lon="3.20294">
        <ele>776.2</ele>
      </trkpt>
      <trkpt lat="44.09467" lon="3.20274">
        <ele>774.7</ele>
      </trkpt>
      <trkpt lat="44.09486" lon="3.20324">
        <ele>769.4</ele>
      </trkpt>
      <trkpt lat="44.095" lon="3.20374">
        <ele>762.2</ele>
      </trkpt>
      <trkpt lat="44.09528" lon="3.20428">
        <ele>752.5</ele>
      </trkpt>
      <trkpt lat="44.09552" lon="3.20479">
        <ele>743.2</ele>
      </trkpt>
      <trkpt lat="44.09575" lon="3.20549">
        <ele>730.2</ele>
      </trkpt>
      <trkpt lat="44.09576" lon="3.20587">
        <ele>721.6</ele>
      </trkpt>
      <trkpt lat="44.09585" lon="3.20619">
        <ele>716.8</ele>
      </trkpt>
      <trkpt lat="44.0959" lon="3.20677">
        <ele>708.3</ele>
      </trkpt>
      <trkpt lat="44.09623" lon="3.20782">
        <ele>691.6</ele>
      </trkpt>
      <trkpt lat="44.09654" lon="3.20876">
        <ele>677.9</ele>
      </trkpt>
      <trkpt lat="44.09621" lon="3.20941">
        <ele>678.2</ele>
      </trkpt>
      <trkpt lat="44.09609" lon="3.2096">
        <ele>679.7</ele>
      </trkpt>
      <trkpt lat="44.09602" lon="3.20985">
        <ele>681.3</ele>
        <time>2010-01-01T02:23:24Z</time>
      </trkpt>
      <trkpt lat="44.09629" lon="3.21007">
        <ele>680</ele>
        <time>2010-01-01T02:23:36Z</time>
      </trkpt>
      <trkpt lat="44.09663" lon="3.21">
        <ele>678.1</ele>
        <time>2010-01-01T02:23:50Z</time>
      </trkpt>
      <trkpt lat="44.09708" lon="3.21011">
        <ele>678.1</ele>
        <time>2010-01-01T02:24:08Z</time>
      </trkpt>
      <trkpt lat="44.09742" lon="3.21026">
        <ele>678.2</ele>
        <time>2010-01-01T02:24:22Z</time>
      </trkpt>
      <trkpt lat="44.0979" lon="3.21067">
        <ele>677.7</ele>
        <time>2010-01-01T02:24:45Z</time>
      </trkpt>
      <trkpt lat="44.0985" lon="3.2111">
        <ele>675.6</ele>
        <time>2010-01-01T02:25:12Z</time>
      </trkpt>
      <trkpt lat="44.09885" lon="3.21157">
        <ele>675.2</ele>
        <time>2010-01-01T02:25:32Z</time>
      </trkpt>
      <trkpt lat="44.09928" lon="3.21159">
        <ele>677.8</ele>
        <time>2010-01-01T02:25:49Z</time>
      </trkpt>
      <trkpt lat="44.09991" lon="3.21155">
        <ele>681</ele>
        <time>2010-01-01T02:26:14Z</time>
      </trkpt>
      <trkpt lat="44.10035" lon="3.21178">
        <ele>682.5</ele>
        <time>2010-01-01T02:26:33Z</time>
      </trkpt>
      <trkpt lat="44.10073" lon="3.21211">
        <ele>682.3</ele>
        <time>2010-01-01T02:26:51Z</time>
      </trkpt>
      <trkpt lat="44.10129" lon="3.21247">
        <ele>684.9</ele>
        <time>2010-01-01T02:27:15Z</time>
      </trkpt>
      <trkpt lat="44.10176" lon="3.21228">
        <ele>684.1</ele>
        <time>2010-01-01T02:27:35Z</time>
      </trkpt>
      <trkpt lat="44.10226" lon="3.21302">
        <ele>687.6</ele>
        <time>2010-01-01T02:28:04Z</time>
      </trkpt>
      <trkpt lat="44.10225" lon="3.21319">
        <ele>687.4</ele>
        <time>2010-01-01T02:28:09Z</time>
      </trkpt>
      <trkpt lat="44.10229" lon="3.21336">
        <ele>688</ele>
        <time>2010-01-01T02:28:14Z</time>
      </trkpt>
      <trkpt lat="44.10241" lon="3.21365">
        <ele>688.5</ele>
        <time>2010-01-01T02:28:24Z</time>
      </trkpt>
      <trkpt lat="44.1025" lon="3.21378">
        <ele>688.8</ele>
        <time>2010-01-01T02:28:29Z</time>
      </trkpt>
      <trkpt lat="44.10259" lon="3.2139">
        <ele>688.9</ele>
        <time>2010-01-01T02:28:34Z</time>
      </trkpt>
      <trkpt lat="44.10279" lon="3.2141">
        <ele>688.8</ele>
        <time>2010-01-01T02:28:44Z</time>
      </trkpt>
      <trkpt lat="44.10289" lon="3.21422">
        <ele>687.8</ele>
        <time>2010-01-01T02:28:49Z</time>
      </trkpt>
      <trkpt lat="44.10302" lon="3.21433">
        <ele>687.1</ele>
        <time>2010-01-01T02:28:55Z</time>
      </trkpt>
      <trkpt lat="44.10317" lon="3.2144">
        <ele>686.9</ele>
        <time>2010-01-01T02:29:02Z</time>
      </trkpt>
      <trkpt lat="44.10331" lon="3.2145">
        <ele>686.3</ele>
        <time>2010-01-01T02:29:08Z</time>
      </trkpt>
      <trkpt lat="44.10347" lon="3.21457">
        <ele>685.7</ele>
        <time>2010-01-01T02:29:15Z</time>
      </trkpt>
      <trkpt lat="44.10379" lon="3.21467">
        <ele>685.2</ele>
        <time>2010-01-01T02:29:28Z</time>
      </trkpt>
      <trkpt lat="44.10393" lon="3.21479">
        <ele>684.9</ele>
        <time>2010-01-01T02:29:34Z</time>
      </trkpt>
      <trkpt lat="44.10417" lon="3.21505">
        <ele>684.9</ele>
        <time>2010-01-01T02:29:47Z</time>
      </trkpt>
      <trkpt lat="44.10442" lon="3.21533">
        <ele>684.5</ele>
        <time>2010-01-01T02:29:59Z</time>
      </trkpt>
      <trkpt lat="44.10456" lon="3.21545">
        <ele>684</ele>
        <time>2010-01-01T02:30:06Z</time>
      </trkpt>
      <trkpt lat="44.10487" lon="3.21558">
        <ele>684.4</ele>
        <time>2010-01-01T02:30:19Z</time>
      </trkpt>
      <trkpt lat="44.10531" lon="3.21583">
        <ele>685</ele>
        <time>2010-01-01T02:30:38Z</time>
      </trkpt>
      <trkpt lat="44.10558" lon="3.216">
        <ele>684.5</ele>
        <time>2010-01-01T02:30:50Z</time>
      </trkpt>
      <trkpt lat="44.10573" lon="3.21605">
        <ele>685</ele>
        <time>2010-01-01T02:30:56Z</time>
      </trkpt>
      <trkpt lat="44.10588" lon="3.21609">
        <ele>685.3</ele>
        <time>2010-01-01T02:31:02Z</time>
      </trkpt>
      <trkpt lat="44.10619" lon="3.21612">
        <ele>685.9</ele>
        <time>2010-01-01T02:31:14Z</time>
      </trkpt>
      <trkpt lat="44.10633" lon="3.2161">
        <ele>686.1</ele>
        <time>2010-01-01T02:31:20Z</time>
      </trkpt>
      <trkpt lat="44.10647" lon="3.21604">
        <ele>686.3</ele>
        <time>2010-01-01T02:31:26Z</time>
      </trkpt>
      <trkpt lat="44.10661" lon="3.21601">
        <ele>686.4</ele>
        <time>2010-01-01T02:31:32Z</time>
      </trkpt>
      <trkpt lat="44.10675" lon="3.21606">
        <ele>685.8</ele>
        <time>2010-01-01T02:31:37Z</time>
      </trkpt>
      <trkpt lat="44.10727" lon="3.21686">
        <ele>688.4</ele>
        <time>2010-01-01T02:32:08Z</time>
      </trkpt>
      <trkpt lat="44.10738" lon="3.21696">
        <ele>689.7</ele>
        <time>2010-01-01T02:32:14Z</time>
      </trkpt>
      <trkpt lat="44.1078" lon="3.21754">
        <ele>693.8</ele>
        <time>2010-01-01T02:32:37Z</time>
      </trkpt>
      <trkpt lat="44.10799" lon="3.21773">
        <ele>693</ele>
        <time>2010-01-01T02:32:47Z</time>
      </trkpt>
      <trkpt lat="44.10808" lon="3.21799">
        <ele>691.4</ele>
        <time>2010-01-01T02:32:55Z</time>
      </trkpt>
      <trkpt lat="44.10833" lon="3.21833">
        <ele>687</ele>
        <time>2010-01-01T02:33:09Z</time>
      </trkpt>
      <trkpt lat="44.10837" lon="3.21857">
        <ele>684.6</ele>
        <time>2010-01-01T02:33:16Z</time>
      </trkpt>
      <trkpt lat="44.1087" lon="3.21902">
        <ele>683.3</ele>
        <time>2010-01-01T02:33:34Z</time>
      </trkpt>
      <trkpt lat="44.10931" lon="3.21951">
        <ele>689.8</ele>
        <time>2010-01-01T02:34:03Z</time>
      </trkpt>
      <trkpt lat="44.10968" lon="3.22026">
        <ele>692.4</ele>
        <time>2010-01-01T02:34:29Z</time>
      </trkpt>
      <trkpt lat="44.11021" lon="3.22063">
        <ele>695.5</ele>
        <time>2010-01-01T02:34:52Z</time>
      </trkpt>
      <trkpt lat="44.11031" lon="3.22086">
        <ele>695.6</ele>
        <time>2010-01-01T02:35:00Z</time>
      </trkpt>
      <trkpt lat="44.11031" lon="3.2211">
        <ele>696.2</ele>
        <time>2010-01-01T02:35:07Z</time>
      </trkpt>
      <trkpt lat="44.11011" lon="3.22193">
        <ele>702</ele>
        <time>2010-01-01T02:35:33Z</time>
      </trkpt>
      <trkpt lat="44.11004" lon="3.22318">
        <ele>713.3</ele>
        <time>2010-01-01T02:36:08Z</time>
      </trkpt>
      <trkpt lat="44.10987" lon="3.22537">
        <ele>733.7</ele>
        <time>2010-01-01T02:37:12Z</time>
      </trkpt>
      <trkpt lat="44.11016" lon="3.22528">
        <ele>735.1</ele>
        <time>2010-01-01T02:37:24Z</time>
      </trkpt>
      <trkpt lat="44.11055" lon="3.2252">
        <ele>737.2</ele>
        <time>2010-01-01T02:37:39Z</time>
      </trkpt>
      <trkpt lat="44.11082" lon="3.22481">
        <ele>740.3</ele>
        <time>2010-01-01T02:37:55Z</time>
      </trkpt>
      <trkpt lat="44.11122" lon="3.22472">
        <ele>743</ele>
        <time>2010-01-01T02:38:11Z</time>
      </trkpt>
      <trkpt lat="44.1117" lon="3.22496">
        <ele>742.9</ele>
        <time>2010-01-01T02:38:31Z</time>
      </trkpt>
      <trkpt lat="44.11215" lon="3.22552">
        <ele>741.9</ele>
        <time>2010-01-01T02:38:56Z</time>
      </trkpt>
      <trkpt lat="44.11263" lon="3.22668">
        <ele>737.3</ele>
        <time>2010-01-01T02:39:34Z</time>
      </trkpt>
      <trkpt lat="44.11306" lon="3.22781">
        <ele>740.7</ele>
        <time>2010-01-01T02:40:11Z</time>
      </trkpt>
      <trkpt lat="44.11353" lon="3.22906">
        <ele>735.3</ele>
        <time>2010-01-01T02:40:51Z</time>
      </trkpt>
      <trkpt lat="44.11464" lon="3.2291">
        <ele>715.8</ele>
        <time>2010-01-01T02:41:36Z</time>
      </trkpt>
      <trkpt lat="44.11523" lon="3.22876">
        <ele>698.4</ele>
        <time>2010-01-01T02:42:01Z</time>
      </trkpt>
      <trkpt lat="44.11566" lon="3.22887">
        <ele>679.1</ele>
        <time>2010-01-01T02:42:19Z</time>
      </trkpt>
      <trkpt lat="44.1162" lon="3.2291">
        <ele>659.6</ele>
        <time>2010-01-01T02:42:41Z</time>
      </trkpt>
      <trkpt lat="44.11626" lon="3.22878">
        <ele>647.8</ele>
        <time>2010-01-01T02:42:51Z</time>
      </trkpt>
      <trkpt lat="44.11635" lon="3.22837">
        <ele>643.2</ele>
        <time>2010-01-01T02:43:03Z</time>
      </trkpt>
      <trkpt lat="44.11685" lon="3.22794">
        <ele>629.2</ele>
        <time>2010-01-01T02:43:27Z</time>
      </trkpt>
      <trkpt lat="44.11739" lon="3.22749">
        <ele>626.2</ele>
        <time>2010-01-01T02:43:52Z</time>
      </trkpt>
      <trkpt lat="44.11763" lon="3.22747">
        <ele>623</ele>
        <time>2010-01-01T02:44:02Z</time>
      </trkpt>
      <trkpt lat="44.11793" lon="3.22743">
        <ele>621.2</ele>
        <time>2010-01-01T02:44:13Z</time>
      </trkpt>
      <trkpt lat="44.11863" lon="3.22732">
        <ele>606.2</ele>
        <time>2010-01-01T02:44:42Z</time>
      </trkpt>
      <trkpt lat="44.11903" lon="3.22711">
        <ele>603.7</ele>
        <time>2010-01-01T02:44:59Z</time>
      </trkpt>
      <trkpt lat="44.11937" lon="3.22698">
        <ele>599.7</ele>
        <time>2010-01-01T02:45:13Z</time>
      </trkpt>
      <trkpt lat="44.11999" lon="3.22691">
        <ele>586.9</ele>
        <time>2010-01-01T02:45:38Z</time>
      </trkpt>
      <trkpt lat="44.12037" lon="3.22698">
        <ele>577.7</ele>
        <time>2010-01-01T02:45:53Z</time>
      </trkpt>
      <trkpt lat="44.12073" lon="3.22713">
        <ele>568.8</ele>
        <time>2010-01-01T02:46:08Z</time>
      </trkpt>
      <trkpt lat="44.12093" lon="3.22616">
        <ele>571.1</ele>
        <time>2010-01-01T02:46:37Z</time>
      </trkpt>
      <trkpt lat="44.12114" lon="3.22573">
        <ele>570</ele>
        <time>2010-01-01T02:46:52Z</time>
      </trkpt>
      <trkpt lat="44.12167" lon="3.22539">
        <ele>558.2</ele>
        <time>2010-01-01T02:47:15Z</time>
      </trkpt>
      <trkpt lat="44.12199" lon="3.22515">
        <ele>550.8</ele>
        <time>2010-01-01T02:47:30Z</time>
      </trkpt>
      <trkpt lat="44.12242" lon="3.22545">
        <ele>528.9</ele>
        <time>2010-01-01T02:47:49Z</time>
      </trkpt>
      <trkpt lat="44.12238" lon="3.22548">
        <ele>530.1</ele>
        <time>2010-01-01T02:47:51Z</time>
      </trkpt>
      <trkpt lat="44.12239" lon="3.22552">
        <ele>529</ele>
        <time>2010-01-01T02:47:52Z</time>
      </trkpt>
      <trkpt lat="44.12245" lon="3.22554">
        <ele>526.3</ele>
        <time>2010-01-01T02:47:55Z</time>
      </trkpt>
      <trkpt lat="44.12259" lon="3.22524">
        <ele>525.1</ele>
        <time>2010-01-01T02:48:05Z</time>
      </trkpt>
      <trkpt lat="44.12263" lon="3.22501">
        <ele>522.9</ele>
        <time>2010-01-01T02:48:12Z</time>
      </trkpt>
      <trkpt lat="44.12261" lon="3.2246">
        <ele>512.8</ele>
        <time>2010-01-01T02:48:24Z</time>
      </trkpt>
      <trkpt lat="44.12252" lon="3.22453">
        <ele>514.6</ele>
        <time>2010-01-01T02:48:28Z</time>
      </trkpt>
      <trkpt lat="44.12246" lon="3.22443">
        <ele>513.1</ele>
        <time>2010-01-01T02:48:32Z</time>
      </trkpt>
      <trkpt lat="44.12245" lon="3.22424">
        <ele>503.8</ele>
        <time>2010-01-01T02:48:37Z</time>
      </trkpt>
      <trkpt lat="44.12248" lon="3.22411">
        <ele>494.3</ele>
        <time>2010-01-01T02:48:41Z</time>
      </trkpt>
      <trkpt lat="44.12247" lon="3.22389">
        <ele>483.1</ele>
        <time>2010-01-01T02:48:47Z</time>
      </trkpt>
      <trkpt lat="44.12221" lon="3.22361">
        <ele>485.9</ele>
        <time>2010-01-01T02:49:01Z</time>
      </trkpt>
      <trkpt lat="44.12217" lon="3.22354">
        <ele>484.7</ele>
        <time>2010-01-01T02:49:03Z</time>
      </trkpt>
      <trkpt lat="44.1222" lon="3.22351">
        <ele>480.8</ele>
        <time>2010-01-01T02:49:05Z</time>
      </trkpt>
      <trkpt lat="44.12235" lon="3.2235">
        <ele>468.2</ele>
        <time>2010-01-01T02:49:11Z</time>
      </trkpt>
      <trkpt lat="44.12225" lon="3.22326">
        <ele>463.4</ele>
        <time>2010-01-01T02:49:19Z</time>
      </trkpt>
      <trkpt lat="44.12228" lon="3.22309">
        <ele>453.6</ele>
        <time>2010-01-01T02:49:24Z</time>
      </trkpt>
      <trkpt lat="44.12238" lon="3.22305">
        <ele>445.1</ele>
        <time>2010-01-01T02:49:28Z</time>
      </trkpt>
      <trkpt lat="44.12243" lon="3.22312">
        <ele>444.3</ele>
        <time>2010-01-01T02:49:31Z</time>
      </trkpt>
      <trkpt lat="44.12246" lon="3.22309">
        <ele>441</ele>
        <time>2010-01-01T02:49:32Z</time>
      </trkpt>
      <trkpt lat="44.12247" lon="3.22266">
        <ele>428.6</ele>
        <time>2010-01-01T02:49:44Z</time>
      </trkpt>
      <trkpt lat="44.1225" lon="3.22252">
        <ele>424.2</ele>
        <time>2010-01-01T02:49:49Z</time>
      </trkpt>
      <trkpt lat="44.12246" lon="3.22225">
        <ele>420.2</ele>
        <time>2010-01-01T02:49:57Z</time>
      </trkpt>
      <trkpt lat="44.12247" lon="3.22207">
        <ele>413.6</ele>
        <time>2010-01-01T02:50:02Z</time>
      </trkpt>
      <trkpt lat="44.12241" lon="3.2218">
        <ele>413.4</ele>
        <time>2010-01-01T02:50:10Z</time>
      </trkpt>
      <trkpt lat="44.12234" lon="3.2217">
        <ele>416.6</ele>
        <time>2010-01-01T02:50:14Z</time>
      </trkpt>
      <trkpt lat="44.12232" lon="3.22148">
        <ele>415.1</ele>
        <time>2010-01-01T02:50:20Z</time>
      </trkpt>
      <trkpt lat="44.12238" lon="3.22115">
        <ele>407.3</ele>
        <time>2010-01-01T02:50:30Z</time>
      </trkpt>
      <trkpt lat="44.12243" lon="3.22156">
        <ele>406.5</ele>
        <time>2010-01-01T02:50:42Z</time>
      </trkpt>
      <trkpt lat="44.12247" lon="3.22167">
        <ele>404.5</ele>
        <time>2010-01-01T02:50:46Z</time>
      </trkpt>
      <trkpt lat="44.12331" lon="3.22168">
        <ele>401.5</ele>
        <time>2010-01-01T02:51:19Z</time>
      </trkpt>
      <trkpt lat="44.12345" lon="3.22208">
        <ele>403.1</ele>
        <time>2010-01-01T02:51:32Z</time>
      </trkpt>
      <trkpt lat="44.12358" lon="3.22236">
        <ele>403.1</ele>
        <time>2010-01-01T02:51:42Z</time>
      </trkpt>
      <trkpt lat="44.12372" lon="3.22249">
        <ele>403.3</ele>
        <time>2010-01-01T02:51:48Z</time>
      </trkpt>
      <trkpt lat="44.12385" lon="3.22255">
        <ele>404.1</ele>
        <time>2010-01-01T02:51:54Z</time>
      </trkpt>
      <trkpt lat="44.1241" lon="3.22261">
        <ele>402.6</ele>
        <time>2010-01-01T02:52:04Z</time>
      </trkpt>
      <trkpt lat="44.12415" lon="3.22235">
        <ele>404.3</ele>
        <time>2010-01-01T02:52:12Z</time>
      </trkpt>
      <trkpt lat="44.12431" lon="3.22217">
        <ele>405.6</ele>
        <time>2010-01-01T02:52:20Z</time>
      </trkpt>
      <trkpt lat="44.12445" lon="3.22209">
        <ele>405.5</ele>
        <time>2010-01-01T02:52:26Z</time>
      </trkpt>
      <trkpt lat="44.12454" lon="3.2221">
        <ele>406.2</ele>
        <time>2010-01-01T02:52:30Z</time>
      </trkpt>
      <trkpt lat="44.12461" lon="3.22215">
        <ele>407</ele>
        <time>2010-01-01T02:52:33Z</time>
      </trkpt>
      <trkpt lat="44.12471" lon="3.22211">
        <ele>407.7</ele>
        <time>2010-01-01T02:52:37Z</time>
      </trkpt>
      <trkpt lat="44.12484" lon="3.2221">
        <ele>408.8</ele>
        <time>2010-01-01T02:52:42Z</time>
      </trkpt>
      <trkpt lat="44.12497" lon="3.22215">
        <ele>409.6</ele>
        <time>2010-01-01T02:52:47Z</time>
      </trkpt>
      <trkpt lat="44.12542" lon="3.2229">
        <ele>417.7</ele>
        <time>2010-01-01T02:53:16Z</time>
      </trkpt>
      <trkpt lat="44.1255" lon="3.22295">
        <ele>417.1</ele>
        <time>2010-01-01T02:53:19Z</time>
      </trkpt>
      <trkpt lat="44.12568" lon="3.22297">
        <ele>417.2</ele>
        <time>2010-01-01T02:53:26Z</time>
      </trkpt>
      <trkpt lat="44.12594" lon="3.22292">
        <ele>419.1</ele>
        <time>2010-01-01T02:53:37Z</time>
      </trkpt>
      <trkpt lat="44.1262" lon="3.22275">
        <ele>420.2</ele>
        <time>2010-01-01T02:53:48Z</time>
      </trkpt>
      <trkpt lat="44.12626" lon="3.22273">
        <ele>420.3</ele>
        <time>2010-01-01T02:53:51Z</time>
      </trkpt>
      <trkpt lat="44.12631" lon="3.22279">
        <ele>421</ele>
        <time>2010-01-01T02:53:53Z</time>
      </trkpt>
      <trkpt lat="44.12633" lon="3.22285">
        <ele>422.8</ele>
        <time>2010-01-01T02:53:55Z</time>
      </trkpt>
      <trkpt lat="44.12632" lon="3.22292">
        <ele>424.6</ele>
        <time>2010-01-01T02:53:57Z</time>
      </trkpt>
      <trkpt lat="44.12627" lon="3.22297">
        <ele>425</ele>
        <time>2010-01-01T02:54:00Z</time>
      </trkpt>
      <trkpt lat="44.12609" lon="3.22306">
        <ele>422.9</ele>
        <time>2010-01-01T02:54:07Z</time>
      </trkpt>
      <trkpt lat="44.12589" lon="3.22324">
        <ele>425</ele>
        <time>2010-01-01T02:54:17Z</time>
      </trkpt>
      <trkpt lat="44.12577" lon="3.22333">
        <ele>425.7</ele>
        <time>2010-01-01T02:54:22Z</time>
      </trkpt>
      <trkpt lat="44.12552" lon="3.2234">
        <ele>427.5</ele>
        <time>2010-01-01T02:54:33Z</time>
      </trkpt>
      <trkpt lat="44.12547" lon="3.22346">
        <ele>428.6</ele>
        <time>2010-01-01T02:54:35Z</time>
      </trkpt>
      <trkpt lat="44.12545" lon="3.22355">
        <ele>429.7</ele>
        <time>2010-01-01T02:54:38Z</time>
      </trkpt>
      <trkpt lat="44.12565" lon="3.22423">
        <ele>436.3</ele>
        <time>2010-01-01T02:54:59Z</time>
      </trkpt>
      <trkpt lat="44.1257" lon="3.22446">
        <ele>437.9</ele>
        <time>2010-01-01T02:55:06Z</time>
      </trkpt>
      <trkpt lat="44.12579" lon="3.22558">
        <ele>442.4</ele>
        <time>2010-01-01T02:55:38Z</time>
      </trkpt>
      <trkpt lat="44.12578" lon="3.22573">
        <ele>442.7</ele>
        <time>2010-01-01T02:55:43Z</time>
      </trkpt>
      <trkpt lat="44.12573" lon="3.22587">
        <ele>440.1</ele>
        <time>2010-01-01T02:55:47Z</time>
      </trkpt>
      <trkpt lat="44.12574" lon="3.22597">
        <ele>441.1</ele>
        <time>2010-01-01T02:55:50Z</time>
      </trkpt>
      <trkpt lat="44.12578" lon="3.22606">
        <ele>444.2</ele>
        <time>2010-01-01T02:55:53Z</time>
      </trkpt>
      <trkpt lat="44.12584" lon="3.22608">
        <ele>448.3</ele>
        <time>2010-01-01T02:55:56Z</time>
      </trkpt>
      <trkpt lat="44.12588" lon="3.22608">
        <ele>450.5</ele>
        <time>2010-01-01T02:55:57Z</time>
      </trkpt>
      <trkpt lat="44.12593" lon="3.22606">
        <ele>453.2</ele>
        <time>2010-01-01T02:55:59Z</time>
      </trkpt>
      <trkpt lat="44.12597" lon="3.22597">
        <ele>455.6</ele>
        <time>2010-01-01T02:56:02Z</time>
      </trkpt>
      <trkpt lat="44.12597" lon="3.22588">
        <ele>455.8</ele>
        <time>2010-01-01T02:56:05Z</time>
      </trkpt>
      <trkpt lat="44.12593" lon="3.22577">
        <ele>452.9</ele>
        <time>2010-01-01T02:56:08Z</time>
      </trkpt>
      <trkpt lat="44.12591" lon="3.22566">
        <ele>450.9</ele>
        <time>2010-01-01T02:56:12Z</time>
      </trkpt>
      <trkpt lat="44.12601" lon="3.22415">
        <ele>459.1</ele>
        <time>2010-01-01T02:56:55Z</time>
      </trkpt>
      <trkpt lat="44.12604" lon="3.22402">
        <ele>458.2</ele>
        <time>2010-01-01T02:56:59Z</time>
      </trkpt>
      <trkpt lat="44.12611" lon="3.22395">
        <ele>459.7</ele>
        <time>2010-01-01T02:57:03Z</time>
      </trkpt>
      <trkpt lat="44.12638" lon="3.2238">
        <ele>463.2</ele>
        <time>2010-01-01T02:57:14Z</time>
      </trkpt>
      <trkpt lat="44.1267" lon="3.22366">
        <ele>468.2</ele>
        <time>2010-01-01T02:57:28Z</time>
      </trkpt>
      <trkpt lat="44.12711" lon="3.22339">
        <ele>471.2</ele>
        <time>2010-01-01T02:57:46Z</time>
      </trkpt>
      <trkpt lat="44.12742" lon="3.22312">
        <ele>474.8</ele>
        <time>2010-01-01T02:58:01Z</time>
      </trkpt>
      <trkpt lat="44.12771" lon="3.22276">
        <ele>477.4</ele>
        <time>2010-01-01T02:58:16Z</time>
      </trkpt>
      <trkpt lat="44.12797" lon="3.22231">
        <ele>480.6</ele>
        <time>2010-01-01T02:58:33Z</time>
      </trkpt>
      <trkpt lat="44.12808" lon="3.22217">
        <ele>481.6</ele>
        <time>2010-01-01T02:58:39Z</time>
      </trkpt>
      <trkpt lat="44.12817" lon="3.22213">
        <ele>481.1</ele>
        <time>2010-01-01T02:58:42Z</time>
      </trkpt>
      <trkpt lat="44.12837" lon="3.22218">
        <ele>484.3</ele>
        <time>2010-01-01T02:58:51Z</time>
      </trkpt>
      <trkpt lat="44.12901" lon="3.22238">
        <ele>491.6</ele>
        <time>2010-01-01T02:59:17Z</time>
      </trkpt>
      <trkpt lat="44.12915" lon="3.22245">
        <ele>494.4</ele>
        <time>2010-01-01T02:59:23Z</time>
      </trkpt>
      <trkpt lat="44.12933" lon="3.22242">
        <ele>494.3</ele>
        <time>2010-01-01T02:59:30Z</time>
      </trkpt>
      <trkpt lat="44.12943" lon="3.22241">
        <ele>494.7</ele>
        <time>2010-01-01T02:59:34Z</time>
      </trkpt>
      <trkpt lat="44.12962" lon="3.22244">
        <ele>498.4</ele>
        <time>2010-01-01T02:59:42Z</time>
      </trkpt>
      <trkpt lat="44.12972" lon="3.22241">
        <ele>498.1</ele>
        <time>2010-01-01T02:59:46Z</time>
      </trkpt>
      <trkpt lat="44.12984" lon="3.22235">
        <ele>497.4</ele>
        <time>2010-01-01T02:59:51Z</time>
      </trkpt>
      <trkpt lat="44.13015" lon="3.22235">
        <ele>503.6</ele>
        <time>2010-01-01T03:00:03Z</time>
      </trkpt>
      <trkpt lat="44.13024" lon="3.22229">
        <ele>503.5</ele>
        <time>2010-01-01T03:00:07Z</time>
      </trkpt>
      <trkpt lat="44.13036" lon="3.22217">
        <ele>505.9</ele>
        <time>2010-01-01T03:00:13Z</time>
      </trkpt>
      <trkpt lat="44.1307" lon="3.22133">
        <ele>508.1</ele>
        <time>2010-01-01T03:00:41Z</time>
      </trkpt>
      <trkpt lat="44.13105" lon="3.2208">
        <ele>507.6</ele>
        <time>2010-01-01T03:01:02Z</time>
      </trkpt>
      <trkpt lat="44.13122" lon="3.22065">
        <ele>507.2</ele>
        <time>2010-01-01T03:01:10Z</time>
      </trkpt>
      <trkpt lat="44.13163" lon="3.22039">
        <ele>512.1</ele>
        <time>2010-01-01T03:01:28Z</time>
      </trkpt>
      <trkpt lat="44.13187" lon="3.22018">
        <ele>515.7</ele>
        <time>2010-01-01T03:01:39Z</time>
      </trkpt>
      <trkpt lat="44.13209" lon="3.21994">
        <ele>516.9</ele>
        <time>2010-01-01T03:01:50Z</time>
      </trkpt>
      <trkpt lat="44.13252" lon="3.21972">
        <ele>523.3</ele>
        <time>2010-01-01T03:02:09Z</time>
      </trkpt>
      <trkpt lat="44.13283" lon="3.21966">
        <ele>523.6</ele>
        <time>2010-01-01T03:02:21Z</time>
      </trkpt>
      <trkpt lat="44.13335" lon="3.21963">
        <ele>529.6</ele>
        <time>2010-01-01T03:02:42Z</time>
      </trkpt>
      <trkpt lat="44.13347" lon="3.21947">
        <ele>531.5</ele>
        <time>2010-01-01T03:02:49Z</time>
      </trkpt>
      <trkpt lat="44.13357" lon="3.21926">
        <ele>533</ele>
        <time>2010-01-01T03:02:56Z</time>
      </trkpt>
      <trkpt lat="44.13376" lon="3.21898">
        <ele>534</ele>
        <time>2010-01-01T03:03:07Z</time>
      </trkpt>
      <trkpt lat="44.13393" lon="3.21884">
        <ele>537.5</ele>
        <time>2010-01-01T03:03:15Z</time>
      </trkpt>
      <trkpt lat="44.1343" lon="3.21861">
        <ele>540.8</ele>
        <time>2010-01-01T03:03:31Z</time>
      </trkpt>
      <trkpt lat="44.13463" lon="3.21832">
        <ele>541.2</ele>
        <time>2010-01-01T03:03:47Z</time>
      </trkpt>
      <trkpt lat="44.13488" lon="3.21824">
        <ele>545.8</ele>
        <time>2010-01-01T03:03:57Z</time>
      </trkpt>
      <trkpt lat="44.13517" lon="3.21823">
        <ele>548.9</ele>
        <time>2010-01-01T03:04:09Z</time>
      </trkpt>
      <trkpt lat="44.13574" lon="3.21834">
        <ele>554.6</ele>
        <time>2010-01-01T03:04:32Z</time>
      </trkpt>
      <trkpt lat="44.13618" lon="3.21831">
        <ele>556.7</ele>
        <time>2010-01-01T03:04:49Z</time>
      </trkpt>
      <trkpt lat="44.13654" lon="3.21841">
        <ele>563.6</ele>
        <time>2010-01-01T03:05:04Z</time>
      </trkpt>
      <trkpt lat="44.13668" lon="3.21834">
        <ele>561.2</ele>
        <time>2010-01-01T03:05:10Z</time>
      </trkpt>
      <trkpt lat="44.1367" lon="3.21828">
        <ele>560.3</ele>
        <time>2010-01-01T03:05:12Z</time>
      </trkpt>
      <trkpt lat="44.13672" lon="3.21803">
        <ele>560.5</ele>
        <time>2010-01-01T03:05:19Z</time>
      </trkpt>
      <trkpt lat="44.13665" lon="3.21787">
        <ele>566.2</ele>
        <time>2010-01-01T03:05:24Z</time>
      </trkpt>
      <trkpt lat="44.13651" lon="3.21781">
        <ele>565.1</ele>
        <time>2010-01-01T03:05:30Z</time>
      </trkpt>
      <trkpt lat="44.13619" lon="3.21758">
        <ele>564.1</ele>
        <time>2010-01-01T03:05:45Z</time>
      </trkpt>
      <trkpt lat="44.13613" lon="3.21745">
        <ele>568.9</ele>
        <time>2010-01-01T03:05:49Z</time>
      </trkpt>
      <trkpt lat="44.13619" lon="3.21736">
        <ele>575.2</ele>
        <time>2010-01-01T03:05:53Z</time>
      </trkpt>
      <trkpt lat="44.1363" lon="3.21738">
        <ele>576.9</ele>
        <time>2010-01-01T03:05:57Z</time>
      </trkpt>
      <trkpt lat="44.13652" lon="3.21756">
        <ele>574.9</ele>
        <time>2010-01-01T03:06:07Z</time>
      </trkpt>
      <trkpt lat="44.1369" lon="3.21778">
        <ele>575.1</ele>
        <time>2010-01-01T03:06:24Z</time>
      </trkpt>
      <trkpt lat="44.13703" lon="3.21779">
        <ele>574.3</ele>
        <time>2010-01-01T03:06:29Z</time>
      </trkpt>
      <trkpt lat="44.13713" lon="3.21772">
        <ele>575.4</ele>
        <time>2010-01-01T03:06:33Z</time>
      </trkpt>
      <trkpt lat="44.13727" lon="3.21755">
        <ele>578</ele>
        <time>2010-01-01T03:06:41Z</time>
      </trkpt>
      <trkpt lat="44.13737" lon="3.21734">
        <ele>580.5</ele>
        <time>2010-01-01T03:06:48Z</time>
      </trkpt>
      <trkpt lat="44.13746" lon="3.21719">
        <ele>581.3</ele>
        <time>2010-01-01T03:06:54Z</time>
      </trkpt>
      <trkpt lat="44.13771" lon="3.21699">
        <ele>587.6</ele>
        <time>2010-01-01T03:07:05Z</time>
      </trkpt>
      <trkpt lat="44.13787" lon="3.217">
        <ele>588.7</ele>
        <time>2010-01-01T03:07:12Z</time>
      </trkpt>
      <trkpt lat="44.13849" lon="3.21752">
        <ele>587.1</ele>
        <time>2010-01-01T03:07:41Z</time>
      </trkpt>
      <trkpt lat="44.13869" lon="3.21736">
        <ele>592.6</ele>
        <time>2010-01-01T03:07:50Z</time>
      </trkpt>
      <trkpt lat="44.13907" lon="3.21677">
        <ele>596.5</ele>
        <time>2010-01-01T03:08:13Z</time>
      </trkpt>
      <trkpt lat="44.13916" lon="3.21668">
        <ele>597.6</ele>
        <time>2010-01-01T03:08:17Z</time>
      </trkpt>
      <trkpt lat="44.13933" lon="3.21659">
        <ele>601.5</ele>
        <time>2010-01-01T03:08:24Z</time>
      </trkpt>
      <trkpt lat="44.1398" lon="3.21664">
        <ele>605.9</ele>
        <time>2010-01-01T03:08:43Z</time>
      </trkpt>
      <trkpt lat="44.14012" lon="3.21672">
        <ele>605.5</ele>
        <time>2010-01-01T03:08:56Z</time>
      </trkpt>
      <trkpt lat="44.14033" lon="3.21667">
        <ele>610.6</ele>
        <time>2010-01-01T03:09:05Z</time>
      </trkpt>
      <trkpt lat="44.14117" lon="3.21639">
        <ele>616</ele>
        <time>2010-01-01T03:09:39Z</time>
      </trkpt>
      <trkpt lat="44.14194" lon="3.2161">
        <ele>622.4</ele>
        <time>2010-01-01T03:10:11Z</time>
      </trkpt>
      <trkpt lat="44.14214" lon="3.21606">
        <ele>625</ele>
        <time>2010-01-01T03:10:19Z</time>
      </trkpt>
      <trkpt lat="44.14242" lon="3.21615">
        <ele>625.9</ele>
        <time>2010-01-01T03:10:31Z</time>
      </trkpt>
      <trkpt lat="44.14246" lon="3.21614">
        <ele>626.4</ele>
        <time>2010-01-01T03:10:32Z</time>
      </trkpt>
      <trkpt lat="44.14255" lon="3.21607">
        <ele>628.8</ele>
        <time>2010-01-01T03:10:37Z</time>
      </trkpt>
      <trkpt lat="44.14275" lon="3.21585">
        <ele>632.6</ele>
        <time>2010-01-01T03:10:47Z</time>
      </trkpt>
      <trkpt lat="44.14288" lon="3.21578">
        <ele>635.9</ele>
        <time>2010-01-01T03:10:52Z</time>
      </trkpt>
      <trkpt lat="44.14302" lon="3.21578">
        <ele>636.2</ele>
        <time>2010-01-01T03:10:58Z</time>
      </trkpt>
      <trkpt lat="44.14317" lon="3.21588">
        <ele>636.5</ele>
        <time>2010-01-01T03:11:05Z</time>
      </trkpt>
      <trkpt lat="44.14339" lon="3.21612">
        <ele>636</ele>
        <time>2010-01-01T03:11:16Z</time>
      </trkpt>
      <trkpt lat="44.14359" lon="3.21639">
        <ele>635.8</ele>
        <time>2010-01-01T03:11:27Z</time>
      </trkpt>
      <trkpt lat="44.14376" lon="3.21657">
        <ele>636.8</ele>
        <time>2010-01-01T03:11:36Z</time>
      </trkpt>
      <trkpt lat="44.14422" lon="3.21675">
        <ele>641.4</ele>
        <time>2010-01-01T03:11:55Z</time>
      </trkpt>
      <trkpt lat="44.14439" lon="3.21684">
        <ele>639.3</ele>
        <time>2010-01-01T03:12:02Z</time>
      </trkpt>
      <trkpt lat="44.14485" lon="3.21697">
        <ele>640.2</ele>
        <time>2010-01-01T03:12:21Z</time>
      </trkpt>
      <trkpt lat="44.14514" lon="3.21693">
        <ele>641.1</ele>
        <time>2010-01-01T03:12:32Z</time>
      </trkpt>
      <trkpt lat="44.14544" lon="3.21685">
        <ele>643.3</ele>
        <time>2010-01-01T03:12:45Z</time>
      </trkpt>
      <trkpt lat="44.14569" lon="3.21685">
        <ele>643.7</ele>
        <time>2010-01-01T03:12:55Z</time>
      </trkpt>
      <trkpt lat="44.14591" lon="3.21693">
        <ele>642.3</ele>
        <time>2010-01-01T03:13:04Z</time>
      </trkpt>
      <trkpt lat="44.14614" lon="3.21686">
        <ele>646</ele>
        <time>2010-01-01T03:13:13Z</time>
      </trkpt>
      <trkpt lat="44.14668" lon="3.21631">
        <ele>648.7</ele>
        <time>2010-01-01T03:13:40Z</time>
      </trkpt>
      <trkpt lat="44.14675" lon="3.21624">
        <ele>650.4</ele>
        <time>2010-01-01T03:13:43Z</time>
      </trkpt>
      <trkpt lat="44.14687" lon="3.21619">
        <ele>650.3</ele>
        <time>2010-01-01T03:13:48Z</time>
      </trkpt>
      <trkpt lat="44.14684" lon="3.21603">
        <ele>654.2</ele>
        <time>2010-01-01T03:13:53Z</time>
      </trkpt>
      <trkpt lat="44.14705" lon="3.21578">
        <ele>658.1</ele>
        <time>2010-01-01T03:14:04Z</time>
      </trkpt>
      <trkpt lat="44.14752" lon="3.21557">
        <ele>669</ele>
        <time>2010-01-01T03:14:24Z</time>
      </trkpt>
      <trkpt lat="44.14778" lon="3.21537">
        <ele>676.7</ele>
        <time>2010-01-01T03:14:36Z</time>
      </trkpt>
      <trkpt lat="44.14798" lon="3.21529">
        <ele>683.1</ele>
        <time>2010-01-01T03:14:44Z</time>
      </trkpt>
      <trkpt lat="44.14808" lon="3.2152">
        <ele>687.4</ele>
        <time>2010-01-01T03:14:49Z</time>
      </trkpt>
      <trkpt lat="44.14815" lon="3.21516">
        <ele>689.5</ele>
        <time>2010-01-01T03:14:52Z</time>
      </trkpt>
      <trkpt lat="44.14836" lon="3.21507">
        <ele>694.7</ele>
        <time>2010-01-01T03:15:01Z</time>
      </trkpt>
      <trkpt lat="44.14859" lon="3.21478">
        <ele>702.6</ele>
        <time>2010-01-01T03:15:13Z</time>
      </trkpt>
      <trkpt lat="44.14888" lon="3.2147">
        <ele>704.6</ele>
        <time>2010-01-01T03:15:25Z</time>
      </trkpt>
      <trkpt lat="44.14924" lon="3.21464">
        <ele>702.9</ele>
        <time>2010-01-01T03:15:40Z</time>
      </trkpt>
      <trkpt lat="44.1494" lon="3.21453">
        <ele>702.9</ele>
        <time>2010-01-01T03:15:47Z</time>
      </trkpt>
      <trkpt lat="44.14954" lon="3.2143">
        <ele>703.7</ele>
        <time>2010-01-01T03:15:55Z</time>
      </trkpt>
      <trkpt lat="44.14965" lon="3.21393">
        <ele>704.9</ele>
        <time>2010-01-01T03:16:07Z</time>
      </trkpt>
      <trkpt lat="44.14976" lon="3.21302">
        <ele>713.3</ele>
        <time>2010-01-01T03:16:33Z</time>
      </trkpt>
      <trkpt lat="44.14986" lon="3.21234">
        <ele>722.6</ele>
        <time>2010-01-01T03:16:53Z</time>
      </trkpt>
      <trkpt lat="44.14984" lon="3.21206">
        <ele>726.8</ele>
        <time>2010-01-01T03:17:01Z</time>
      </trkpt>
      <trkpt lat="44.1497" lon="3.21131">
        <ele>733.2</ele>
        <time>2010-01-01T03:17:24Z</time>
      </trkpt>
      <trkpt lat="44.1495" lon="3.21069">
        <ele>736.3</ele>
        <time>2010-01-01T03:17:43Z</time>
      </trkpt>
      <trkpt lat="44.14933" lon="3.21011">
        <ele>738.9</ele>
        <time>2010-01-01T03:18:01Z</time>
      </trkpt>
      <trkpt lat="44.14932" lon="3.20999">
        <ele>738.7</ele>
        <time>2010-01-01T03:18:05Z</time>
      </trkpt>
      <trkpt lat="44.14909" lon="3.20958">
        <ele>743.3</ele>
        <time>2010-01-01T03:18:20Z</time>
      </trkpt>
      <trkpt lat="44.1491" lon="3.20912">
        <ele>744.4</ele>
        <time>2010-01-01T03:18:33Z</time>
      </trkpt>
      <trkpt lat="44.14923" lon="3.20889">
        <ele>744.5</ele>
        <time>2010-01-01T03:18:41Z</time>
      </trkpt>
      <trkpt lat="44.14929" lon="3.20859">
        <ele>744.6</ele>
        <time>2010-01-01T03:18:50Z</time>
      </trkpt>
      <trkpt lat="44.1493" lon="3.20828">
        <ele>744.4</ele>
        <time>2010-01-01T03:18:59Z</time>
      </trkpt>
      <trkpt lat="44.14912" lon="3.20796">
        <ele>744</ele>
        <time>2010-01-01T03:19:11Z</time>
      </trkpt>
      <trkpt lat="44.14865" lon="3.20762">
        <ele>743.7</ele>
        <time>2010-01-01T03:19:32Z</time>
      </trkpt>
      <trkpt lat="44.14864" lon="3.20762">
        <ele>743.7</ele>
        <time>2010-01-01T03:19:32Z</time>
      </trkpt>
      <trkpt lat="44.14817" lon="3.2074">
        <ele>741.3</ele>
        <time>2010-01-01T03:19:52Z</time>
      </trkpt>
      <trkpt lat="44.14802" lon="3.20718">
        <ele>740.2</ele>
        <time>2010-01-01T03:20:01Z</time>
      </trkpt>
      <trkpt lat="44.14806" lon="3.20689">
        <ele>741.1</ele>
        <time>2010-01-01T03:20:09Z</time>
      </trkpt>
      <trkpt lat="44.14791" lon="3.20648">
        <ele>741.3</ele>
        <time>2010-01-01T03:20:23Z</time>
      </trkpt>
      <trkpt lat="44.14793" lon="3.20615">
        <ele>743.3</ele>
        <time>2010-01-01T03:20:32Z</time>
      </trkpt>
      <trkpt lat="44.148" lon="3.20563">
        <ele>747.8</ele>
        <time>2010-01-01T03:20:47Z</time>
      </trkpt>
      <trkpt lat="44.14805" lon="3.20541">
        <ele>747.6</ele>
        <time>2010-01-01T03:20:54Z</time>
      </trkpt>
      <trkpt lat="44.14815" lon="3.2053">
        <ele>750.6</ele>
        <time>2010-01-01T03:20:59Z</time>
      </trkpt>
      <trkpt lat="44.14846" lon="3.20511">
        <ele>760.2</ele>
        <time>2010-01-01T03:21:13Z</time>
      </trkpt>
      <trkpt lat="44.14859" lon="3.20495">
        <ele>764.8</ele>
        <time>2010-01-01T03:21:20Z</time>
      </trkpt>
      <trkpt lat="44.14857" lon="3.20446">
        <ele>767</ele>
        <time>2010-01-01T03:21:34Z</time>
      </trkpt>
      <trkpt lat="44.14862" lon="3.20384">
        <ele>773.6</ele>
        <time>2010-01-01T03:21:52Z</time>
      </trkpt>
      <trkpt lat="44.14868" lon="3.20373">
        <ele>775.8</ele>
        <time>2010-01-01T03:21:55Z</time>
      </trkpt>
      <trkpt lat="44.14884" lon="3.20277">
        <ele>773.6</ele>
        <time>2010-01-01T03:22:24Z</time>
      </trkpt>
      <trkpt lat="44.14892" lon="3.20255">
        <ele>774.2</ele>
        <time>2010-01-01T03:22:31Z</time>
      </trkpt>
      <trkpt lat="44.14905" lon="3.20232">
        <ele>777.5</ele>
        <time>2010-01-01T03:22:39Z</time>
      </trkpt>
      <trkpt lat="44.14908" lon="3.202">
        <ele>777</ele>
        <time>2010-01-01T03:22:49Z</time>
      </trkpt>
      <trkpt lat="44.14922" lon="3.20152">
        <ele>778</ele>
        <time>2010-01-01T03:23:03Z</time>
      </trkpt>
      <trkpt lat="44.14928" lon="3.20064">
        <ele>780.2</ele>
        <time>2010-01-01T03:23:29Z</time>
      </trkpt>
      <trkpt lat="44.14923" lon="3.20038">
        <ele>782.5</ele>
        <time>2010-01-01T03:23:37Z</time>
      </trkpt>
      <trkpt lat="44.1491" lon="3.20005">
        <ele>788.4</ele>
        <time>2010-01-01T03:23:47Z</time>
      </trkpt>
      <trkpt lat="44.14896" lon="3.19975">
        <ele>793.4</ele>
        <time>2010-01-01T03:23:58Z</time>
      </trkpt>
      <trkpt lat="44.14881" lon="3.19961">
        <ele>795.4</ele>
        <time>2010-01-01T03:24:05Z</time>
      </trkpt>
      <trkpt lat="44.14848" lon="3.19914">
        <ele>796</ele>
        <time>2010-01-01T03:24:24Z</time>
      </trkpt>
      <trkpt lat="44.14827" lon="3.19921">
        <ele>797.9</ele>
        <time>2010-01-01T03:24:32Z</time>
      </trkpt>
      <trkpt lat="44.14811" lon="3.19922">
        <ele>800.1</ele>
        <time>2010-01-01T03:24:39Z</time>
      </trkpt>
      <trkpt lat="44.14801" lon="3.19914">
        <ele>802</ele>
        <time>2010-01-01T03:24:43Z</time>
      </trkpt>
      <trkpt lat="44.14793" lon="3.19887">
        <ele>805.4</ele>
        <time>2010-01-01T03:24:52Z</time>
      </trkpt>
      <trkpt lat="44.14758" lon="3.19865">
        <ele>812.1</ele>
        <time>2010-01-01T03:25:07Z</time>
      </trkpt>
      <trkpt lat="44.14737" lon="3.19843">
        <ele>812</ele>
        <time>2010-01-01T03:25:18Z</time>
      </trkpt>
      <trkpt lat="44.1473" lon="3.19824">
        <ele>811.7</ele>
        <time>2010-01-01T03:25:24Z</time>
      </trkpt>
      <trkpt lat="44.14729" lon="3.19824">
        <ele>811.8</ele>
        <time>2010-01-01T03:25:24Z</time>
      </trkpt>
      <trkpt lat="44.14721" lon="3.19802">
        <ele>812</ele>
        <time>2010-01-01T03:25:31Z</time>
      </trkpt>
      <trkpt lat="44.14732" lon="3.1979">
        <ele>811.8</ele>
        <time>2010-01-01T03:25:37Z</time>
      </trkpt>
      <trkpt lat="44.1474" lon="3.19772">
        <ele>812.1</ele>
        <time>2010-01-01T03:25:43Z</time>
      </trkpt>
      <trkpt lat="44.14771" lon="3.19674">
        <ele>812.8</ele>
        <time>2010-01-01T03:26:14Z</time>
      </trkpt>
      <trkpt lat="44.14804" lon="3.19601">
        <ele>814.1</ele>
        <time>2010-01-01T03:26:39Z</time>
      </trkpt>
      <trkpt lat="44.14805" lon="3.19584">
        <ele>814</ele>
        <time>2010-01-01T03:26:43Z</time>
      </trkpt>
      <trkpt lat="44.14798" lon="3.19546">
        <ele>814.3</ele>
        <time>2010-01-01T03:26:55Z</time>
      </trkpt>
      <trkpt lat="44.14796" lon="3.19538">
        <ele>814.3</ele>
        <time>2010-01-01T03:26:57Z</time>
      </trkpt>
      <trkpt lat="44.14783" lon="3.19518">
        <ele>814.5</ele>
        <time>2010-01-01T03:27:05Z</time>
      </trkpt>
      <trkpt lat="44.14781" lon="3.19507">
        <ele>814.2</ele>
        <time>2010-01-01T03:27:08Z</time>
      </trkpt>
      <trkpt lat="44.14787" lon="3.19365">
        <ele>810.7</ele>
        <time>2010-01-01T03:27:49Z</time>
      </trkpt>
      <trkpt lat="44.14788" lon="3.19348">
        <ele>811</ele>
        <time>2010-01-01T03:27:54Z</time>
      </trkpt>
      <trkpt lat="44.14794" lon="3.19335">
        <ele>811.6</ele>
        <time>2010-01-01T03:27:58Z</time>
      </trkpt>
      <trkpt lat="44.14803" lon="3.19327">
        <ele>811.9</ele>
        <time>2010-01-01T03:28:03Z</time>
      </trkpt>
      <trkpt lat="44.14811" lon="3.19325">
        <ele>812.1</ele>
        <time>2010-01-01T03:28:06Z</time>
      </trkpt>
      <trkpt lat="44.14827" lon="3.1933">
        <ele>812.7</ele>
        <time>2010-01-01T03:28:12Z</time>
      </trkpt>
      <trkpt lat="44.14841" lon="3.19329">
        <ele>813.1</ele>
        <time>2010-01-01T03:28:18Z</time>
      </trkpt>
      <trkpt lat="44.14859" lon="3.19323">
        <ele>813.6</ele>
        <time>2010-01-01T03:28:25Z</time>
      </trkpt>
      <trkpt lat="44.15082" lon="3.19208">
        <ele>799.6</ele>
        <time>2010-01-01T03:30:01Z</time>
      </trkpt>
      <trkpt lat="44.15111" lon="3.19191">
        <ele>801.2</ele>
        <time>2010-01-01T03:30:13Z</time>
      </trkpt>
      <trkpt lat="44.15135" lon="3.19168">
        <ele>802.9</ele>
        <time>2010-01-01T03:30:25Z</time>
      </trkpt>
      <trkpt lat="44.15146" lon="3.19169">
        <ele>802.5</ele>
        <time>2010-01-01T03:30:29Z</time>
      </trkpt>
      <trkpt lat="44.15145" lon="3.19169">
        <ele>802.6</ele>
        <time>2010-01-01T03:30:30Z</time>
      </trkpt>
      <trkpt lat="44.15144" lon="3.19168">
        <ele>802.7</ele>
        <time>2010-01-01T03:30:30Z</time>
      </trkpt>
      <trkpt lat="44.15154" lon="3.19149">
        <ele>803.1</ele>
        <time>2010-01-01T03:30:37Z</time>
      </trkpt>
      <trkpt lat="44.15174" lon="3.19126">
        <ele>802</ele>
        <time>2010-01-01T03:30:47Z</time>
      </trkpt>
      <trkpt lat="44.15179" lon="3.19109">
        <ele>801.5</ele>
        <time>2010-01-01T03:30:53Z</time>
      </trkpt>
      <trkpt lat="44.15184" lon="3.19067">
        <ele>800.6</ele>
        <time>2010-01-01T03:31:05Z</time>
      </trkpt>
      <trkpt lat="44.15189" lon="3.1904">
        <ele>800.2</ele>
        <time>2010-01-01T03:31:13Z</time>
      </trkpt>
      <trkpt lat="44.15203" lon="3.18989">
        <ele>800</ele>
        <time>2010-01-01T03:31:29Z</time>
      </trkpt>
      <trkpt lat="44.15224" lon="3.18932">
        <ele>800.6</ele>
        <time>2010-01-01T03:31:47Z</time>
      </trkpt>
      <trkpt lat="44.15232" lon="3.18906">
        <ele>800.4</ele>
        <time>2010-01-01T03:31:55Z</time>
      </trkpt>
      <trkpt lat="44.15238" lon="3.18856">
        <ele>801.6</ele>
        <time>2010-01-01T03:32:10Z</time>
      </trkpt>
      <trkpt lat="44.15248" lon="3.18801">
        <ele>801.9</ele>
        <time>2010-01-01T03:32:26Z</time>
      </trkpt>
      <trkpt lat="44.15252" lon="3.18767">
        <ele>802.1</ele>
        <time>2010-01-01T03:32:36Z</time>
      </trkpt>
      <trkpt lat="44.15264" lon="3.18732">
        <ele>802.8</ele>
        <time>2010-01-01T03:32:47Z</time>
      </trkpt>
      <trkpt lat="44.15289" lon="3.18697">
        <ele>803</ele>
        <time>2010-01-01T03:33:01Z</time>
      </trkpt>
      <trkpt lat="44.153" lon="3.18686">
        <ele>803</ele>
        <time>2010-01-01T03:33:07Z</time>
      </trkpt>
      <trkpt lat="44.15349" lon="3.18631">
        <ele>800.9</ele>
        <time>2010-01-01T03:33:32Z</time>
      </trkpt>
      <trkpt lat="44.154" lon="3.18557">
        <ele>800.5</ele>
        <time>2010-01-01T03:34:01Z</time>
      </trkpt>
      <trkpt lat="44.15421" lon="3.18541">
        <ele>801.6</ele>
        <time>2010-01-01T03:34:11Z</time>
      </trkpt>
      <trkpt lat="44.15482" lon="3.1846">
        <ele>806.1</ele>
        <time>2010-01-01T03:34:45Z</time>
      </trkpt>
      <trkpt lat="44.1552" lon="3.18382">
        <ele>806.1</ele>
        <time>2010-01-01T03:35:12Z</time>
      </trkpt>
      <trkpt lat="44.15541" lon="3.18331">
        <ele>806.6</ele>
        <time>2010-01-01T03:35:29Z</time>
      </trkpt>
      <trkpt lat="44.1556" lon="3.18295">
        <ele>808</ele>
        <time>2010-01-01T03:35:41Z</time>
      </trkpt>
      <trkpt lat="44.15575" lon="3.18281">
        <ele>808</ele>
        <time>2010-01-01T03:35:49Z</time>
      </trkpt>
      <trkpt lat="44.15604" lon="3.18271">
        <ele>807</ele>
        <time>2010-01-01T03:36:01Z</time>
      </trkpt>
      <trkpt lat="44.15643" lon="3.18272">
        <ele>804.2</ele>
        <time>2010-01-01T03:36:16Z</time>
      </trkpt>
      <trkpt lat="44.15729" lon="3.18258">
        <ele>804.7</ele>
        <time>2010-01-01T03:36:51Z</time>
      </trkpt>
      <trkpt lat="44.15871" lon="3.18189">
        <ele>800.3</ele>
        <time>2010-01-01T03:37:51Z</time>
      </trkpt>
      <trkpt lat="44.15958" lon="3.18143">
        <ele>798.7</ele>
        <time>2010-01-01T03:38:28Z</time>
      </trkpt>
      <trkpt lat="44.16003" lon="3.18113">
        <ele>798.1</ele>
        <time>2010-01-01T03:38:48Z</time>
      </trkpt>
      <trkpt lat="44.16061" lon="3.18101">
        <ele>798.8</ele>
        <time>2010-01-01T03:39:12Z</time>
      </trkpt>
      <trkpt lat="44.16083" lon="3.18085">
        <ele>799</ele>
        <time>2010-01-01T03:39:22Z</time>
      </trkpt>
      <trkpt lat="44.1611" lon="3.18059">
        <ele>799.1</ele>
        <time>2010-01-01T03:39:35Z</time>
      </trkpt>
      <trkpt lat="44.16148" lon="3.18016">
        <ele>798.9</ele>
        <time>2010-01-01T03:39:54Z</time>
      </trkpt>
      <trkpt lat="44.16169" lon="3.17997">
        <ele>798.9</ele>
        <time>2010-01-01T03:40:04Z</time>
      </trkpt>
      <trkpt lat="44.16244" lon="3.1796">
        <ele>798.6</ele>
        <time>2010-01-01T03:40:36Z</time>
      </trkpt>
      <trkpt lat="44.16301" lon="3.17914">
        <ele>797.8</ele>
        <time>2010-01-01T03:41:03Z</time>
      </trkpt>
      <trkpt lat="44.16323" lon="3.17863">
        <ele>798.7</ele>
        <time>2010-01-01T03:41:20Z</time>
      </trkpt>
      <trkpt lat="44.16359" lon="3.17836">
        <ele>799.1</ele>
        <time>2010-01-01T03:41:36Z</time>
      </trkpt>
      <trkpt lat="44.16426" lon="3.1781">
        <ele>800.7</ele>
        <time>2010-01-01T03:42:04Z</time>
      </trkpt>
      <trkpt lat="44.16462" lon="3.17785">
        <ele>801.4</ele>
        <time>2010-01-01T03:42:20Z</time>
      </trkpt>
      <trkpt lat="44.16513" lon="3.17763">
        <ele>803.2</ele>
        <time>2010-01-01T03:42:41Z</time>
      </trkpt>
      <trkpt lat="44.16548" lon="3.17739">
        <ele>801.9</ele>
        <time>2010-01-01T03:42:57Z</time>
      </trkpt>
      <trkpt lat="44.16571" lon="3.17716">
        <ele>800.1</ele>
        <time>2010-01-01T03:43:08Z</time>
      </trkpt>
      <trkpt lat="44.16618" lon="3.17623">
        <ele>795.8</ele>
        <time>2010-01-01T03:43:41Z</time>
      </trkpt>
      <trkpt lat="44.1664" lon="3.17576">
        <ele>796.2</ele>
        <time>2010-01-01T03:43:57Z</time>
      </trkpt>
      <trkpt lat="44.16671" lon="3.17533">
        <ele>795.6</ele>
        <time>2010-01-01T03:44:15Z</time>
      </trkpt>
      <trkpt lat="44.167" lon="3.17509">
        <ele>795.7</ele>
        <time>2010-01-01T03:44:28Z</time>
      </trkpt>
      <trkpt lat="44.16726" lon="3.17505">
        <ele>796</ele>
        <time>2010-01-01T03:44:39Z</time>
      </trkpt>
      <trkpt lat="44.16729" lon="3.17479">
        <ele>794.1</ele>
        <time>2010-01-01T03:44:46Z</time>
      </trkpt>
      <trkpt lat="44.16713" lon="3.1745">
        <ele>795.2</ele>
        <time>2010-01-01T03:44:57Z</time>
      </trkpt>
      <trkpt lat="44.167" lon="3.17421">
        <ele>798</ele>
        <time>2010-01-01T03:45:06Z</time>
      </trkpt>
      <trkpt lat="44.16697" lon="3.17395">
        <ele>800.9</ele>
        <time>2010-01-01T03:45:14Z</time>
      </trkpt>
      <trkpt lat="44.16714" lon="3.17357">
        <ele>801.8</ele>
        <time>2010-01-01T03:45:27Z</time>
      </trkpt>
      <trkpt lat="44.16721" lon="3.17325">
        <ele>802.8</ele>
        <time>2010-01-01T03:45:36Z</time>
      </trkpt>
      <trkpt lat="44.16723" lon="3.17282">
        <ele>803.9</ele>
        <time>2010-01-01T03:45:49Z</time>
      </trkpt>
      <trkpt lat="44.16721" lon="3.17238">
        <ele>802.8</ele>
        <time>2010-01-01T03:46:02Z</time>
      </trkpt>
      <trkpt lat="44.16705" lon="3.17184">
        <ele>802.7</ele>
        <time>2010-01-01T03:46:18Z</time>
      </trkpt>
      <trkpt lat="44.16701" lon="3.17162">
        <ele>803.3</ele>
        <time>2010-01-01T03:46:25Z</time>
      </trkpt>
      <trkpt lat="44.16701" lon="3.17141">
        <ele>804.2</ele>
        <time>2010-01-01T03:46:31Z</time>
      </trkpt>
      <trkpt lat="44.16685" lon="3.1714">
        <ele>805</ele>
        <time>2010-01-01T03:46:37Z</time>
      </trkpt>
      <trkpt lat="44.167" lon="3.17117">
        <ele>804.9</ele>
        <time>2010-01-01T03:46:46Z</time>
      </trkpt>
      <trkpt lat="44.1671" lon="3.17075">
        <ele>805.6</ele>
        <time>2010-01-01T03:46:59Z</time>
      </trkpt>
      <trkpt lat="44.16736" lon="3.17051">
        <ele>805.8</ele>
        <time>2010-01-01T03:47:11Z</time>
      </trkpt>
      <trkpt lat="44.16787" lon="3.17009">
        <ele>808.8</ele>
        <time>2010-01-01T03:47:35Z</time>
      </trkpt>
      <trkpt lat="44.16827" lon="3.16956">
        <ele>815.6</ele>
        <time>2010-01-01T03:47:57Z</time>
      </trkpt>
      <trkpt lat="44.16841" lon="3.16947">
        <ele>817.3</ele>
        <time>2010-01-01T03:48:03Z</time>
      </trkpt>
      <trkpt lat="44.16875" lon="3.16883">
        <ele>815.7</ele>
        <time>2010-01-01T03:48:26Z</time>
      </trkpt>
      <trkpt lat="44.16885" lon="3.16859">
        <ele>814.7</ele>
        <time>2010-01-01T03:48:34Z</time>
      </trkpt>
      <trkpt lat="44.16938" lon="3.16822">
        <ele>810.1</ele>
        <time>2010-01-01T03:48:58Z</time>
      </trkpt>
      <trkpt lat="44.1697" lon="3.16801">
        <ele>807</ele>
        <time>2010-01-01T03:49:12Z</time>
      </trkpt>
      <trkpt lat="44.17001" lon="3.16798">
        <ele>804.4</ele>
        <time>2010-01-01T03:49:24Z</time>
      </trkpt>
      <trkpt lat="44.17018" lon="3.1679">
        <ele>804</ele>
        <time>2010-01-01T03:49:32Z</time>
      </trkpt>
      <trkpt lat="44.17038" lon="3.16774">
        <ele>803.6</ele>
        <time>2010-01-01T03:49:41Z</time>
      </trkpt>
      <trkpt lat="44.1705" lon="3.16758">
        <ele>803.6</ele>
        <time>2010-01-01T03:49:48Z</time>
      </trkpt>
      <trkpt lat="44.17106" lon="3.16701">
        <ele>803.7</ele>
        <time>2010-01-01T03:50:15Z</time>
      </trkpt>
      <trkpt lat="44.17129" lon="3.16668">
        <ele>805</ele>
        <time>2010-01-01T03:50:29Z</time>
      </trkpt>
      <trkpt lat="44.17147" lon="3.16658">
        <ele>805.3</ele>
        <time>2010-01-01T03:50:36Z</time>
      </trkpt>
      <trkpt lat="44.1719" lon="3.16645">
        <ele>805.8</ele>
        <time>2010-01-01T03:50:54Z</time>
      </trkpt>
      <trkpt lat="44.17251" lon="3.16596">
        <ele>806.6</ele>
        <time>2010-01-01T03:51:22Z</time>
      </trkpt>
      <trkpt lat="44.17264" lon="3.16576">
        <ele>807.6</ele>
        <time>2010-01-01T03:51:30Z</time>
      </trkpt>
      <trkpt lat="44.17281" lon="3.16561">
        <ele>809</ele>
        <time>2010-01-01T03:51:38Z</time>
      </trkpt>
      <trkpt lat="44.17367" lon="3.16525">
        <ele>814.1</ele>
        <time>2010-01-01T03:52:14Z</time>
      </trkpt>
      <trkpt lat="44.17451" lon="3.16499">
        <ele>815.3</ele>
        <time>2010-01-01T03:52:48Z</time>
      </trkpt>
      <trkpt lat="44.17509" lon="3.16443">
        <ele>819.1</ele>
        <time>2010-01-01T03:53:16Z</time>
      </trkpt>
      <trkpt lat="44.17464" lon="3.16379">
        <ele>824.6</ele>
        <time>2010-01-01T03:53:42Z</time>
      </trkpt>
      <trkpt lat="44.17433" lon="3.16315">
        <ele>826.2</ele>
        <time>2010-01-01T03:54:04Z</time>
      </trkpt>
      <trkpt lat="44.17423" lon="3.16272">
        <ele>826.3</ele>
        <time>2010-01-01T03:54:17Z</time>
      </trkpt>
      <trkpt lat="44.17419" lon="3.16228">
        <ele>826.2</ele>
        <time>2010-01-01T03:54:30Z</time>
      </trkpt>
      <trkpt lat="44.17414" lon="3.16195">
        <ele>826.9</ele>
        <time>2010-01-01T03:54:40Z</time>
      </trkpt>
      <trkpt lat="44.17422" lon="3.16135">
        <ele>830.4</ele>
        <time>2010-01-01T03:54:57Z</time>
      </trkpt>
      <trkpt lat="44.17425" lon="3.16082">
        <ele>833</ele>
        <time>2010-01-01T03:55:13Z</time>
      </trkpt>
      <trkpt lat="44.17418" lon="3.15948">
        <ele>838.8</ele>
        <time>2010-01-01T03:55:51Z</time>
      </trkpt>
      <trkpt lat="44.17419" lon="3.15841">
        <ele>843.6</ele>
        <time>2010-01-01T03:56:22Z</time>
      </trkpt>
      <trkpt lat="44.17423" lon="3.15815">
        <ele>845.1</ele>
        <time>2010-01-01T03:56:30Z</time>
      </trkpt>
      <trkpt lat="44.17423" lon="3.15715">
        <ele>850.3</ele>
        <time>2010-01-01T03:56:58Z</time>
      </trkpt>
      <trkpt lat="44.17395" lon="3.15705">
        <ele>850.6</ele>
        <time>2010-01-01T03:57:10Z</time>
      </trkpt>
      <trkpt lat="44.17352" lon="3.15699">
        <ele>852.2</ele>
        <time>2010-01-01T03:57:27Z</time>
      </trkpt>
      <trkpt lat="44.17294" lon="3.15701">
        <ele>852.4</ele>
        <time>2010-01-01T03:57:50Z</time>
      </trkpt>
      <trkpt lat="44.17291" lon="3.15699">
        <ele>852.4</ele>
        <time>2010-01-01T03:57:52Z</time>
      </trkpt>
      <trkpt lat="44.1729" lon="3.15699">
        <ele>852.4</ele>
        <time>2010-01-01T03:57:52Z</time>
      </trkpt>
      <trkpt lat="44.17267" lon="3.15687">
        <ele>851.3</ele>
        <time>2010-01-01T03:58:02Z</time>
      </trkpt>
      <trkpt lat="44.17237" lon="3.15754">
        <ele>848.1</ele>
        <time>2010-01-01T03:58:25Z</time>
      </trkpt>
      <trkpt lat="44.17201" lon="3.15815">
        <ele>844.4</ele>
        <time>2010-01-01T03:58:47Z</time>
      </trkpt>
      <trkpt lat="44.17177" lon="3.15841">
        <ele>841.6</ele>
        <time>2010-01-01T03:58:59Z</time>
      </trkpt>
      <trkpt lat="44.17146" lon="3.1586">
        <ele>839.3</ele>
        <time>2010-01-01T03:59:13Z</time>
      </trkpt>
      <trkpt lat="44.17078" lon="3.1585">
        <ele>836.9</ele>
        <time>2010-01-01T03:59:40Z</time>
      </trkpt>
      <trkpt lat="44.17037" lon="3.15858">
        <ele>835.4</ele>
        <time>2010-01-01T03:59:57Z</time>
      </trkpt>
      <trkpt lat="44.16937" lon="3.15893">
        <ele>831.2</ele>
        <time>2010-01-01T04:00:38Z</time>
      </trkpt>
      <trkpt lat="44.16919" lon="3.15894">
        <ele>829.4</ele>
        <time>2010-01-01T04:00:45Z</time>
      </trkpt>
      <trkpt lat="44.16901" lon="3.15911">
        <ele>828.2</ele>
        <time>2010-01-01T04:00:54Z</time>
      </trkpt>
      <trkpt lat="44.1688" lon="3.15919">
        <ele>826.4</ele>
        <time>2010-01-01T04:01:03Z</time>
      </trkpt>
      <trkpt lat="44.16848" lon="3.15926">
        <ele>824.1</ele>
        <time>2010-01-01T04:01:16Z</time>
      </trkpt>
      <trkpt lat="44.16792" lon="3.15921">
        <ele>822.4</ele>
        <time>2010-01-01T04:01:38Z</time>
      </trkpt>
      <trkpt lat="44.1675" lon="3.15907">
        <ele>822.3</ele>
        <time>2010-01-01T04:01:56Z</time>
      </trkpt>
      <trkpt lat="44.16719" lon="3.15902">
        <ele>823.6</ele>
        <time>2010-01-01T04:02:08Z</time>
      </trkpt>
      <trkpt lat="44.16719" lon="3.15901">
        <ele>823.7</ele>
        <time>2010-01-01T04:02:08Z</time>
      </trkpt>
      <trkpt lat="44.16711" lon="3.159">
        <ele>824</ele>
        <time>2010-01-01T04:02:12Z</time>
      </trkpt>
      <trkpt lat="44.16688" lon="3.15887">
        <ele>825.5</ele>
        <time>2010-01-01T04:02:21Z</time>
      </trkpt>
      <trkpt lat="44.16672" lon="3.1589">
        <ele>826.6</ele>
        <time>2010-01-01T04:02:28Z</time>
      </trkpt>
      <trkpt lat="44.16659" lon="3.15912">
        <ele>827.6</ele>
        <time>2010-01-01T04:02:36Z</time>
      </trkpt>
      <trkpt lat="44.1665" lon="3.15962">
        <ele>828.2</ele>
        <time>2010-01-01T04:02:51Z</time>
      </trkpt>
      <trkpt lat="44.16635" lon="3.15988">
        <ele>829.7</ele>
        <time>2010-01-01T04:03:00Z</time>
      </trkpt>
      <trkpt lat="44.16629" lon="3.16012">
        <ele>830.6</ele>
        <time>2010-01-01T04:03:08Z</time>
      </trkpt>
      <trkpt lat="44.16634" lon="3.16036">
        <ele>829.7</ele>
        <time>2010-01-01T04:03:15Z</time>
      </trkpt>
      <trkpt lat="44.16633" lon="3.16054">
        <ele>829.8</ele>
        <time>2010-01-01T04:03:20Z</time>
      </trkpt>
      <trkpt lat="44.16613" lon="3.16084">
        <ele>831.8</ele>
        <time>2010-01-01T04:03:32Z</time>
      </trkpt>
      <trkpt lat="44.16596" lon="3.16107">
        <ele>832.2</ele>
        <time>2010-01-01T04:03:41Z</time>
      </trkpt>
      <trkpt lat="44.16552" lon="3.16117">
        <ele>833.9</ele>
        <time>2010-01-01T04:03:59Z</time>
      </trkpt>
      <trkpt lat="44.16535" lon="3.16115">
        <ele>834.6</ele>
        <time>2010-01-01T04:04:06Z</time>
      </trkpt>
      <trkpt lat="44.16505" lon="3.16096">
        <ele>834.2</ele>
        <time>2010-01-01T04:04:19Z</time>
      </trkpt>
      <trkpt lat="44.16493" lon="3.16093">
        <ele>833.7</ele>
        <time>2010-01-01T04:04:24Z</time>
      </trkpt>
      <trkpt lat="44.16478" lon="3.16103">
        <ele>833.2</ele>
        <time>2010-01-01T04:04:31Z</time>
      </trkpt>
      <trkpt lat="44.16431" lon="3.16103">
        <ele>831.5</ele>
        <time>2010-01-01T04:04:50Z</time>
      </trkpt>
      <trkpt lat="44.16405" lon="3.16089">
        <ele>831</ele>
        <time>2010-01-01T04:05:01Z</time>
      </trkpt>
      <trkpt lat="44.1639" lon="3.16091">
        <ele>831</ele>
        <time>2010-01-01T04:05:07Z</time>
      </trkpt>
      <trkpt lat="44.16372" lon="3.1608">
        <ele>830.3</ele>
        <time>2010-01-01T04:05:15Z</time>
      </trkpt>
      <trkpt lat="44.16268" lon="3.16012">
        <ele>828.2</ele>
        <time>2010-01-01T04:06:01Z</time>
      </trkpt>
      <trkpt lat="44.16186" lon="3.15924">
        <ele>828.1</ele>
        <time>2010-01-01T04:06:42Z</time>
      </trkpt>
      <trkpt lat="44.16087" lon="3.15842">
        <ele>830.2</ele>
        <time>2010-01-01T04:07:28Z</time>
      </trkpt>
      <trkpt lat="44.16069" lon="3.1584">
        <ele>831</ele>
        <time>2010-01-01T04:07:35Z</time>
      </trkpt>
      <trkpt lat="44.16028" lon="3.1585">
        <ele>830.8</ele>
        <time>2010-01-01T04:07:52Z</time>
      </trkpt>
      <trkpt lat="44.15926" lon="3.15907">
        <ele>827.7</ele>
        <time>2010-01-01T04:08:36Z</time>
      </trkpt>
      <trkpt lat="44.15905" lon="3.15913">
        <ele>827.1</ele>
        <time>2010-01-01T04:08:45Z</time>
      </trkpt>
      <trkpt lat="44.15886" lon="3.159">
        <ele>827.6</ele>
        <time>2010-01-01T04:08:53Z</time>
      </trkpt>
      <trkpt lat="44.15825" lon="3.15828">
        <ele>829.3</ele>
        <time>2010-01-01T04:09:25Z</time>
      </trkpt>
      <trkpt lat="44.1581" lon="3.15799">
        <ele>830.6</ele>
        <time>2010-01-01T04:09:35Z</time>
      </trkpt>
      <trkpt lat="44.1581" lon="3.15765">
        <ele>833.1</ele>
        <time>2010-01-01T04:09:45Z</time>
      </trkpt>
      <trkpt lat="44.15846" lon="3.15674">
        <ele>838.2</ele>
        <time>2010-01-01T04:10:15Z</time>
      </trkpt>
      <trkpt lat="44.15863" lon="3.15619">
        <ele>839.7</ele>
        <time>2010-01-01T04:10:32Z</time>
      </trkpt>
      <trkpt lat="44.15861" lon="3.1553">
        <ele>839</ele>
        <time>2010-01-01T04:10:58Z</time>
      </trkpt>
      <trkpt lat="44.1584" lon="3.15466">
        <ele>837.2</ele>
        <time>2010-01-01T04:11:18Z</time>
      </trkpt>
      <trkpt lat="44.15819" lon="3.1543">
        <ele>836.5</ele>
        <time>2010-01-01T04:11:31Z</time>
      </trkpt>
      <trkpt lat="44.15766" lon="3.15399">
        <ele>833.5</ele>
        <time>2010-01-01T04:11:54Z</time>
      </trkpt>
      <trkpt lat="44.15743" lon="3.15368">
        <ele>830</ele>
        <time>2010-01-01T04:12:07Z</time>
      </trkpt>
      <trkpt lat="44.15714" lon="3.1529">
        <ele>822.6</ele>
        <time>2010-01-01T04:12:32Z</time>
      </trkpt>
      <trkpt lat="44.15638" lon="3.15176">
        <ele>827.4</ele>
        <time>2010-01-01T04:13:17Z</time>
      </trkpt>
      <trkpt lat="44.15553" lon="3.15098">
        <ele>835.5</ele>
        <time>2010-01-01T04:13:58Z</time>
      </trkpt>
      <trkpt lat="44.15538" lon="3.15051">
        <ele>838.7</ele>
        <time>2010-01-01T04:14:13Z</time>
      </trkpt>
      <trkpt lat="44.15537" lon="3.1497">
        <ele>838.4</ele>
        <time>2010-01-01T04:14:36Z</time>
      </trkpt>
      <trkpt lat="44.15522" lon="3.14875">
        <ele>839</ele>
        <time>2010-01-01T04:15:04Z</time>
      </trkpt>
      <trkpt lat="44.15514" lon="3.14833">
        <ele>840</ele>
        <time>2010-01-01T04:15:16Z</time>
      </trkpt>
      <trkpt lat="44.15503" lon="3.14763">
        <ele>840.9</ele>
        <time>2010-01-01T04:15:37Z</time>
      </trkpt>
      <trkpt lat="44.15506" lon="3.14658">
        <ele>840.8</ele>
        <time>2010-01-01T04:16:07Z</time>
      </trkpt>
      <trkpt lat="44.15516" lon="3.14605">
        <ele>840.6</ele>
        <time>2010-01-01T04:16:23Z</time>
      </trkpt>
      <trkpt lat="44.15517" lon="3.14566">
        <ele>841.2</ele>
        <time>2010-01-01T04:16:34Z</time>
      </trkpt>
      <trkpt lat="44.15511" lon="3.14528">
        <ele>841.6</ele>
        <time>2010-01-01T04:16:45Z</time>
      </trkpt>
      <trkpt lat="44.15475" lon="3.14404">
        <ele>843.9</ele>
        <time>2010-01-01T04:17:24Z</time>
      </trkpt>
      <trkpt lat="44.1546" lon="3.14374">
        <ele>844.2</ele>
        <time>2010-01-01T04:17:34Z</time>
      </trkpt>
      <trkpt lat="44.15428" lon="3.14353">
        <ele>844.4</ele>
        <time>2010-01-01T04:17:48Z</time>
      </trkpt>
      <trkpt lat="44.15333" lon="3.14312">
        <ele>843.5</ele>
        <time>2010-01-01T04:18:28Z</time>
      </trkpt>
      <trkpt lat="44.1526" lon="3.14246">
        <ele>837.2</ele>
        <time>2010-01-01T04:19:03Z</time>
      </trkpt>
      <trkpt lat="44.15223" lon="3.1418">
        <ele>836.4</ele>
        <time>2010-01-01T04:19:27Z</time>
      </trkpt>
      <trkpt lat="44.15208" lon="3.14162">
        <ele>836.9</ele>
        <time>2010-01-01T04:19:35Z</time>
      </trkpt>
      <trkpt lat="44.15186" lon="3.14131">
        <ele>837.5</ele>
        <time>2010-01-01T04:19:47Z</time>
      </trkpt>
      <trkpt lat="44.15168" lon="3.14101">
        <ele>837.9</ele>
        <time>2010-01-01T04:19:59Z</time>
      </trkpt>
      <trkpt lat="44.15159" lon="3.14075">
        <ele>838.8</ele>
        <time>2010-01-01T04:20:07Z</time>
      </trkpt>
      <trkpt lat="44.15156" lon="3.14032">
        <ele>839.4</ele>
        <time>2010-01-01T04:20:19Z</time>
      </trkpt>
      <trkpt lat="44.15157" lon="3.13994">
        <ele>839.4</ele>
        <time>2010-01-01T04:20:30Z</time>
      </trkpt>
      <trkpt lat="44.15163" lon="3.13944">
        <ele>838.9</ele>
        <time>2010-01-01T04:20:45Z</time>
      </trkpt>
      <trkpt lat="44.15165" lon="3.13901">
        <ele>837.4</ele>
        <time>2010-01-01T04:20:57Z</time>
      </trkpt>
      <trkpt lat="44.15163" lon="3.13895">
        <ele>837.1</ele>
        <time>2010-01-01T04:20:59Z</time>
      </trkpt>
      <trkpt lat="44.15146" lon="3.13876">
        <ele>836.1</ele>
        <time>2010-01-01T04:21:08Z</time>
      </trkpt>
      <trkpt lat="44.15109" lon="3.13824">
        <ele>833.9</ele>
        <time>2010-01-01T04:21:29Z</time>
      </trkpt>
      <trkpt lat="44.15094" lon="3.13744">
        <ele>831.8</ele>
        <time>2010-01-01T04:21:53Z</time>
      </trkpt>
      <trkpt lat="44.15094" lon="3.13743">
        <ele>831.8</ele>
        <time>2010-01-01T04:21:53Z</time>
      </trkpt>
      <trkpt lat="44.15091" lon="3.13729">
        <ele>831.6</ele>
        <time>2010-01-01T04:21:57Z</time>
      </trkpt>
      <trkpt lat="44.15069" lon="3.13661">
        <ele>826</ele>
        <time>2010-01-01T04:22:18Z</time>
      </trkpt>
      <trkpt lat="44.15044" lon="3.13658">
        <ele>823.7</ele>
        <time>2010-01-01T04:22:28Z</time>
      </trkpt>
      <trkpt lat="44.14995" lon="3.13666">
        <ele>820.8</ele>
        <time>2010-01-01T04:22:48Z</time>
      </trkpt>
      <trkpt lat="44.14947" lon="3.13656">
        <ele>820</ele>
        <time>2010-01-01T04:23:08Z</time>
      </trkpt>
      <trkpt lat="44.14899" lon="3.13642">
        <ele>821.2</ele>
        <time>2010-01-01T04:23:27Z</time>
      </trkpt>
      <trkpt lat="44.14878" lon="3.13647">
        <ele>822.1</ele>
        <time>2010-01-01T04:23:36Z</time>
      </trkpt>
      <trkpt lat="44.14866" lon="3.13659">
        <ele>822.1</ele>
        <time>2010-01-01T04:23:42Z</time>
      </trkpt>
      <trkpt lat="44.14856" lon="3.13684">
        <ele>821.4</ele>
        <time>2010-01-01T04:23:50Z</time>
      </trkpt>
      <trkpt lat="44.14844" lon="3.13724">
        <ele>820.3</ele>
        <time>2010-01-01T04:24:02Z</time>
      </trkpt>
      <trkpt lat="44.14828" lon="3.13747">
        <ele>818.9</ele>
        <time>2010-01-01T04:24:12Z</time>
      </trkpt>
      <trkpt lat="44.14713" lon="3.13804">
        <ele>818</ele>
        <time>2010-01-01T04:25:00Z</time>
      </trkpt>
      <trkpt lat="44.14651" lon="3.13874">
        <ele>817.4</ele>
        <time>2010-01-01T04:25:32Z</time>
      </trkpt>
      <trkpt lat="44.14618" lon="3.13904">
        <ele>817</ele>
        <time>2010-01-01T04:25:48Z</time>
      </trkpt>
      <trkpt lat="44.14589" lon="3.1392">
        <ele>816.2</ele>
        <time>2010-01-01T04:26:01Z</time>
      </trkpt>
      <trkpt lat="44.14574" lon="3.13923">
        <ele>816.3</ele>
        <time>2010-01-01T04:26:07Z</time>
      </trkpt>
      <trkpt lat="44.14553" lon="3.13886">
        <ele>817.1</ele>
        <time>2010-01-01T04:26:20Z</time>
      </trkpt>
      <trkpt lat="44.14532" lon="3.13833">
        <ele>817</ele>
        <time>2010-01-01T04:26:38Z</time>
      </trkpt>
      <trkpt lat="44.14531" lon="3.13768">
        <ele>817.4</ele>
        <time>2010-01-01T04:26:56Z</time>
      </trkpt>
      <trkpt lat="44.14494" lon="3.13656">
        <ele>817.8</ele>
        <time>2010-01-01T04:27:32Z</time>
      </trkpt>
      <trkpt lat="44.14469" lon="3.13617">
        <ele>816.9</ele>
        <time>2010-01-01T04:27:47Z</time>
      </trkpt>
      <trkpt lat="44.14469" lon="3.13616">
        <ele>816.9</ele>
        <time>2010-01-01T04:27:47Z</time>
      </trkpt>
      <trkpt lat="44.14437" lon="3.13555">
        <ele>815.5</ele>
        <time>2010-01-01T04:28:09Z</time>
      </trkpt>
      <trkpt lat="44.1439" lon="3.13383">
        <ele>807.6</ele>
        <time>2010-01-01T04:29:02Z</time>
      </trkpt>
      <trkpt lat="44.14383" lon="3.13272">
        <ele>801.8</ele>
        <time>2010-01-01T04:29:34Z</time>
      </trkpt>
      <trkpt lat="44.144" lon="3.13183">
        <ele>800.2</ele>
        <time>2010-01-01T04:30:00Z</time>
      </trkpt>
      <trkpt lat="44.14406" lon="3.13142">
        <ele>800</ele>
        <time>2010-01-01T04:30:12Z</time>
      </trkpt>
      <trkpt lat="44.14412" lon="3.13086">
        <ele>798.6</ele>
        <time>2010-01-01T04:30:28Z</time>
      </trkpt>
      <trkpt lat="44.14409" lon="3.12988">
        <ele>798.5</ele>
        <time>2010-01-01T04:30:57Z</time>
      </trkpt>
      <trkpt lat="44.14401" lon="3.12937">
        <ele>797.4</ele>
        <time>2010-01-01T04:31:12Z</time>
      </trkpt>
      <trkpt lat="44.14409" lon="3.12939">
        <ele>795.5</ele>
        <time>2010-01-01T04:31:15Z</time>
      </trkpt>
      <trkpt lat="44.1442" lon="3.12931">
        <ele>791.5</ele>
        <time>2010-01-01T04:31:20Z</time>
      </trkpt>
      <trkpt lat="44.14431" lon="3.12885">
        <ele>783.9</ele>
        <time>2010-01-01T04:31:34Z</time>
      </trkpt>
      <trkpt lat="44.14441" lon="3.12868">
        <ele>778.9</ele>
        <time>2010-01-01T04:31:40Z</time>
      </trkpt>
      <trkpt lat="44.14461" lon="3.12865">
        <ele>777.3</ele>
        <time>2010-01-01T04:31:48Z</time>
      </trkpt>
      <trkpt lat="44.14468" lon="3.12866">
        <ele>777.2</ele>
        <time>2010-01-01T04:31:51Z</time>
      </trkpt>
      <trkpt lat="44.14476" lon="3.12839">
        <ele>777.3</ele>
        <time>2010-01-01T04:31:59Z</time>
      </trkpt>
      <trkpt lat="44.14473" lon="3.12822">
        <ele>776.7</ele>
        <time>2010-01-01T04:32:04Z</time>
      </trkpt>
      <trkpt lat="44.14463" lon="3.12805">
        <ele>773.7</ele>
        <time>2010-01-01T04:32:11Z</time>
      </trkpt>
      <trkpt lat="44.14447" lon="3.12792">
        <ele>766.2</ele>
        <time>2010-01-01T04:32:18Z</time>
      </trkpt>
      <trkpt lat="44.14404" lon="3.12702">
        <ele>744.3</ele>
        <time>2010-01-01T04:32:49Z</time>
      </trkpt>
      <trkpt lat="44.14398" lon="3.12623">
        <ele>732.4</ele>
        <time>2010-01-01T04:33:12Z</time>
      </trkpt>
      <trkpt lat="44.14323" lon="3.12515">
        <ele>714</ele>
        <time>2010-01-01T04:33:55Z</time>
      </trkpt>
      <trkpt lat="44.14331" lon="3.1247">
        <ele>706.6</ele>
        <time>2010-01-01T04:34:08Z</time>
      </trkpt>
      <trkpt lat="44.14323" lon="3.12455">
        <ele>704.6</ele>
        <time>2010-01-01T04:34:14Z</time>
      </trkpt>
      <trkpt lat="44.14325" lon="3.12443">
        <ele>703.6</ele>
        <time>2010-01-01T04:34:17Z</time>
      </trkpt>
      <trkpt lat="44.14346" lon="3.12415">
        <ele>704</ele>
        <time>2010-01-01T04:34:29Z</time>
      </trkpt>
      <trkpt lat="44.14369" lon="3.12348">
        <ele>701.3</ele>
        <time>2010-01-01T04:34:50Z</time>
      </trkpt>
      <trkpt lat="44.14373" lon="3.12263">
        <ele>700.5</ele>
        <time>2010-01-01T04:35:15Z</time>
      </trkpt>
      <trkpt lat="44.14368" lon="3.12241">
        <ele>700.3</ele>
        <time>2010-01-01T04:35:21Z</time>
      </trkpt>
      <trkpt lat="44.14354" lon="3.12222">
        <ele>695.2</ele>
        <time>2010-01-01T04:35:29Z</time>
      </trkpt>
      <trkpt lat="44.14352" lon="3.12124">
        <ele>698.7</ele>
        <time>2010-01-01T04:35:57Z</time>
      </trkpt>
      <trkpt lat="44.14356" lon="3.12101">
        <ele>699.7</ele>
        <time>2010-01-01T04:36:04Z</time>
      </trkpt>
      <trkpt lat="44.14377" lon="3.12068">
        <ele>710.5</ele>
        <time>2010-01-01T04:36:17Z</time>
      </trkpt>
      <trkpt lat="44.14378" lon="3.12042">
        <ele>709.2</ele>
        <time>2010-01-01T04:36:24Z</time>
      </trkpt>
      <trkpt lat="44.1437" lon="3.11991">
        <ele>698.1</ele>
        <time>2010-01-01T04:36:39Z</time>
      </trkpt>
      <trkpt lat="44.14372" lon="3.11962">
        <ele>693</ele>
        <time>2010-01-01T04:36:48Z</time>
      </trkpt>
      <trkpt lat="44.14396" lon="3.11867">
        <ele>677</ele>
        <time>2010-01-01T04:37:17Z</time>
      </trkpt>
      <trkpt lat="44.14389" lon="3.1186">
        <ele>673.3</ele>
        <time>2010-01-01T04:37:20Z</time>
      </trkpt>
      <trkpt lat="44.1438" lon="3.11863">
        <ele>669.3</ele>
        <time>2010-01-01T04:37:24Z</time>
      </trkpt>
      <trkpt lat="44.14372" lon="3.11878">
        <ele>666</ele>
        <time>2010-01-01T04:37:29Z</time>
      </trkpt>
      <trkpt lat="44.14364" lon="3.11878">
        <ele>661.9</ele>
        <time>2010-01-01T04:37:32Z</time>
      </trkpt>
      <trkpt lat="44.14342" lon="3.11853">
        <ele>654.8</ele>
        <time>2010-01-01T04:37:44Z</time>
      </trkpt>
      <trkpt lat="44.14296" lon="3.11822">
        <ele>642.2</ele>
        <time>2010-01-01T04:38:04Z</time>
      </trkpt>
      <trkpt lat="44.1429" lon="3.11811">
        <ele>641.1</ele>
        <time>2010-01-01T04:38:08Z</time>
      </trkpt>
      <trkpt lat="44.1429" lon="3.1181">
        <ele>641.4</ele>
        <time>2010-01-01T04:38:08Z</time>
      </trkpt>
      <trkpt lat="44.14275" lon="3.1178">
        <ele>633.8</ele>
        <time>2010-01-01T04:38:19Z</time>
      </trkpt>
      <trkpt lat="44.14262" lon="3.11728">
        <ele>629.7</ele>
        <time>2010-01-01T04:38:35Z</time>
      </trkpt>
      <trkpt lat="44.14237" lon="3.11687">
        <ele>621.7</ele>
        <time>2010-01-01T04:38:50Z</time>
      </trkpt>
      <trkpt lat="44.14231" lon="3.11668">
        <ele>621.7</ele>
        <time>2010-01-01T04:38:56Z</time>
      </trkpt>
      <trkpt lat="44.14235" lon="3.11572">
        <ele>616.9</ele>
        <time>2010-01-01T04:39:24Z</time>
      </trkpt>
      <trkpt lat="44.14269" lon="3.11478">
        <ele>603.5</ele>
        <time>2010-01-01T04:39:54Z</time>
      </trkpt>
      <trkpt lat="44.14319" lon="3.11407">
        <ele>590.1</ele>
        <time>2010-01-01T04:40:23Z</time>
      </trkpt>
      <trkpt lat="44.14337" lon="3.11385">
        <ele>585.8</ele>
        <time>2010-01-01T04:40:32Z</time>
      </trkpt>
      <trkpt lat="44.1444" lon="3.11298">
        <ele>564</ele>
        <time>2010-01-01T04:41:20Z</time>
      </trkpt>
      <trkpt lat="44.14472" lon="3.11264">
        <ele>555</ele>
        <time>2010-01-01T04:41:36Z</time>
      </trkpt>
      <trkpt lat="44.1454" lon="3.11141">
        <ele>527.6</ele>
        <time>2010-01-01T04:42:21Z</time>
      </trkpt>
      <trkpt lat="44.14578" lon="3.11098">
        <ele>518.9</ele>
        <time>2010-01-01T04:42:41Z</time>
      </trkpt>
      <trkpt lat="44.14622" lon="3.11059">
        <ele>511.3</ele>
        <time>2010-01-01T04:43:02Z</time>
      </trkpt>
      <trkpt lat="44.14632" lon="3.11044">
        <ele>507.1</ele>
        <time>2010-01-01T04:43:07Z</time>
      </trkpt>
      <trkpt lat="44.14635" lon="3.11025">
        <ele>502.6</ele>
        <time>2010-01-01T04:43:13Z</time>
      </trkpt>
      <trkpt lat="44.14643" lon="3.11011">
        <ele>499</ele>
        <time>2010-01-01T04:43:18Z</time>
      </trkpt>
      <trkpt lat="44.14672" lon="3.10993">
        <ele>495.5</ele>
        <time>2010-01-01T04:43:31Z</time>
      </trkpt>
      <trkpt lat="44.14628" lon="3.10998">
        <ele>495.6</ele>
        <time>2010-01-01T04:43:49Z</time>
      </trkpt>
      <trkpt lat="44.14601" lon="3.10992">
        <ele>494.7</ele>
        <time>2010-01-01T04:43:59Z</time>
      </trkpt>
      <trkpt lat="44.14574" lon="3.10994">
        <ele>494.9</ele>
        <time>2010-01-01T04:44:10Z</time>
      </trkpt>
      <trkpt lat="44.14534" lon="3.11005">
        <ele>494.4</ele>
        <time>2010-01-01T04:44:27Z</time>
      </trkpt>
      <trkpt lat="44.14427" lon="3.11021">
        <ele>486.9</ele>
        <time>2010-01-01T04:45:10Z</time>
      </trkpt>
      <trkpt lat="44.14387" lon="3.11031">
        <ele>485.6</ele>
        <time>2010-01-01T04:45:26Z</time>
      </trkpt>
      <trkpt lat="44.14372" lon="3.1103">
        <ele>484.3</ele>
        <time>2010-01-01T04:45:32Z</time>
      </trkpt>
      <trkpt lat="44.14306" lon="3.11047">
        <ele>483.2</ele>
        <time>2010-01-01T04:45:59Z</time>
      </trkpt>
      <trkpt lat="44.14265" lon="3.11081">
        <ele>484.7</ele>
        <time>2010-01-01T04:46:18Z</time>
      </trkpt>
      <trkpt lat="44.14233" lon="3.1112">
        <ele>483.9</ele>
        <time>2010-01-01T04:46:35Z</time>
      </trkpt>
      <trkpt lat="44.14154" lon="3.11192">
        <ele>482.7</ele>
        <time>2010-01-01T04:47:13Z</time>
      </trkpt>
      <trkpt lat="44.14144" lon="3.11204">
        <ele>483.8</ele>
        <time>2010-01-01T04:47:18Z</time>
      </trkpt>
      <trkpt lat="44.14124" lon="3.11208">
        <ele>483.4</ele>
        <time>2010-01-01T04:47:26Z</time>
      </trkpt>
      <trkpt lat="44.14115" lon="3.11189">
        <ele>480.4</ele>
        <time>2010-01-01T04:47:33Z</time>
      </trkpt>
      <trkpt lat="44.14113" lon="3.11162">
        <ele>477.4</ele>
        <time>2010-01-01T04:47:40Z</time>
      </trkpt>
      <trkpt lat="44.14118" lon="3.11126">
        <ele>473.5</ele>
        <time>2010-01-01T04:47:51Z</time>
      </trkpt>
      <trkpt lat="44.14105" lon="3.11073">
        <ele>469.7</ele>
        <time>2010-01-01T04:48:07Z</time>
      </trkpt>
      <trkpt lat="44.14104" lon="3.11056">
        <ele>468.3</ele>
        <time>2010-01-01T04:48:12Z</time>
      </trkpt>
      <trkpt lat="44.14108" lon="3.11012">
        <ele>463.9</ele>
        <time>2010-01-01T04:48:25Z</time>
      </trkpt>
      <trkpt lat="44.14103" lon="3.10992">
        <ele>465</ele>
        <time>2010-01-01T04:48:31Z</time>
      </trkpt>
      <trkpt lat="44.14081" lon="3.1095">
        <ele>467</ele>
        <time>2010-01-01T04:48:46Z</time>
      </trkpt>
      <trkpt lat="44.14061" lon="3.10935">
        <ele>466.9</ele>
        <time>2010-01-01T04:48:55Z</time>
      </trkpt>
      <trkpt lat="44.14054" lon="3.10926">
        <ele>466.5</ele>
        <time>2010-01-01T04:48:59Z</time>
      </trkpt>
      <trkpt lat="44.14046" lon="3.10903">
        <ele>464.7</ele>
        <time>2010-01-01T04:49:06Z</time>
      </trkpt>
      <trkpt lat="44.14039" lon="3.10891">
        <ele>464.8</ele>
        <time>2010-01-01T04:49:10Z</time>
      </trkpt>
      <trkpt lat="44.14033" lon="3.10872">
        <ele>464.3</ele>
        <time>2010-01-01T04:49:16Z</time>
      </trkpt>
      <trkpt lat="44.14023" lon="3.10853">
        <ele>464.2</ele>
        <time>2010-01-01T04:49:23Z</time>
      </trkpt>
      <trkpt lat="44.13997" lon="3.1081">
        <ele>465.2</ele>
        <time>2010-01-01T04:49:39Z</time>
      </trkpt>
      <trkpt lat="44.13991" lon="3.1079">
        <ele>465.2</ele>
        <time>2010-01-01T04:49:46Z</time>
      </trkpt>
      <trkpt lat="44.13968" lon="3.10747">
        <ele>465</ele>
        <time>2010-01-01T04:50:01Z</time>
      </trkpt>
      <trkpt lat="44.13865" lon="3.10649">
        <ele>470.8</ele>
        <time>2010-01-01T04:50:51Z</time>
      </trkpt>
      <trkpt lat="44.13857" lon="3.10657">
        <ele>470.9</ele>
        <time>2010-01-01T04:50:55Z</time>
      </trkpt>
      <trkpt lat="44.13838" lon="3.10692">
        <ele>473.4</ele>
        <time>2010-01-01T04:51:07Z</time>
      </trkpt>
      <trkpt lat="44.13799" lon="3.10686">
        <ele>475.6</ele>
        <time>2010-01-01T04:51:23Z</time>
      </trkpt>
      <trkpt lat="44.13762" lon="3.10685">
        <ele>479.4</ele>
        <time>2010-01-01T04:51:38Z</time>
      </trkpt>
      <trkpt lat="44.13725" lon="3.10675">
        <ele>482</ele>
        <time>2010-01-01T04:51:53Z</time>
      </trkpt>
      <trkpt lat="44.13694" lon="3.10652">
        <ele>485</ele>
      </trkpt>
      <trkpt lat="44.13661" lon="3.10634">
        <ele>487.1</ele>
      </trkpt>
      <trkpt lat="44.13648" lon="3.10668">
        <ele>489.8</ele>
      </trkpt>
      <trkpt lat="44.13573" lon="3.10689">
        <ele>493.9</ele>
      </trkpt>
      <trkpt lat="44.13532" lon="3.10719">
        <ele>497.6</ele>
      </trkpt>
      <trkpt lat="44.13496" lon="3.10765">
        <ele>505.1</ele>
      </trkpt>
      <trkpt lat="44.13479" lon="3.10781">
        <ele>508.2</ele>
      </trkpt>
      <trkpt lat="44.13442" lon="3.10784">
        <ele>511.3</ele>
      </trkpt>
      <trkpt lat="44.13409" lon="3.10801">
        <ele>518.7</ele>
      </trkpt>
      <trkpt lat="44.13381" lon="3.10821">
        <ele>523.9</ele>
      </trkpt>
      <trkpt lat="44.13354" lon="3.10816">
        <ele>526.6</ele>
      </trkpt>
      <trkpt lat="44.13331" lon="3.10809">
        <ele>528.9</ele>
      </trkpt>
      <trkpt lat="44.13314" lon="3.10801">
        <ele>527.9</ele>
      </trkpt>
      <trkpt lat="44.13298" lon="3.10789">
        <ele>526.9</ele>
      </trkpt>
      <trkpt lat="44.13265" lon="3.10763">
        <ele>527.4</ele>
      </trkpt>
      <trkpt lat="44.13244" lon="3.10735">
        <ele>531.3</ele>
      </trkpt>
      <trkpt lat="44.13232" lon="3.10702">
        <ele>534.7</ele>
      </trkpt>
      <trkpt lat="44.13217" lon="3.10675">
        <ele>538.2</ele>
      </trkpt>
      <trkpt lat="44.13206" lon="3.10661">
        <ele>539.8</ele>
      </trkpt>
      <trkpt lat="44.13189" lon="3.10654">
        <ele>542.7</ele>
      </trkpt>
      <trkpt lat="44.13177" lon="3.1066">
        <ele>544.2</ele>
      </trkpt>
      <trkpt lat="44.13161" lon="3.1067">
        <ele>545.5</ele>
      </trkpt>
      <trkpt lat="44.13143" lon="3.10689">
        <ele>546.7</ele>
      </trkpt>
      <trkpt lat="44.13122" lon="3.10721">
        <ele>547.3</ele>
      </trkpt>
      <trkpt lat="44.13106" lon="3.10731">
        <ele>548.1</ele>
      </trkpt>
      <trkpt lat="44.13086" lon="3.10749">
        <ele>548</ele>
      </trkpt>
      <trkpt lat="44.13061" lon="3.10759">
        <ele>542.8</ele>
      </trkpt>
      <trkpt lat="44.13055" lon="3.10858">
        <ele>537.5</ele>
      </trkpt>
      <trkpt lat="44.13037" lon="3.10861">
        <ele>531.4</ele>
      </trkpt>
      <trkpt lat="44.13019" lon="3.10841">
        <ele>524.1</ele>
      </trkpt>
      <trkpt lat="44.12998" lon="3.10816">
        <ele>517.7</ele>
      </trkpt>
      <trkpt lat="44.12973" lon="3.10764">
        <ele>508.7</ele>
      </trkpt>
      <trkpt lat="44.12934" lon="3.10725">
        <ele>497.7</ele>
      </trkpt>
      <trkpt lat="44.12895" lon="3.10706">
        <ele>491.5</ele>
      </trkpt>
      <trkpt lat="44.12842" lon="3.10673">
        <ele>481</ele>
      </trkpt>
      <trkpt lat="44.12793" lon="3.10623">
        <ele>472.9</ele>
      </trkpt>
      <trkpt lat="44.12777" lon="3.10577">
        <ele>464.9</ele>
      </trkpt>
      <trkpt lat="44.12753" lon="3.10489">
        <ele>447.9</ele>
      </trkpt>
      <trkpt lat="44.12761" lon="3.10468">
        <ele>445.9</ele>
      </trkpt>
      <trkpt lat="44.1275" lon="3.10429">
        <ele>437.2</ele>
      </trkpt>
      <trkpt lat="44.1275" lon="3.10381">
        <ele>428.8</ele>
      </trkpt>
      <trkpt lat="44.12733" lon="3.10348">
        <ele>428.5</ele>
        <time>2010-01-01T04:59:20Z</time>
      </trkpt>
      <trkpt lat="44.1272" lon="3.10329">
        <ele>428</ele>
        <time>2010-01-01T04:59:28Z</time>
      </trkpt>
      <trkpt lat="44.12703" lon="3.10325">
        <ele>428.5</ele>
        <time>2010-01-01T04:59:35Z</time>
      </trkpt>
      <trkpt lat="44.12682" lon="3.10323">
        <ele>428.8</ele>
        <time>2010-01-01T04:59:43Z</time>
      </trkpt>
      <trkpt lat="44.12606" lon="3.10332">
        <ele>432.6</ele>
        <time>2010-01-01T05:00:14Z</time>
      </trkpt>
      <trkpt lat="44.12573" lon="3.10333">
        <ele>431.8</ele>
        <time>2010-01-01T05:00:27Z</time>
      </trkpt>
      <trkpt lat="44.12547" lon="3.10338">
        <ele>430.8</ele>
        <time>2010-01-01T05:00:37Z</time>
      </trkpt>
      <trkpt lat="44.12506" lon="3.10357">
        <ele>431.1</ele>
        <time>2010-01-01T05:00:55Z</time>
      </trkpt>
      <trkpt lat="44.12482" lon="3.10355">
        <ele>429.2</ele>
        <time>2010-01-01T05:01:04Z</time>
      </trkpt>
      <trkpt lat="44.12463" lon="3.10347">
        <ele>429</ele>
        <time>2010-01-01T05:01:12Z</time>
      </trkpt>
      <trkpt lat="44.12434" lon="3.10321">
        <ele>432.7</ele>
      </trkpt>
      <trkpt lat="44.12421" lon="3.10293">
        <ele>436.3</ele>
      </trkpt>
      <trkpt lat="44.12408" lon="3.10272">
        <ele>445.3</ele>
      </trkpt>
      <trkpt lat="44.12398" lon="3.10251">
        <ele>455.9</ele>
      </trkpt>
      <trkpt lat="44.12371" lon="3.1023">
        <ele>467</ele>
      </trkpt>
      <trkpt lat="44.12345" lon="3.10207">
        <ele>469.4</ele>
      </trkpt>
      <trkpt lat="44.12312" lon="3.10191">
        <ele>478.5</ele>
      </trkpt>
      <trkpt lat="44.1228" lon="3.10169">
        <ele>483</ele>
      </trkpt>
      <trkpt lat="44.1226" lon="3.10155">
        <ele>484.4</ele>
      </trkpt>
      <trkpt lat="44.12228" lon="3.10141">
        <ele>491.8</ele>
      </trkpt>
      <trkpt lat="44.12199" lon="3.10128">
        <ele>495.8</ele>
      </trkpt>
      <trkpt lat="44.12191" lon="3.10113">
        <ele>498.3</ele>
      </trkpt>
      <trkpt lat="44.12185" lon="3.10101">
        <ele>496.9</ele>
      </trkpt>
      <trkpt lat="44.1217" lon="3.10101">
        <ele>500.3</ele>
      </trkpt>
      <trkpt lat="44.12153" lon="3.10093">
        <ele>503.2</ele>
      </trkpt>
      <trkpt lat="44.12141" lon="3.10083">
        <ele>505.6</ele>
      </trkpt>
      <trkpt lat="44.12125" lon="3.10074">
        <ele>506.5</ele>
      </trkpt>
      <trkpt lat="44.12112" lon="3.10068">
        <ele>509</ele>
      </trkpt>
      <trkpt lat="44.12102" lon="3.10044">
        <ele>509.1</ele>
      </trkpt>
      <trkpt lat="44.12093" lon="3.10034">
        <ele>509.7</ele>
      </trkpt>
      <trkpt lat="44.12077" lon="3.10014">
        <ele>509.4</ele>
      </trkpt>
      <trkpt lat="44.12068" lon="3.09999">
        <ele>508.6</ele>
      </trkpt>
      <trkpt lat="44.12045" lon="3.09979">
        <ele>508.8</ele>
      </trkpt>
      <trkpt lat="44.12031" lon="3.09965">
        <ele>509.2</ele>
      </trkpt>
      <trkpt lat="44.12012" lon="3.09955">
        <ele>510.6</ele>
      </trkpt>
      <trkpt lat="44.11996" lon="3.0994">
        <ele>510.8</ele>
      </trkpt>
      <trkpt lat="44.11983" lon="3.09929">
        <ele>509.6</ele>
      </trkpt>
      <trkpt lat="44.11962" lon="3.09917">
        <ele>510.5</ele>
      </trkpt>
      <trkpt lat="44.11944" lon="3.09902">
        <ele>510.4</ele>
      </trkpt>
      <trkpt lat="44.11929" lon="3.09884">
        <ele>509.7</ele>
      </trkpt>
      <trkpt lat="44.11905" lon="3.09843">
        <ele>505.2</ele>
      </trkpt>
      <trkpt lat="44.11885" lon="3.09801">
        <ele>502.3</ele>
      </trkpt>
      <trkpt lat="44.11862" lon="3.09763">
        <ele>500.9</ele>
      </trkpt>
      <trkpt lat="44.11843" lon="3.09739">
        <ele>500.7</ele>
      </trkpt>
      <trkpt lat="44.11827" lon="3.09713">
        <ele>502.7</ele>
      </trkpt>
      <trkpt lat="44.11823" lon="3.09687">
        <ele>501.3</ele>
      </trkpt>
      <trkpt lat="44.11816" lon="3.0967">
        <ele>502</ele>
      </trkpt>
      <trkpt lat="44.11791" lon="3.09639">
        <ele>505.9</ele>
      </trkpt>
      <trkpt lat="44.11767" lon="3.09608">
        <ele>508.4</ele>
      </trkpt>
      <trkpt lat="44.11749" lon="3.09578">
        <ele>506.5</ele>
      </trkpt>
      <trkpt lat="44.11714" lon="3.09548">
        <ele>508.2</ele>
      </trkpt>
      <trkpt lat="44.11654" lon="3.09495">
        <ele>503.9</ele>
      </trkpt>
      <trkpt lat="44.1159" lon="3.09442">
        <ele>496.6</ele>
      </trkpt>
      <trkpt lat="44.11524" lon="3.09394">
        <ele>489.2</ele>
      </trkpt>
      <trkpt lat="44.11485" lon="3.09381">
        <ele>486.3</ele>
      </trkpt>
      <trkpt lat="44.11447" lon="3.09364">
        <ele>481.8</ele>
      </trkpt>
      <trkpt lat="44.11424" lon="3.09356">
        <ele>480.6</ele>
      </trkpt>
      <trkpt lat="44.11392" lon="3.09337">
        <ele>480.9</ele>
      </trkpt>
      <trkpt lat="44.1135" lon="3.09299">
        <ele>473.2</ele>
      </trkpt>
      <trkpt lat="44.11328" lon="3.09279">
        <ele>467.7</ele>
      </trkpt>
      <trkpt lat="44.113" lon="3.09277">
        <ele>464.5</ele>
      </trkpt>
      <trkpt lat="44.11275" lon="3.09261">
        <ele>459.9</ele>
      </trkpt>
      <trkpt lat="44.11246" lon="3.0925">
        <ele>457.5</ele>
      </trkpt>
      <trkpt lat="44.11201" lon="3.09211">
        <ele>452.9</ele>
      </trkpt>
      <trkpt lat="44.11202" lon="3.09183">
        <ele>445.4</ele>
      </trkpt>
      <trkpt lat="44.11164" lon="3.09171">
        <ele>444.9</ele>
      </trkpt>
      <trkpt lat="44.1113" lon="3.09165">
        <ele>442.3</ele>
      </trkpt>
      <trkpt lat="44.11089" lon="3.09151">
        <ele>439.5</ele>
      </trkpt>
      <trkpt lat="44.11057" lon="3.09125">
        <ele>435</ele>
      </trkpt>
      <trkpt lat="44.11009" lon="3.09106">
        <ele>431.2</ele>
      </trkpt>
      <trkpt lat="44.10965" lon="3.09106">
        <ele>429.4</ele>
      </trkpt>
      <trkpt lat="44.10926" lon="3.09103">
        <ele>428.2</ele>
      </trkpt>
      <trkpt lat="44.10861" lon="3.09099">
        <ele>424.7</ele>
      </trkpt>
      <trkpt lat="44.10828" lon="3.09066">
        <ele>416.3</ele>
      </trkpt>
      <trkpt lat="44.10794" lon="3.09042">
        <ele>411.9</ele>
      </trkpt>
      <trkpt lat="44.10752" lon="3.0902">
        <ele>405.7</ele>
      </trkpt>
      <trkpt lat="44.10717" lon="3.08993">
        <ele>399.1</ele>
      </trkpt>
      <trkpt lat="44.10687" lon="3.0897">
        <ele>393.2</ele>
      </trkpt>
      <trkpt lat="44.10664" lon="3.08946">
        <ele>387.4</ele>
      </trkpt>
      <trkpt lat="44.10633" lon="3.08952">
        <ele>381.2</ele>
      </trkpt>
      <trkpt lat="44.10616" lon="3.08954">
        <ele>377.2</ele>
      </trkpt>
      <trkpt lat="44.106" lon="3.08951">
        <ele>372.5</ele>
      </trkpt>
      <trkpt lat="44.10589" lon="3.08965">
        <ele>372.2</ele>
      </trkpt>
      <trkpt lat="44.1056" lon="3.08968">
        <ele>367.1</ele>
      </trkpt>
      <trkpt lat="44.1055" lon="3.08926">
        <ele>360.2</ele>
      </trkpt>
      <trkpt lat="44.10527" lon="3.08886">
        <ele>358.9</ele>
      </trkpt>
      <trkpt lat="44.10509" lon="3.0886">
        <ele>358</ele>
      </trkpt>
      <trkpt lat="44.10491" lon="3.08861">
        <ele>358</ele>
        <time>2010-01-01T05:19:25Z</time>
      </trkpt>
      <trkpt lat="44.10471" lon="3.08865">
        <ele>358</ele>
        <time>2010-01-01T05:19:33Z</time>
      </trkpt>
      <trkpt lat="44.10396" lon="3.08864">
        <ele>358</ele>
        <time>2010-01-01T05:20:03Z</time>
      </trkpt>
      <trkpt lat="44.10367" lon="3.08861">
        <ele>358</ele>
        <time>2010-01-01T05:20:15Z</time>
      </trkpt>
      <trkpt lat="44.10341" lon="3.08843">
        <ele>357.7</ele>
        <time>2010-01-01T05:20:26Z</time>
      </trkpt>
      <trkpt lat="44.10322" lon="3.08818">
        <ele>356.8</ele>
        <time>2010-01-01T05:20:37Z</time>
      </trkpt>
      <trkpt lat="44.10309" lon="3.08789">
        <ele>356.6</ele>
        <time>2010-01-01T05:20:47Z</time>
      </trkpt>
    </trkseg>
  </trk>
</gpx>